<?xml version="1.0" encoding="UTF-8" standalone="no" ?>
<gpx xmlns="http://www.topografix.com/GPX/1/1" xmlns:xsi="http://www.w3.org/2001/XMLSchema-instance" xsi:schemaLocation="http://www.topografix.com/GPX/1/1 http://www.topografix.com/GPX/1/1/gpx.xsd" version="1.1" creator="VisuGPX - https://www.visugpx.com">
  <metadata>
    <name>passenans</name>
    <desc><![CDATA[Belle randonnée accompagnée par Richard]]></desc>
  </metadata>
  <trk>
    <name><![CDATA[passenans 2]]></name>
    <trkseg>
      <trkpt lat="46.8001" lon="5.61293">
        <ele>224</ele>
        <time>2012-05-24T09:10:55Z</time>
      </trkpt>
      <trkpt lat="46.8001" lon="5.61293">
        <ele>224</ele>
        <time>2012-05-24T09:10:56Z</time>
      </trkpt>
      <trkpt lat="46.8001" lon="5.61292">
        <ele>229</ele>
        <time>2012-05-24T09:11:00Z</time>
      </trkpt>
      <trkpt lat="46.8001" lon="5.61293">
        <ele>234</ele>
        <time>2012-05-24T09:11:02Z</time>
      </trkpt>
      <trkpt lat="46.8001" lon="5.61292">
        <ele>239</ele>
        <time>2012-05-24T09:11:04Z</time>
      </trkpt>
      <trkpt lat="46.80009" lon="5.61292">
        <ele>243</ele>
        <time>2012-05-24T09:11:06Z</time>
      </trkpt>
      <trkpt lat="46.80007" lon="5.61291">
        <ele>247</ele>
        <time>2012-05-24T09:11:08Z</time>
      </trkpt>
      <trkpt lat="46.80006" lon="5.6129">
        <ele>251</ele>
        <time>2012-05-24T09:11:10Z</time>
      </trkpt>
      <trkpt lat="46.80006" lon="5.61289">
        <ele>254</ele>
        <time>2012-05-24T09:11:12Z</time>
      </trkpt>
      <trkpt lat="46.80006" lon="5.61289">
        <ele>257</ele>
        <time>2012-05-24T09:11:14Z</time>
      </trkpt>
      <trkpt lat="46.80007" lon="5.61289">
        <ele>261</ele>
        <time>2012-05-24T09:11:16Z</time>
      </trkpt>
      <trkpt lat="46.80007" lon="5.61287">
        <ele>265</ele>
        <time>2012-05-24T09:11:19Z</time>
      </trkpt>
      <trkpt lat="46.80005" lon="5.61285">
        <ele>268</ele>
        <time>2012-05-24T09:11:22Z</time>
      </trkpt>
      <trkpt lat="46.80003" lon="5.61284">
        <ele>272</ele>
        <time>2012-05-24T09:11:25Z</time>
      </trkpt>
      <trkpt lat="46.80002" lon="5.61284">
        <ele>275</ele>
        <time>2012-05-24T09:11:29Z</time>
      </trkpt>
      <trkpt lat="46.80002" lon="5.61283">
        <ele>278</ele>
        <time>2012-05-24T09:11:33Z</time>
      </trkpt>
      <trkpt lat="46.79998" lon="5.61281">
        <ele>282</ele>
        <time>2012-05-24T09:11:38Z</time>
      </trkpt>
      <trkpt lat="46.79996" lon="5.61278">
        <ele>285</ele>
        <time>2012-05-24T09:11:42Z</time>
      </trkpt>
      <trkpt lat="46.79995" lon="5.61278">
        <ele>288</ele>
        <time>2012-05-24T09:11:48Z</time>
      </trkpt>
      <trkpt lat="46.79995" lon="5.61279">
        <ele>289</ele>
        <time>2012-05-24T09:11:50Z</time>
      </trkpt>
      <trkpt lat="46.79995" lon="5.61279">
        <ele>290</ele>
        <time>2012-05-24T09:11:53Z</time>
      </trkpt>
      <trkpt lat="46.79997" lon="5.61281">
        <ele>293</ele>
        <time>2012-05-24T09:12:01Z</time>
      </trkpt>
      <trkpt lat="46.79998" lon="5.61283">
        <ele>296</ele>
        <time>2012-05-24T09:12:12Z</time>
      </trkpt>
      <trkpt lat="46.79994" lon="5.6128">
        <ele>299</ele>
        <time>2012-05-24T09:12:25Z</time>
      </trkpt>
      <trkpt lat="46.79995" lon="5.61281">
        <ele>301</ele>
        <time>2012-05-24T09:12:46Z</time>
      </trkpt>
      <trkpt lat="46.80003" lon="5.61288">
        <ele>301</ele>
        <time>2012-05-24T09:13:21Z</time>
      </trkpt>
      <trkpt lat="46.80007" lon="5.61284">
        <ele>302</ele>
        <time>2012-05-24T09:13:48Z</time>
      </trkpt>
      <trkpt lat="46.80007" lon="5.61283">
        <ele>301</ele>
        <time>2012-05-24T09:14:05Z</time>
      </trkpt>
      <trkpt lat="46.80007" lon="5.61282">
        <ele>301</ele>
        <time>2012-05-24T09:14:28Z</time>
      </trkpt>
      <trkpt lat="46.80007" lon="5.61291">
        <ele>301</ele>
        <time>2012-05-24T09:14:44Z</time>
      </trkpt>
      <trkpt lat="46.80008" lon="5.61289">
        <ele>301</ele>
        <time>2012-05-24T09:16:57Z</time>
      </trkpt>
      <trkpt lat="46.8" lon="5.61296">
        <ele>301</ele>
        <time>2012-05-24T09:17:11Z</time>
      </trkpt>
      <trkpt lat="46.79994" lon="5.61299">
        <ele>301</ele>
        <time>2012-05-24T09:17:16Z</time>
      </trkpt>
      <trkpt lat="46.79967" lon="5.61286">
        <ele>300</ele>
        <time>2012-05-24T09:17:40Z</time>
      </trkpt>
      <trkpt lat="46.7996" lon="5.61282">
        <ele>298</ele>
        <time>2012-05-24T09:17:47Z</time>
      </trkpt>
      <trkpt lat="46.79957" lon="5.61282">
        <ele>298</ele>
        <time>2012-05-24T09:17:49Z</time>
      </trkpt>
      <trkpt lat="46.79935" lon="5.61267">
        <ele>297</ele>
        <time>2012-05-24T09:18:06Z</time>
      </trkpt>
      <trkpt lat="46.79924" lon="5.61255">
        <ele>296</ele>
        <time>2012-05-24T09:18:18Z</time>
      </trkpt>
      <trkpt lat="46.79908" lon="5.61243">
        <ele>295</ele>
        <time>2012-05-24T09:18:31Z</time>
      </trkpt>
      <trkpt lat="46.79906" lon="5.61241">
        <ele>294</ele>
        <time>2012-05-24T09:18:33Z</time>
      </trkpt>
      <trkpt lat="46.79902" lon="5.61239">
        <ele>296</ele>
        <time>2012-05-24T09:18:36Z</time>
      </trkpt>
      <trkpt lat="46.79899" lon="5.61239">
        <ele>295</ele>
        <time>2012-05-24T09:18:38Z</time>
      </trkpt>
      <trkpt lat="46.79897" lon="5.61237">
        <ele>294</ele>
        <time>2012-05-24T09:18:40Z</time>
      </trkpt>
      <trkpt lat="46.79894" lon="5.61236">
        <ele>296</ele>
        <time>2012-05-24T09:18:43Z</time>
      </trkpt>
      <trkpt lat="46.79893" lon="5.61236">
        <ele>294</ele>
        <time>2012-05-24T09:18:45Z</time>
      </trkpt>
      <trkpt lat="46.79887" lon="5.61231">
        <ele>295</ele>
        <time>2012-05-24T09:18:51Z</time>
      </trkpt>
      <trkpt lat="46.7986" lon="5.61228">
        <ele>295</ele>
        <time>2012-05-24T09:19:12Z</time>
      </trkpt>
      <trkpt lat="46.79859" lon="5.61228">
        <ele>296</ele>
        <time>2012-05-24T09:19:14Z</time>
      </trkpt>
      <trkpt lat="46.79856" lon="5.61231">
        <ele>295</ele>
        <time>2012-05-24T09:19:16Z</time>
      </trkpt>
      <trkpt lat="46.79852" lon="5.61234">
        <ele>297</ele>
        <time>2012-05-24T09:19:19Z</time>
      </trkpt>
      <trkpt lat="46.79844" lon="5.61239">
        <ele>296</ele>
        <time>2012-05-24T09:19:25Z</time>
      </trkpt>
      <trkpt lat="46.79828" lon="5.61251">
        <ele>297</ele>
        <time>2012-05-24T09:19:39Z</time>
      </trkpt>
      <trkpt lat="46.79818" lon="5.6126">
        <ele>296</ele>
        <time>2012-05-24T09:19:53Z</time>
      </trkpt>
      <trkpt lat="46.79797" lon="5.61282">
        <ele>297</ele>
        <time>2012-05-24T09:20:12Z</time>
      </trkpt>
      <trkpt lat="46.79783" lon="5.61314">
        <ele>298</ele>
        <time>2012-05-24T09:20:34Z</time>
      </trkpt>
      <trkpt lat="46.79777" lon="5.61336">
        <ele>300</ele>
        <time>2012-05-24T09:20:46Z</time>
      </trkpt>
      <trkpt lat="46.79774" lon="5.61344">
        <ele>300</ele>
        <time>2012-05-24T09:20:51Z</time>
      </trkpt>
      <trkpt lat="46.7977" lon="5.61353">
        <ele>301</ele>
        <time>2012-05-24T09:20:58Z</time>
      </trkpt>
      <trkpt lat="46.79769" lon="5.61356">
        <ele>301</ele>
        <time>2012-05-24T09:21:00Z</time>
      </trkpt>
      <trkpt lat="46.79766" lon="5.61368">
        <ele>301</ele>
        <time>2012-05-24T09:21:07Z</time>
      </trkpt>
      <trkpt lat="46.79764" lon="5.61378">
        <ele>302</ele>
        <time>2012-05-24T09:21:13Z</time>
      </trkpt>
      <trkpt lat="46.79752" lon="5.61406">
        <ele>304</ele>
        <time>2012-05-24T09:21:31Z</time>
      </trkpt>
      <trkpt lat="46.79748" lon="5.61417">
        <ele>304</ele>
        <time>2012-05-24T09:21:41Z</time>
      </trkpt>
      <trkpt lat="46.79747" lon="5.61421">
        <ele>305</ele>
        <time>2012-05-24T09:21:43Z</time>
      </trkpt>
      <trkpt lat="46.79742" lon="5.61442">
        <ele>306</ele>
        <time>2012-05-24T09:21:55Z</time>
      </trkpt>
      <trkpt lat="46.79735" lon="5.61465">
        <ele>307</ele>
        <time>2012-05-24T09:22:08Z</time>
      </trkpt>
      <trkpt lat="46.79731" lon="5.61494">
        <ele>308</ele>
        <time>2012-05-24T09:22:22Z</time>
      </trkpt>
      <trkpt lat="46.79733" lon="5.61518">
        <ele>309</ele>
        <time>2012-05-24T09:22:35Z</time>
      </trkpt>
      <trkpt lat="46.79734" lon="5.61528">
        <ele>310</ele>
        <time>2012-05-24T09:22:40Z</time>
      </trkpt>
      <trkpt lat="46.79741" lon="5.61546">
        <ele>310</ele>
        <time>2012-05-24T09:22:50Z</time>
      </trkpt>
      <trkpt lat="46.79747" lon="5.61572">
        <ele>310</ele>
        <time>2012-05-24T09:23:04Z</time>
      </trkpt>
      <trkpt lat="46.7975" lon="5.61592">
        <ele>311</ele>
        <time>2012-05-24T09:23:17Z</time>
      </trkpt>
      <trkpt lat="46.7975" lon="5.61593">
        <ele>311</ele>
        <time>2012-05-24T09:23:18Z</time>
      </trkpt>
      <trkpt lat="46.79746" lon="5.61611">
        <ele>311</ele>
        <time>2012-05-24T09:23:29Z</time>
      </trkpt>
      <trkpt lat="46.79738" lon="5.6163">
        <ele>312</ele>
        <time>2012-05-24T09:23:40Z</time>
      </trkpt>
      <trkpt lat="46.79734" lon="5.61648">
        <ele>313</ele>
        <time>2012-05-24T09:23:50Z</time>
      </trkpt>
      <trkpt lat="46.79729" lon="5.61654">
        <ele>313</ele>
        <time>2012-05-24T09:23:54Z</time>
      </trkpt>
      <trkpt lat="46.79722" lon="5.61678">
        <ele>314</ele>
        <time>2012-05-24T09:24:10Z</time>
      </trkpt>
      <trkpt lat="46.79715" lon="5.61704">
        <ele>315</ele>
        <time>2012-05-24T09:24:26Z</time>
      </trkpt>
      <trkpt lat="46.79709" lon="5.61729">
        <ele>317</ele>
        <time>2012-05-24T09:24:42Z</time>
      </trkpt>
      <trkpt lat="46.79704" lon="5.61737">
        <ele>317</ele>
        <time>2012-05-24T09:24:47Z</time>
      </trkpt>
      <trkpt lat="46.79702" lon="5.61742">
        <ele>317</ele>
        <time>2012-05-24T09:24:50Z</time>
      </trkpt>
      <trkpt lat="46.79704" lon="5.61751">
        <ele>318</ele>
        <time>2012-05-24T09:24:53Z</time>
      </trkpt>
      <trkpt lat="46.79703" lon="5.61766">
        <ele>318</ele>
        <time>2012-05-24T09:25:02Z</time>
      </trkpt>
      <trkpt lat="46.79703" lon="5.61769">
        <ele>319</ele>
        <time>2012-05-24T09:25:04Z</time>
      </trkpt>
      <trkpt lat="46.79705" lon="5.61783">
        <ele>319</ele>
        <time>2012-05-24T09:25:13Z</time>
      </trkpt>
      <trkpt lat="46.7971" lon="5.61795">
        <ele>320</ele>
        <time>2012-05-24T09:25:20Z</time>
      </trkpt>
      <trkpt lat="46.79711" lon="5.61803">
        <ele>320</ele>
        <time>2012-05-24T09:25:25Z</time>
      </trkpt>
      <trkpt lat="46.79711" lon="5.61809">
        <ele>321</ele>
        <time>2012-05-24T09:25:29Z</time>
      </trkpt>
      <trkpt lat="46.79712" lon="5.61833">
        <ele>322</ele>
        <time>2012-05-24T09:25:43Z</time>
      </trkpt>
      <trkpt lat="46.79712" lon="5.61835">
        <ele>322</ele>
        <time>2012-05-24T09:25:44Z</time>
      </trkpt>
      <trkpt lat="46.79714" lon="5.61842">
        <ele>322</ele>
        <time>2012-05-24T09:25:48Z</time>
      </trkpt>
      <trkpt lat="46.79718" lon="5.6186">
        <ele>324</ele>
        <time>2012-05-24T09:26:05Z</time>
      </trkpt>
      <trkpt lat="46.79713" lon="5.61871">
        <ele>326</ele>
        <time>2012-05-24T09:26:22Z</time>
      </trkpt>
      <trkpt lat="46.79706" lon="5.61874">
        <ele>326</ele>
        <time>2012-05-24T09:26:28Z</time>
      </trkpt>
      <trkpt lat="46.79679" lon="5.61894">
        <ele>326</ele>
        <time>2012-05-24T09:26:51Z</time>
      </trkpt>
      <trkpt lat="46.79677" lon="5.61896">
        <ele>326</ele>
        <time>2012-05-24T09:26:53Z</time>
      </trkpt>
      <trkpt lat="46.79672" lon="5.61904">
        <ele>326</ele>
        <time>2012-05-24T09:27:00Z</time>
      </trkpt>
      <trkpt lat="46.7966" lon="5.61917">
        <ele>327</ele>
        <time>2012-05-24T09:27:10Z</time>
      </trkpt>
      <trkpt lat="46.79645" lon="5.6193">
        <ele>328</ele>
        <time>2012-05-24T09:27:20Z</time>
      </trkpt>
      <trkpt lat="46.79637" lon="5.6194">
        <ele>328</ele>
        <time>2012-05-24T09:27:32Z</time>
      </trkpt>
      <trkpt lat="46.79637" lon="5.61945">
        <ele>328</ele>
        <time>2012-05-24T09:27:34Z</time>
      </trkpt>
      <trkpt lat="46.79639" lon="5.61953">
        <ele>329</ele>
        <time>2012-05-24T09:27:38Z</time>
      </trkpt>
      <trkpt lat="46.79639" lon="5.61963">
        <ele>329</ele>
        <time>2012-05-24T09:27:43Z</time>
      </trkpt>
      <trkpt lat="46.79629" lon="5.6198">
        <ele>330</ele>
        <time>2012-05-24T09:27:56Z</time>
      </trkpt>
      <trkpt lat="46.79625" lon="5.61986">
        <ele>331</ele>
        <time>2012-05-24T09:28:00Z</time>
      </trkpt>
      <trkpt lat="46.79612" lon="5.61996">
        <ele>332</ele>
        <time>2012-05-24T09:28:12Z</time>
      </trkpt>
      <trkpt lat="46.79601" lon="5.62009">
        <ele>335</ele>
        <time>2012-05-24T09:28:30Z</time>
      </trkpt>
      <trkpt lat="46.796" lon="5.62012">
        <ele>335</ele>
        <time>2012-05-24T09:28:32Z</time>
      </trkpt>
      <trkpt lat="46.79593" lon="5.62028">
        <ele>338</ele>
        <time>2012-05-24T09:28:45Z</time>
      </trkpt>
      <trkpt lat="46.7959" lon="5.62045">
        <ele>340</ele>
        <time>2012-05-24T09:28:59Z</time>
      </trkpt>
      <trkpt lat="46.79587" lon="5.62061">
        <ele>342</ele>
        <time>2012-05-24T09:29:15Z</time>
      </trkpt>
      <trkpt lat="46.79577" lon="5.62087">
        <ele>345</ele>
        <time>2012-05-24T09:29:34Z</time>
      </trkpt>
      <trkpt lat="46.79572" lon="5.62103">
        <ele>348</ele>
        <time>2012-05-24T09:29:50Z</time>
      </trkpt>
      <trkpt lat="46.79565" lon="5.62116">
        <ele>350</ele>
        <time>2012-05-24T09:30:01Z</time>
      </trkpt>
      <trkpt lat="46.79562" lon="5.6212">
        <ele>351</ele>
        <time>2012-05-24T09:30:04Z</time>
      </trkpt>
      <trkpt lat="46.79553" lon="5.62131">
        <ele>353</ele>
        <time>2012-05-24T09:30:18Z</time>
      </trkpt>
      <trkpt lat="46.7954" lon="5.62142">
        <ele>356</ele>
        <time>2012-05-24T09:30:34Z</time>
      </trkpt>
      <trkpt lat="46.79527" lon="5.62148">
        <ele>359</ele>
        <time>2012-05-24T09:30:49Z</time>
      </trkpt>
      <trkpt lat="46.7952" lon="5.62149">
        <ele>361</ele>
        <time>2012-05-24T09:31:01Z</time>
      </trkpt>
      <trkpt lat="46.79513" lon="5.62154">
        <ele>363</ele>
        <time>2012-05-24T09:31:12Z</time>
      </trkpt>
      <trkpt lat="46.79501" lon="5.62163">
        <ele>365</ele>
        <time>2012-05-24T09:31:26Z</time>
      </trkpt>
      <trkpt lat="46.79493" lon="5.62172">
        <ele>367</ele>
        <time>2012-05-24T09:31:37Z</time>
      </trkpt>
      <trkpt lat="46.79485" lon="5.62184">
        <ele>369</ele>
        <time>2012-05-24T09:31:52Z</time>
      </trkpt>
      <trkpt lat="46.79476" lon="5.6219">
        <ele>371</ele>
        <time>2012-05-24T09:32:09Z</time>
      </trkpt>
      <trkpt lat="46.79474" lon="5.62189">
        <ele>371</ele>
        <time>2012-05-24T09:32:55Z</time>
      </trkpt>
      <trkpt lat="46.79472" lon="5.62187">
        <ele>371</ele>
        <time>2012-05-24T09:33:30Z</time>
      </trkpt>
      <trkpt lat="46.79455" lon="5.62174">
        <ele>372</ele>
        <time>2012-05-24T09:33:48Z</time>
      </trkpt>
      <trkpt lat="46.79437" lon="5.62161">
        <ele>373</ele>
        <time>2012-05-24T09:34:07Z</time>
      </trkpt>
      <trkpt lat="46.79417" lon="5.62143">
        <ele>374</ele>
        <time>2012-05-24T09:34:27Z</time>
      </trkpt>
      <trkpt lat="46.79413" lon="5.62139">
        <ele>374</ele>
        <time>2012-05-24T09:34:32Z</time>
      </trkpt>
      <trkpt lat="46.79404" lon="5.62133">
        <ele>374</ele>
        <time>2012-05-24T09:34:42Z</time>
      </trkpt>
      <trkpt lat="46.79388" lon="5.62126">
        <ele>374</ele>
        <time>2012-05-24T09:34:56Z</time>
      </trkpt>
      <trkpt lat="46.79369" lon="5.62111">
        <ele>376</ele>
        <time>2012-05-24T09:35:18Z</time>
      </trkpt>
      <trkpt lat="46.79355" lon="5.62102">
        <ele>376</ele>
        <time>2012-05-24T09:35:33Z</time>
      </trkpt>
      <trkpt lat="46.79352" lon="5.62098">
        <ele>376</ele>
        <time>2012-05-24T09:35:37Z</time>
      </trkpt>
      <trkpt lat="46.79342" lon="5.62094">
        <ele>376</ele>
        <time>2012-05-24T09:35:46Z</time>
      </trkpt>
      <trkpt lat="46.79335" lon="5.62085">
        <ele>376</ele>
        <time>2012-05-24T09:35:54Z</time>
      </trkpt>
      <trkpt lat="46.79324" lon="5.6208">
        <ele>376</ele>
        <time>2012-05-24T09:36:06Z</time>
      </trkpt>
      <trkpt lat="46.7931" lon="5.62069">
        <ele>377</ele>
        <time>2012-05-24T09:36:21Z</time>
      </trkpt>
      <trkpt lat="46.79285" lon="5.62054">
        <ele>377</ele>
        <time>2012-05-24T09:36:43Z</time>
      </trkpt>
      <trkpt lat="46.79271" lon="5.62045">
        <ele>376</ele>
        <time>2012-05-24T09:36:58Z</time>
      </trkpt>
      <trkpt lat="46.79265" lon="5.62039">
        <ele>375</ele>
        <time>2012-05-24T09:37:04Z</time>
      </trkpt>
      <trkpt lat="46.7926" lon="5.62029">
        <ele>375</ele>
        <time>2012-05-24T09:37:09Z</time>
      </trkpt>
      <trkpt lat="46.79243" lon="5.6202">
        <ele>374</ele>
        <time>2012-05-24T09:37:26Z</time>
      </trkpt>
      <trkpt lat="46.79232" lon="5.62017">
        <ele>374</ele>
        <time>2012-05-24T09:37:36Z</time>
      </trkpt>
      <trkpt lat="46.7921" lon="5.62012">
        <ele>374</ele>
        <time>2012-05-24T09:37:54Z</time>
      </trkpt>
      <trkpt lat="46.79188" lon="5.62004">
        <ele>375</ele>
        <time>2012-05-24T09:38:15Z</time>
      </trkpt>
      <trkpt lat="46.7918" lon="5.62001">
        <ele>375</ele>
        <time>2012-05-24T09:38:21Z</time>
      </trkpt>
      <trkpt lat="46.79178" lon="5.62001">
        <ele>375</ele>
        <time>2012-05-24T09:38:23Z</time>
      </trkpt>
      <trkpt lat="46.79173" lon="5.62">
        <ele>375</ele>
        <time>2012-05-24T09:38:27Z</time>
      </trkpt>
      <trkpt lat="46.79156" lon="5.61996">
        <ele>375</ele>
        <time>2012-05-24T09:38:45Z</time>
      </trkpt>
      <trkpt lat="46.79145" lon="5.61982">
        <ele>374</ele>
        <time>2012-05-24T09:38:59Z</time>
      </trkpt>
      <trkpt lat="46.79146" lon="5.61961">
        <ele>373</ele>
        <time>2012-05-24T09:39:11Z</time>
      </trkpt>
      <trkpt lat="46.79148" lon="5.61953">
        <ele>372</ele>
        <time>2012-05-24T09:39:17Z</time>
      </trkpt>
      <trkpt lat="46.79148" lon="5.61946">
        <ele>371</ele>
        <time>2012-05-24T09:39:19Z</time>
      </trkpt>
      <trkpt lat="46.79143" lon="5.61925">
        <ele>370</ele>
        <time>2012-05-24T09:39:34Z</time>
      </trkpt>
      <trkpt lat="46.79138" lon="5.61926">
        <ele>370</ele>
        <time>2012-05-24T09:40:00Z</time>
      </trkpt>
      <trkpt lat="46.79137" lon="5.61926">
        <ele>371</ele>
        <time>2012-05-24T09:40:08Z</time>
      </trkpt>
      <trkpt lat="46.79124" lon="5.61929">
        <ele>371</ele>
        <time>2012-05-24T09:40:17Z</time>
      </trkpt>
      <trkpt lat="46.7912" lon="5.61929">
        <ele>371</ele>
        <time>2012-05-24T09:40:22Z</time>
      </trkpt>
      <trkpt lat="46.79117" lon="5.61929">
        <ele>371</ele>
        <time>2012-05-24T09:40:26Z</time>
      </trkpt>
      <trkpt lat="46.79101" lon="5.61933">
        <ele>371</ele>
        <time>2012-05-24T09:40:42Z</time>
      </trkpt>
      <trkpt lat="46.79099" lon="5.61933">
        <ele>371</ele>
        <time>2012-05-24T09:40:44Z</time>
      </trkpt>
      <trkpt lat="46.7909" lon="5.61935">
        <ele>371</ele>
        <time>2012-05-24T09:40:52Z</time>
      </trkpt>
      <trkpt lat="46.79087" lon="5.61935">
        <ele>371</ele>
        <time>2012-05-24T09:41:12Z</time>
      </trkpt>
      <trkpt lat="46.79082" lon="5.61935">
        <ele>372</ele>
        <time>2012-05-24T09:41:29Z</time>
      </trkpt>
      <trkpt lat="46.7908" lon="5.61937">
        <ele>372</ele>
        <time>2012-05-24T09:41:32Z</time>
      </trkpt>
      <trkpt lat="46.79069" lon="5.61939">
        <ele>372</ele>
        <time>2012-05-24T09:41:46Z</time>
      </trkpt>
      <trkpt lat="46.79051" lon="5.61951">
        <ele>373</ele>
        <time>2012-05-24T09:42:08Z</time>
      </trkpt>
      <trkpt lat="46.79032" lon="5.61958">
        <ele>375</ele>
        <time>2012-05-24T09:42:28Z</time>
      </trkpt>
      <trkpt lat="46.79021" lon="5.61963">
        <ele>376</ele>
        <time>2012-05-24T09:42:40Z</time>
      </trkpt>
      <trkpt lat="46.79007" lon="5.6197">
        <ele>376</ele>
        <time>2012-05-24T09:42:55Z</time>
      </trkpt>
      <trkpt lat="46.78992" lon="5.6198">
        <ele>377</ele>
        <time>2012-05-24T09:43:12Z</time>
      </trkpt>
      <trkpt lat="46.78985" lon="5.61982">
        <ele>378</ele>
        <time>2012-05-24T09:43:20Z</time>
      </trkpt>
      <trkpt lat="46.78979" lon="5.61984">
        <ele>379</ele>
        <time>2012-05-24T09:43:26Z</time>
      </trkpt>
      <trkpt lat="46.78972" lon="5.61985">
        <ele>379</ele>
        <time>2012-05-24T09:43:33Z</time>
      </trkpt>
      <trkpt lat="46.78957" lon="5.61988">
        <ele>380</ele>
        <time>2012-05-24T09:43:51Z</time>
      </trkpt>
      <trkpt lat="46.78937" lon="5.61986">
        <ele>381</ele>
        <time>2012-05-24T09:44:11Z</time>
      </trkpt>
      <trkpt lat="46.78922" lon="5.61987">
        <ele>382</ele>
        <time>2012-05-24T09:44:26Z</time>
      </trkpt>
      <trkpt lat="46.78913" lon="5.61985">
        <ele>383</ele>
        <time>2012-05-24T09:44:36Z</time>
      </trkpt>
      <trkpt lat="46.78903" lon="5.61984">
        <ele>384</ele>
        <time>2012-05-24T09:44:46Z</time>
      </trkpt>
      <trkpt lat="46.78898" lon="5.61983">
        <ele>384</ele>
        <time>2012-05-24T09:44:52Z</time>
      </trkpt>
      <trkpt lat="46.78888" lon="5.61981">
        <ele>385</ele>
        <time>2012-05-24T09:45:03Z</time>
      </trkpt>
      <trkpt lat="46.78878" lon="5.6198">
        <ele>386</ele>
        <time>2012-05-24T09:45:16Z</time>
      </trkpt>
      <trkpt lat="46.78862" lon="5.61979">
        <ele>387</ele>
        <time>2012-05-24T09:45:32Z</time>
      </trkpt>
      <trkpt lat="46.78844" lon="5.61973">
        <ele>389</ele>
        <time>2012-05-24T09:45:51Z</time>
      </trkpt>
      <trkpt lat="46.78835" lon="5.61972">
        <ele>389</ele>
        <time>2012-05-24T09:46:00Z</time>
      </trkpt>
      <trkpt lat="46.78817" lon="5.61967">
        <ele>389</ele>
        <time>2012-05-24T09:46:14Z</time>
      </trkpt>
      <trkpt lat="46.78796" lon="5.61956">
        <ele>389</ele>
        <time>2012-05-24T09:46:33Z</time>
      </trkpt>
      <trkpt lat="46.78793" lon="5.61954">
        <ele>389</ele>
        <time>2012-05-24T09:46:37Z</time>
      </trkpt>
      <trkpt lat="46.7879" lon="5.61953">
        <ele>389</ele>
        <time>2012-05-24T09:46:40Z</time>
      </trkpt>
      <trkpt lat="46.78784" lon="5.61947">
        <ele>389</ele>
        <time>2012-05-24T09:46:45Z</time>
      </trkpt>
      <trkpt lat="46.78763" lon="5.61932">
        <ele>389</ele>
        <time>2012-05-24T09:47:03Z</time>
      </trkpt>
      <trkpt lat="46.78747" lon="5.61926">
        <ele>391</ele>
        <time>2012-05-24T09:47:16Z</time>
      </trkpt>
      <trkpt lat="46.78735" lon="5.61932">
        <ele>392</ele>
        <time>2012-05-24T09:47:28Z</time>
      </trkpt>
      <trkpt lat="46.78721" lon="5.6193">
        <ele>395</ele>
        <time>2012-05-24T09:47:45Z</time>
      </trkpt>
      <trkpt lat="46.78711" lon="5.61928">
        <ele>397</ele>
        <time>2012-05-24T09:47:56Z</time>
      </trkpt>
      <trkpt lat="46.78698" lon="5.61921">
        <ele>400</ele>
        <time>2012-05-24T09:48:13Z</time>
      </trkpt>
      <trkpt lat="46.78689" lon="5.61911">
        <ele>403</ele>
        <time>2012-05-24T09:48:29Z</time>
      </trkpt>
      <trkpt lat="46.78678" lon="5.61892">
        <ele>406</ele>
        <time>2012-05-24T09:48:46Z</time>
      </trkpt>
      <trkpt lat="46.7867" lon="5.61884">
        <ele>408</ele>
        <time>2012-05-24T09:49:01Z</time>
      </trkpt>
      <trkpt lat="46.78669" lon="5.61907">
        <ele>410</ele>
        <time>2012-05-24T09:49:18Z</time>
      </trkpt>
      <trkpt lat="46.78669" lon="5.61929">
        <ele>411</ele>
        <time>2012-05-24T09:49:35Z</time>
      </trkpt>
      <trkpt lat="46.78678" lon="5.6195">
        <ele>410</ele>
        <time>2012-05-24T09:49:51Z</time>
      </trkpt>
      <trkpt lat="46.78686" lon="5.61978">
        <ele>410</ele>
        <time>2012-05-24T09:50:12Z</time>
      </trkpt>
      <trkpt lat="46.78696" lon="5.61992">
        <ele>410</ele>
        <time>2012-05-24T09:50:22Z</time>
      </trkpt>
      <trkpt lat="46.78702" lon="5.62013">
        <ele>410</ele>
        <time>2012-05-24T09:50:36Z</time>
      </trkpt>
      <trkpt lat="46.78703" lon="5.62028">
        <ele>413</ele>
        <time>2012-05-24T09:50:56Z</time>
      </trkpt>
      <trkpt lat="46.78696" lon="5.6205">
        <ele>416</ele>
        <time>2012-05-24T09:51:12Z</time>
      </trkpt>
      <trkpt lat="46.78695" lon="5.62071">
        <ele>418</ele>
        <time>2012-05-24T09:51:29Z</time>
      </trkpt>
      <trkpt lat="46.7869" lon="5.6208">
        <ele>421</ele>
        <time>2012-05-24T09:51:49Z</time>
      </trkpt>
      <trkpt lat="46.78678" lon="5.62055">
        <ele>421</ele>
        <time>2012-05-24T09:52:08Z</time>
      </trkpt>
      <trkpt lat="46.7867" lon="5.62029">
        <ele>421</ele>
        <time>2012-05-24T09:52:23Z</time>
      </trkpt>
      <trkpt lat="46.78657" lon="5.61998">
        <ele>421</ele>
        <time>2012-05-24T09:52:44Z</time>
      </trkpt>
      <trkpt lat="46.7865" lon="5.6198">
        <ele>422</ele>
        <time>2012-05-24T09:53:02Z</time>
      </trkpt>
      <trkpt lat="46.78651" lon="5.61978">
        <ele>422</ele>
        <time>2012-05-24T09:53:39Z</time>
      </trkpt>
      <trkpt lat="46.78643" lon="5.61952">
        <ele>424</ele>
        <time>2012-05-24T09:54:33Z</time>
      </trkpt>
      <trkpt lat="46.78637" lon="5.6193">
        <ele>424</ele>
        <time>2012-05-24T09:54:46Z</time>
      </trkpt>
      <trkpt lat="46.7863" lon="5.61925">
        <ele>425</ele>
        <time>2012-05-24T09:55:07Z</time>
      </trkpt>
      <trkpt lat="46.78638" lon="5.61925">
        <ele>425</ele>
        <time>2012-05-24T09:55:29Z</time>
      </trkpt>
      <trkpt lat="46.7862" lon="5.61885">
        <ele>425</ele>
        <time>2012-05-24T09:55:48Z</time>
      </trkpt>
      <trkpt lat="46.78626" lon="5.61872">
        <ele>425</ele>
        <time>2012-05-24T09:56:19Z</time>
      </trkpt>
      <trkpt lat="46.78625" lon="5.61867">
        <ele>426</ele>
        <time>2012-05-24T09:56:42Z</time>
      </trkpt>
      <trkpt lat="46.78623" lon="5.61863">
        <ele>426</ele>
        <time>2012-05-24T09:56:59Z</time>
      </trkpt>
      <trkpt lat="46.78615" lon="5.61855">
        <ele>426</ele>
        <time>2012-05-24T09:57:17Z</time>
      </trkpt>
      <trkpt lat="46.78604" lon="5.6184">
        <ele>426</ele>
        <time>2012-05-24T09:57:36Z</time>
      </trkpt>
      <trkpt lat="46.786" lon="5.61848">
        <ele>426</ele>
        <time>2012-05-24T09:58:00Z</time>
      </trkpt>
      <trkpt lat="46.78599" lon="5.61868">
        <ele>426</ele>
        <time>2012-05-24T09:58:21Z</time>
      </trkpt>
      <trkpt lat="46.78599" lon="5.61882">
        <ele>426</ele>
        <time>2012-05-24T09:58:37Z</time>
      </trkpt>
      <trkpt lat="46.7859" lon="5.61883">
        <ele>426</ele>
        <time>2012-05-24T09:58:56Z</time>
      </trkpt>
      <trkpt lat="46.78586" lon="5.61881">
        <ele>426</ele>
        <time>2012-05-24T09:59:00Z</time>
      </trkpt>
      <trkpt lat="46.7858" lon="5.6187">
        <ele>424</ele>
        <time>2012-05-24T09:59:12Z</time>
      </trkpt>
      <trkpt lat="46.78573" lon="5.6187">
        <ele>423</ele>
        <time>2012-05-24T09:59:21Z</time>
      </trkpt>
      <trkpt lat="46.78575" lon="5.61854">
        <ele>423</ele>
        <time>2012-05-24T09:59:25Z</time>
      </trkpt>
      <trkpt lat="46.78571" lon="5.61847">
        <ele>423</ele>
        <time>2012-05-24T09:59:44Z</time>
      </trkpt>
      <trkpt lat="46.7857" lon="5.61836">
        <ele>422</ele>
        <time>2012-05-24T10:00:45Z</time>
      </trkpt>
      <trkpt lat="46.78576" lon="5.61827">
        <ele>422</ele>
        <time>2012-05-24T10:01:00Z</time>
      </trkpt>
      <trkpt lat="46.78583" lon="5.6182">
        <ele>421</ele>
        <time>2012-05-24T10:01:10Z</time>
      </trkpt>
      <trkpt lat="46.78592" lon="5.6181">
        <ele>420</ele>
        <time>2012-05-24T10:01:24Z</time>
      </trkpt>
      <trkpt lat="46.78606" lon="5.61804">
        <ele>417</ele>
        <time>2012-05-24T10:01:40Z</time>
      </trkpt>
      <trkpt lat="46.78613" lon="5.61799">
        <ele>416</ele>
        <time>2012-05-24T10:01:55Z</time>
      </trkpt>
      <trkpt lat="46.78609" lon="5.61796">
        <ele>415</ele>
        <time>2012-05-24T10:02:07Z</time>
      </trkpt>
      <trkpt lat="46.78605" lon="5.6179">
        <ele>415</ele>
        <time>2012-05-24T10:02:12Z</time>
      </trkpt>
      <trkpt lat="46.78601" lon="5.61787">
        <ele>414</ele>
        <time>2012-05-24T10:02:16Z</time>
      </trkpt>
      <trkpt lat="46.78597" lon="5.61782">
        <ele>414</ele>
        <time>2012-05-24T10:02:20Z</time>
      </trkpt>
      <trkpt lat="46.78594" lon="5.61775">
        <ele>414</ele>
        <time>2012-05-24T10:02:25Z</time>
      </trkpt>
      <trkpt lat="46.78584" lon="5.61764">
        <ele>414</ele>
        <time>2012-05-24T10:02:42Z</time>
      </trkpt>
      <trkpt lat="46.78579" lon="5.61757">
        <ele>414</ele>
        <time>2012-05-24T10:02:58Z</time>
      </trkpt>
      <trkpt lat="46.78569" lon="5.61749">
        <ele>413</ele>
        <time>2012-05-24T10:04:51Z</time>
      </trkpt>
      <trkpt lat="46.78556" lon="5.61731">
        <ele>413</ele>
        <time>2012-05-24T10:05:11Z</time>
      </trkpt>
      <trkpt lat="46.78551" lon="5.61723">
        <ele>413</ele>
        <time>2012-05-24T10:05:18Z</time>
      </trkpt>
      <trkpt lat="46.7854" lon="5.61708">
        <ele>412</ele>
        <time>2012-05-24T10:05:33Z</time>
      </trkpt>
      <trkpt lat="46.78527" lon="5.61697">
        <ele>411</ele>
        <time>2012-05-24T10:05:48Z</time>
      </trkpt>
      <trkpt lat="46.7852" lon="5.61686">
        <ele>411</ele>
        <time>2012-05-24T10:06:02Z</time>
      </trkpt>
      <trkpt lat="46.78506" lon="5.61674">
        <ele>410</ele>
        <time>2012-05-24T10:06:17Z</time>
      </trkpt>
      <trkpt lat="46.78486" lon="5.61676">
        <ele>410</ele>
        <time>2012-05-24T10:06:35Z</time>
      </trkpt>
      <trkpt lat="46.78476" lon="5.61677">
        <ele>410</ele>
        <time>2012-05-24T10:06:53Z</time>
      </trkpt>
      <trkpt lat="46.78467" lon="5.61666">
        <ele>408</ele>
        <time>2012-05-24T10:07:09Z</time>
      </trkpt>
      <trkpt lat="46.78455" lon="5.61655">
        <ele>406</ele>
        <time>2012-05-24T10:07:23Z</time>
      </trkpt>
      <trkpt lat="46.78445" lon="5.6164">
        <ele>403</ele>
        <time>2012-05-24T10:07:38Z</time>
      </trkpt>
      <trkpt lat="46.78443" lon="5.6162">
        <ele>400</ele>
        <time>2012-05-24T10:07:53Z</time>
      </trkpt>
      <trkpt lat="46.78444" lon="5.61598">
        <ele>397</ele>
        <time>2012-05-24T10:08:09Z</time>
      </trkpt>
      <trkpt lat="46.7843" lon="5.61588">
        <ele>394</ele>
        <time>2012-05-24T10:08:25Z</time>
      </trkpt>
      <trkpt lat="46.78417" lon="5.61579">
        <ele>390</ele>
        <time>2012-05-24T10:08:43Z</time>
      </trkpt>
      <trkpt lat="46.7841" lon="5.61566">
        <ele>388</ele>
        <time>2012-05-24T10:08:59Z</time>
      </trkpt>
      <trkpt lat="46.78398" lon="5.61553">
        <ele>384</ele>
        <time>2012-05-24T10:09:15Z</time>
      </trkpt>
      <trkpt lat="46.78393" lon="5.6155">
        <ele>382</ele>
        <time>2012-05-24T10:09:24Z</time>
      </trkpt>
      <trkpt lat="46.7838" lon="5.61543">
        <ele>380</ele>
        <time>2012-05-24T10:09:39Z</time>
      </trkpt>
      <trkpt lat="46.78367" lon="5.61545">
        <ele>377</ele>
        <time>2012-05-24T10:09:59Z</time>
      </trkpt>
      <trkpt lat="46.78367" lon="5.61583">
        <ele>376</ele>
        <time>2012-05-24T10:10:18Z</time>
      </trkpt>
      <trkpt lat="46.78364" lon="5.61609">
        <ele>374</ele>
        <time>2012-05-24T10:10:43Z</time>
      </trkpt>
      <trkpt lat="46.7837" lon="5.6162">
        <ele>372</ele>
        <time>2012-05-24T10:10:58Z</time>
      </trkpt>
      <trkpt lat="46.78375" lon="5.6163">
        <ele>371</ele>
        <time>2012-05-24T10:11:07Z</time>
      </trkpt>
      <trkpt lat="46.78371" lon="5.61647">
        <ele>369</ele>
        <time>2012-05-24T10:11:20Z</time>
      </trkpt>
      <trkpt lat="46.78371" lon="5.61665">
        <ele>368</ele>
        <time>2012-05-24T10:11:30Z</time>
      </trkpt>
      <trkpt lat="46.7837" lon="5.6167">
        <ele>367</ele>
        <time>2012-05-24T10:11:34Z</time>
      </trkpt>
      <trkpt lat="46.78366" lon="5.61696">
        <ele>365</ele>
        <time>2012-05-24T10:11:50Z</time>
      </trkpt>
      <trkpt lat="46.78378" lon="5.61709">
        <ele>362</ele>
        <time>2012-05-24T10:12:05Z</time>
      </trkpt>
      <trkpt lat="46.78373" lon="5.61717">
        <ele>360</ele>
        <time>2012-05-24T10:12:20Z</time>
      </trkpt>
      <trkpt lat="46.78374" lon="5.61717">
        <ele>360</ele>
        <time>2012-05-24T10:12:46Z</time>
      </trkpt>
      <trkpt lat="46.78371" lon="5.61701">
        <ele>361</ele>
        <time>2012-05-24T10:13:19Z</time>
      </trkpt>
      <trkpt lat="46.7837" lon="5.61696">
        <ele>361</ele>
        <time>2012-05-24T10:13:40Z</time>
      </trkpt>
      <trkpt lat="46.78367" lon="5.61687">
        <ele>360</ele>
        <time>2012-05-24T10:13:48Z</time>
      </trkpt>
      <trkpt lat="46.78361" lon="5.61669">
        <ele>359</ele>
        <time>2012-05-24T10:14:03Z</time>
      </trkpt>
      <trkpt lat="46.78352" lon="5.61647">
        <ele>358</ele>
        <time>2012-05-24T10:14:23Z</time>
      </trkpt>
      <trkpt lat="46.7835" lon="5.61646">
        <ele>357</ele>
        <time>2012-05-24T10:14:31Z</time>
      </trkpt>
      <trkpt lat="46.78342" lon="5.61656">
        <ele>356</ele>
        <time>2012-05-24T10:14:45Z</time>
      </trkpt>
      <trkpt lat="46.78321" lon="5.61665">
        <ele>356</ele>
        <time>2012-05-24T10:15:06Z</time>
      </trkpt>
      <trkpt lat="46.78321" lon="5.61654">
        <ele>356</ele>
        <time>2012-05-24T10:15:09Z</time>
      </trkpt>
      <trkpt lat="46.78314" lon="5.61651">
        <ele>356</ele>
        <time>2012-05-24T10:15:15Z</time>
      </trkpt>
      <trkpt lat="46.78311" lon="5.61648">
        <ele>355</ele>
        <time>2012-05-24T10:15:20Z</time>
      </trkpt>
      <trkpt lat="46.78292" lon="5.6162">
        <ele>353</ele>
        <time>2012-05-24T10:15:43Z</time>
      </trkpt>
      <trkpt lat="46.78283" lon="5.6161">
        <ele>351</ele>
        <time>2012-05-24T10:15:58Z</time>
      </trkpt>
      <trkpt lat="46.78271" lon="5.61599">
        <ele>351</ele>
        <time>2012-05-24T10:16:12Z</time>
      </trkpt>
      <trkpt lat="46.78267" lon="5.61597">
        <ele>351</ele>
        <time>2012-05-24T10:16:16Z</time>
      </trkpt>
      <trkpt lat="46.78258" lon="5.61599">
        <ele>352</ele>
        <time>2012-05-24T10:16:28Z</time>
      </trkpt>
      <trkpt lat="46.78243" lon="5.61603">
        <ele>352</ele>
        <time>2012-05-24T10:16:42Z</time>
      </trkpt>
      <trkpt lat="46.78233" lon="5.61601">
        <ele>353</ele>
        <time>2012-05-24T10:16:53Z</time>
      </trkpt>
      <trkpt lat="46.78215" lon="5.616">
        <ele>356</ele>
        <time>2012-05-24T10:17:21Z</time>
      </trkpt>
      <trkpt lat="46.78203" lon="5.61587">
        <ele>359</ele>
        <time>2012-05-24T10:17:41Z</time>
      </trkpt>
      <trkpt lat="46.78193" lon="5.6158">
        <ele>360</ele>
        <time>2012-05-24T10:17:57Z</time>
      </trkpt>
      <trkpt lat="46.78185" lon="5.61561">
        <ele>362</ele>
        <time>2012-05-24T10:18:18Z</time>
      </trkpt>
      <trkpt lat="46.7817" lon="5.61545">
        <ele>363</ele>
        <time>2012-05-24T10:18:39Z</time>
      </trkpt>
      <trkpt lat="46.78154" lon="5.61532">
        <ele>364</ele>
        <time>2012-05-24T10:18:57Z</time>
      </trkpt>
      <trkpt lat="46.78144" lon="5.61522">
        <ele>365</ele>
        <time>2012-05-24T10:19:12Z</time>
      </trkpt>
      <trkpt lat="46.7813" lon="5.61509">
        <ele>368</ele>
        <time>2012-05-24T10:19:31Z</time>
      </trkpt>
      <trkpt lat="46.78119" lon="5.61501">
        <ele>369</ele>
        <time>2012-05-24T10:19:45Z</time>
      </trkpt>
      <trkpt lat="46.78109" lon="5.61494">
        <ele>371</ele>
        <time>2012-05-24T10:19:59Z</time>
      </trkpt>
      <trkpt lat="46.78094" lon="5.61495">
        <ele>375</ele>
        <time>2012-05-24T10:20:21Z</time>
      </trkpt>
      <trkpt lat="46.78082" lon="5.61496">
        <ele>376</ele>
        <time>2012-05-24T10:20:38Z</time>
      </trkpt>
      <trkpt lat="46.78082" lon="5.61496">
        <ele>376</ele>
        <time>2012-05-24T10:20:39Z</time>
      </trkpt>
      <trkpt lat="46.78077" lon="5.61494">
        <ele>376</ele>
        <time>2012-05-24T10:20:44Z</time>
      </trkpt>
      <trkpt lat="46.78075" lon="5.61492">
        <ele>377</ele>
        <time>2012-05-24T10:20:46Z</time>
      </trkpt>
      <trkpt lat="46.78068" lon="5.61484">
        <ele>377</ele>
        <time>2012-05-24T10:20:54Z</time>
      </trkpt>
      <trkpt lat="46.78056" lon="5.61485">
        <ele>378</ele>
        <time>2012-05-24T10:21:03Z</time>
      </trkpt>
      <trkpt lat="46.78054" lon="5.61485">
        <ele>378</ele>
        <time>2012-05-24T10:21:05Z</time>
      </trkpt>
      <trkpt lat="46.78052" lon="5.61486">
        <ele>378</ele>
        <time>2012-05-24T10:21:07Z</time>
      </trkpt>
      <trkpt lat="46.78036" lon="5.61481">
        <ele>379</ele>
        <time>2012-05-24T10:21:24Z</time>
      </trkpt>
      <trkpt lat="46.78017" lon="5.61478">
        <ele>380</ele>
        <time>2012-05-24T10:21:42Z</time>
      </trkpt>
      <trkpt lat="46.77997" lon="5.61479">
        <ele>381</ele>
        <time>2012-05-24T10:22:01Z</time>
      </trkpt>
      <trkpt lat="46.77995" lon="5.61478">
        <ele>382</ele>
        <time>2012-05-24T10:22:03Z</time>
      </trkpt>
      <trkpt lat="46.77985" lon="5.61479">
        <ele>382</ele>
        <time>2012-05-24T10:22:12Z</time>
      </trkpt>
      <trkpt lat="46.77982" lon="5.61478">
        <ele>382</ele>
        <time>2012-05-24T10:22:15Z</time>
      </trkpt>
      <trkpt lat="46.77976" lon="5.61477">
        <ele>383</ele>
        <time>2012-05-24T10:22:21Z</time>
      </trkpt>
      <trkpt lat="46.77964" lon="5.61477">
        <ele>383</ele>
        <time>2012-05-24T10:22:30Z</time>
      </trkpt>
      <trkpt lat="46.77958" lon="5.61477">
        <ele>384</ele>
        <time>2012-05-24T10:22:37Z</time>
      </trkpt>
      <trkpt lat="46.7795" lon="5.61478">
        <ele>384</ele>
        <time>2012-05-24T10:22:45Z</time>
      </trkpt>
      <trkpt lat="46.77942" lon="5.61473">
        <ele>385</ele>
        <time>2012-05-24T10:22:54Z</time>
      </trkpt>
      <trkpt lat="46.77927" lon="5.61466">
        <ele>386</ele>
        <time>2012-05-24T10:23:07Z</time>
      </trkpt>
      <trkpt lat="46.77925" lon="5.61455">
        <ele>386</ele>
        <time>2012-05-24T10:23:17Z</time>
      </trkpt>
      <trkpt lat="46.77928" lon="5.6144">
        <ele>387</ele>
        <time>2012-05-24T10:23:27Z</time>
      </trkpt>
      <trkpt lat="46.77936" lon="5.61413">
        <ele>388</ele>
        <time>2012-05-24T10:23:46Z</time>
      </trkpt>
      <trkpt lat="46.77941" lon="5.6139">
        <ele>389</ele>
        <time>2012-05-24T10:24:01Z</time>
      </trkpt>
      <trkpt lat="46.77944" lon="5.61366">
        <ele>390</ele>
        <time>2012-05-24T10:24:19Z</time>
      </trkpt>
      <trkpt lat="46.77945" lon="5.61357">
        <ele>390</ele>
        <time>2012-05-24T10:24:40Z</time>
      </trkpt>
      <trkpt lat="46.77948" lon="5.61349">
        <ele>391</ele>
        <time>2012-05-24T10:25:24Z</time>
      </trkpt>
      <trkpt lat="46.77943" lon="5.61333">
        <ele>391</ele>
        <time>2012-05-24T10:30:00Z</time>
      </trkpt>
      <trkpt lat="46.77925" lon="5.61315">
        <ele>391</ele>
        <time>2012-05-24T10:30:20Z</time>
      </trkpt>
      <trkpt lat="46.7791" lon="5.61307">
        <ele>391</ele>
        <time>2012-05-24T10:30:34Z</time>
      </trkpt>
      <trkpt lat="46.77902" lon="5.61288">
        <ele>391</ele>
        <time>2012-05-24T10:30:50Z</time>
      </trkpt>
      <trkpt lat="46.77894" lon="5.61256">
        <ele>389</ele>
        <time>2012-05-24T10:31:10Z</time>
      </trkpt>
      <trkpt lat="46.77889" lon="5.61227">
        <ele>389</ele>
        <time>2012-05-24T10:31:29Z</time>
      </trkpt>
      <trkpt lat="46.77891" lon="5.61189">
        <ele>389</ele>
        <time>2012-05-24T10:31:49Z</time>
      </trkpt>
      <trkpt lat="46.77883" lon="5.61162">
        <ele>389</ele>
        <time>2012-05-24T10:32:06Z</time>
      </trkpt>
      <trkpt lat="46.77879" lon="5.61136">
        <ele>390</ele>
        <time>2012-05-24T10:32:23Z</time>
      </trkpt>
      <trkpt lat="46.77868" lon="5.6112">
        <ele>391</ele>
        <time>2012-05-24T10:32:42Z</time>
      </trkpt>
      <trkpt lat="46.77858" lon="5.61107">
        <ele>391</ele>
        <time>2012-05-24T10:32:53Z</time>
      </trkpt>
      <trkpt lat="46.77842" lon="5.61102">
        <ele>392</ele>
        <time>2012-05-24T10:33:05Z</time>
      </trkpt>
      <trkpt lat="46.77827" lon="5.61091">
        <ele>393</ele>
        <time>2012-05-24T10:33:24Z</time>
      </trkpt>
      <trkpt lat="46.77811" lon="5.61073">
        <ele>393</ele>
        <time>2012-05-24T10:33:42Z</time>
      </trkpt>
      <trkpt lat="46.77807" lon="5.61074">
        <ele>393</ele>
        <time>2012-05-24T10:33:44Z</time>
      </trkpt>
      <trkpt lat="46.77795" lon="5.61069">
        <ele>394</ele>
        <time>2012-05-24T10:33:56Z</time>
      </trkpt>
      <trkpt lat="46.77791" lon="5.61064">
        <ele>394</ele>
        <time>2012-05-24T10:33:59Z</time>
      </trkpt>
      <trkpt lat="46.77772" lon="5.61056">
        <ele>395</ele>
        <time>2012-05-24T10:34:14Z</time>
      </trkpt>
      <trkpt lat="46.77763" lon="5.61043">
        <ele>395</ele>
        <time>2012-05-24T10:34:23Z</time>
      </trkpt>
      <trkpt lat="46.77757" lon="5.61032">
        <ele>396</ele>
        <time>2012-05-24T10:34:32Z</time>
      </trkpt>
      <trkpt lat="46.77745" lon="5.61025">
        <ele>396</ele>
        <time>2012-05-24T10:34:44Z</time>
      </trkpt>
      <trkpt lat="46.7774" lon="5.61025">
        <ele>396</ele>
        <time>2012-05-24T10:34:47Z</time>
      </trkpt>
      <trkpt lat="46.7773" lon="5.61018">
        <ele>396</ele>
        <time>2012-05-24T10:34:56Z</time>
      </trkpt>
      <trkpt lat="46.77722" lon="5.61015">
        <ele>396</ele>
        <time>2012-05-24T10:35:02Z</time>
      </trkpt>
      <trkpt lat="46.77715" lon="5.61004">
        <ele>396</ele>
        <time>2012-05-24T10:35:12Z</time>
      </trkpt>
      <trkpt lat="46.77712" lon="5.61001">
        <ele>396</ele>
        <time>2012-05-24T10:35:15Z</time>
      </trkpt>
      <trkpt lat="46.77708" lon="5.60998">
        <ele>396</ele>
        <time>2012-05-24T10:35:19Z</time>
      </trkpt>
      <trkpt lat="46.77698" lon="5.6099">
        <ele>396</ele>
        <time>2012-05-24T10:35:29Z</time>
      </trkpt>
      <trkpt lat="46.77693" lon="5.60986">
        <ele>396</ele>
        <time>2012-05-24T10:35:34Z</time>
      </trkpt>
      <trkpt lat="46.77688" lon="5.60977">
        <ele>396</ele>
        <time>2012-05-24T10:35:40Z</time>
      </trkpt>
      <trkpt lat="46.77685" lon="5.60975">
        <ele>397</ele>
        <time>2012-05-24T10:35:43Z</time>
      </trkpt>
      <trkpt lat="46.77672" lon="5.60967">
        <ele>397</ele>
        <time>2012-05-24T10:35:55Z</time>
      </trkpt>
      <trkpt lat="46.77657" lon="5.60956">
        <ele>396</ele>
        <time>2012-05-24T10:36:10Z</time>
      </trkpt>
      <trkpt lat="46.77643" lon="5.60945">
        <ele>395</ele>
        <time>2012-05-24T10:36:20Z</time>
      </trkpt>
      <trkpt lat="46.77637" lon="5.60942">
        <ele>395</ele>
        <time>2012-05-24T10:36:25Z</time>
      </trkpt>
      <trkpt lat="46.77627" lon="5.60932">
        <ele>395</ele>
        <time>2012-05-24T10:36:36Z</time>
      </trkpt>
      <trkpt lat="46.77627" lon="5.60923">
        <ele>394</ele>
        <time>2012-05-24T10:36:41Z</time>
      </trkpt>
      <trkpt lat="46.77622" lon="5.60917">
        <ele>394</ele>
        <time>2012-05-24T10:36:46Z</time>
      </trkpt>
      <trkpt lat="46.77617" lon="5.60914">
        <ele>394</ele>
        <time>2012-05-24T10:36:53Z</time>
      </trkpt>
      <trkpt lat="46.77589" lon="5.60901">
        <ele>393</ele>
        <time>2012-05-24T10:37:11Z</time>
      </trkpt>
      <trkpt lat="46.77588" lon="5.60898">
        <ele>393</ele>
        <time>2012-05-24T10:37:13Z</time>
      </trkpt>
      <trkpt lat="46.77577" lon="5.60885">
        <ele>392</ele>
        <time>2012-05-24T10:37:24Z</time>
      </trkpt>
      <trkpt lat="46.77573" lon="5.60881">
        <ele>392</ele>
        <time>2012-05-24T10:37:28Z</time>
      </trkpt>
      <trkpt lat="46.77562" lon="5.6087">
        <ele>391</ele>
        <time>2012-05-24T10:37:38Z</time>
      </trkpt>
      <trkpt lat="46.77553" lon="5.60865">
        <ele>391</ele>
        <time>2012-05-24T10:37:47Z</time>
      </trkpt>
      <trkpt lat="46.77537" lon="5.60854">
        <ele>390</ele>
        <time>2012-05-24T10:38:04Z</time>
      </trkpt>
      <trkpt lat="46.77522" lon="5.60841">
        <ele>389</ele>
        <time>2012-05-24T10:38:21Z</time>
      </trkpt>
      <trkpt lat="46.77521" lon="5.60836">
        <ele>389</ele>
        <time>2012-05-24T10:38:25Z</time>
      </trkpt>
      <trkpt lat="46.77513" lon="5.60829">
        <ele>388</ele>
        <time>2012-05-24T10:38:33Z</time>
      </trkpt>
      <trkpt lat="46.775" lon="5.60822">
        <ele>387</ele>
        <time>2012-05-24T10:38:48Z</time>
      </trkpt>
      <trkpt lat="46.77493" lon="5.60818">
        <ele>387</ele>
        <time>2012-05-24T10:38:53Z</time>
      </trkpt>
      <trkpt lat="46.7749" lon="5.60815">
        <ele>387</ele>
        <time>2012-05-24T10:38:55Z</time>
      </trkpt>
      <trkpt lat="46.77477" lon="5.60803">
        <ele>385</ele>
        <time>2012-05-24T10:39:12Z</time>
      </trkpt>
      <trkpt lat="46.7746" lon="5.60794">
        <ele>382</ele>
        <time>2012-05-24T10:39:31Z</time>
      </trkpt>
      <trkpt lat="46.77454" lon="5.60792">
        <ele>381</ele>
        <time>2012-05-24T10:39:37Z</time>
      </trkpt>
      <trkpt lat="46.7744" lon="5.60788">
        <ele>379</ele>
        <time>2012-05-24T10:39:51Z</time>
      </trkpt>
      <trkpt lat="46.77427" lon="5.60786">
        <ele>377</ele>
        <time>2012-05-24T10:40:08Z</time>
      </trkpt>
      <trkpt lat="46.77426" lon="5.60787">
        <ele>377</ele>
        <time>2012-05-24T10:40:09Z</time>
      </trkpt>
      <trkpt lat="46.7741" lon="5.60794">
        <ele>376</ele>
        <time>2012-05-24T10:40:30Z</time>
      </trkpt>
      <trkpt lat="46.77387" lon="5.60803">
        <ele>374</ele>
        <time>2012-05-24T10:40:47Z</time>
      </trkpt>
      <trkpt lat="46.77379" lon="5.60785">
        <ele>373</ele>
        <time>2012-05-24T10:41:05Z</time>
      </trkpt>
      <trkpt lat="46.77372" lon="5.60761">
        <ele>371</ele>
        <time>2012-05-24T10:41:21Z</time>
      </trkpt>
      <trkpt lat="46.77358" lon="5.60737">
        <ele>368</ele>
        <time>2012-05-24T10:41:42Z</time>
      </trkpt>
      <trkpt lat="46.77347" lon="5.60719">
        <ele>365</ele>
        <time>2012-05-24T10:42:05Z</time>
      </trkpt>
      <trkpt lat="46.77324" lon="5.60719">
        <ele>362</ele>
        <time>2012-05-24T10:42:25Z</time>
      </trkpt>
      <trkpt lat="46.77312" lon="5.60704">
        <ele>359</ele>
        <time>2012-05-24T10:42:46Z</time>
      </trkpt>
      <trkpt lat="46.77302" lon="5.60684">
        <ele>356</ele>
        <time>2012-05-24T10:43:08Z</time>
      </trkpt>
      <trkpt lat="46.77291" lon="5.60672">
        <ele>354</ele>
        <time>2012-05-24T10:43:26Z</time>
      </trkpt>
      <trkpt lat="46.77282" lon="5.60665">
        <ele>351</ele>
        <time>2012-05-24T10:43:43Z</time>
      </trkpt>
      <trkpt lat="46.77266" lon="5.60654">
        <ele>348</ele>
        <time>2012-05-24T10:44:04Z</time>
      </trkpt>
      <trkpt lat="46.77258" lon="5.60638">
        <ele>345</ele>
        <time>2012-05-24T10:44:23Z</time>
      </trkpt>
      <trkpt lat="46.77254" lon="5.60619">
        <ele>342</ele>
        <time>2012-05-24T10:44:46Z</time>
      </trkpt>
      <trkpt lat="46.77255" lon="5.60603">
        <ele>340</ele>
        <time>2012-05-24T10:45:00Z</time>
      </trkpt>
      <trkpt lat="46.77249" lon="5.60582">
        <ele>339</ele>
        <time>2012-05-24T10:45:15Z</time>
      </trkpt>
      <trkpt lat="46.77252" lon="5.60562">
        <ele>335</ele>
        <time>2012-05-24T10:45:33Z</time>
      </trkpt>
      <trkpt lat="46.77259" lon="5.60537">
        <ele>332</ele>
        <time>2012-05-24T10:45:54Z</time>
      </trkpt>
      <trkpt lat="46.77263" lon="5.6052">
        <ele>329</ele>
        <time>2012-05-24T10:46:12Z</time>
      </trkpt>
      <trkpt lat="46.77253" lon="5.60511">
        <ele>327</ele>
        <time>2012-05-24T10:46:31Z</time>
      </trkpt>
      <trkpt lat="46.77248" lon="5.60523">
        <ele>331</ele>
        <time>2012-05-24T10:47:03Z</time>
      </trkpt>
      <trkpt lat="46.77228" lon="5.60583">
        <ele>329</ele>
        <time>2012-05-24T10:47:34Z</time>
      </trkpt>
      <trkpt lat="46.77216" lon="5.60628">
        <ele>327</ele>
        <time>2012-05-24T10:48:11Z</time>
      </trkpt>
      <trkpt lat="46.77208" lon="5.6068">
        <ele>325</ele>
        <time>2012-05-24T10:48:42Z</time>
      </trkpt>
      <trkpt lat="46.77203" lon="5.60702">
        <ele>323</ele>
        <time>2012-05-24T10:49:10Z</time>
      </trkpt>
      <trkpt lat="46.77203" lon="5.60719">
        <ele>320</ele>
        <time>2012-05-24T10:49:30Z</time>
      </trkpt>
      <trkpt lat="46.77194" lon="5.60728">
        <ele>317</ele>
        <time>2012-05-24T10:49:47Z</time>
      </trkpt>
      <trkpt lat="46.77191" lon="5.60737">
        <ele>314</ele>
        <time>2012-05-24T10:50:08Z</time>
      </trkpt>
      <trkpt lat="46.77185" lon="5.60741">
        <ele>312</ele>
        <time>2012-05-24T10:50:24Z</time>
      </trkpt>
      <trkpt lat="46.77174" lon="5.60753">
        <ele>310</ele>
        <time>2012-05-24T10:50:43Z</time>
      </trkpt>
      <trkpt lat="46.77168" lon="5.60739">
        <ele>308</ele>
        <time>2012-05-24T10:51:00Z</time>
      </trkpt>
      <trkpt lat="46.77164" lon="5.60738">
        <ele>308</ele>
        <time>2012-05-24T10:52:03Z</time>
      </trkpt>
      <trkpt lat="46.77153" lon="5.6073">
        <ele>307</ele>
        <time>2012-05-24T10:52:24Z</time>
      </trkpt>
      <trkpt lat="46.77152" lon="5.60725">
        <ele>306</ele>
        <time>2012-05-24T10:53:15Z</time>
      </trkpt>
      <trkpt lat="46.77148" lon="5.60711">
        <ele>305</ele>
        <time>2012-05-24T10:53:31Z</time>
      </trkpt>
      <trkpt lat="46.77147" lon="5.60709">
        <ele>305</ele>
        <time>2012-05-24T10:53:48Z</time>
      </trkpt>
      <trkpt lat="46.77147" lon="5.60676">
        <ele>302</ele>
        <time>2012-05-24T10:54:09Z</time>
      </trkpt>
      <trkpt lat="46.77143" lon="5.60666">
        <ele>301</ele>
        <time>2012-05-24T10:54:17Z</time>
      </trkpt>
      <trkpt lat="46.77137" lon="5.60639">
        <ele>300</ele>
        <time>2012-05-24T10:54:34Z</time>
      </trkpt>
      <trkpt lat="46.77132" lon="5.6061">
        <ele>301</ele>
        <time>2012-05-24T10:54:49Z</time>
      </trkpt>
      <trkpt lat="46.77126" lon="5.60589">
        <ele>300</ele>
        <time>2012-05-24T10:55:00Z</time>
      </trkpt>
      <trkpt lat="46.77123" lon="5.60576">
        <ele>299</ele>
        <time>2012-05-24T10:55:08Z</time>
      </trkpt>
      <trkpt lat="46.77123" lon="5.60552">
        <ele>298</ele>
        <time>2012-05-24T10:55:22Z</time>
      </trkpt>
      <trkpt lat="46.77124" lon="5.60528">
        <ele>297</ele>
        <time>2012-05-24T10:55:36Z</time>
      </trkpt>
      <trkpt lat="46.77124" lon="5.60506">
        <ele>296</ele>
        <time>2012-05-24T10:55:49Z</time>
      </trkpt>
      <trkpt lat="46.77126" lon="5.60483">
        <ele>297</ele>
        <time>2012-05-24T10:56:00Z</time>
      </trkpt>
      <trkpt lat="46.77135" lon="5.60463">
        <ele>297</ele>
        <time>2012-05-24T10:56:15Z</time>
      </trkpt>
      <trkpt lat="46.77141" lon="5.60444">
        <ele>297</ele>
        <time>2012-05-24T10:56:26Z</time>
      </trkpt>
      <trkpt lat="46.77141" lon="5.6044">
        <ele>296</ele>
        <time>2012-05-24T10:56:29Z</time>
      </trkpt>
      <trkpt lat="46.77138" lon="5.60405">
        <ele>296</ele>
        <time>2012-05-24T10:56:49Z</time>
      </trkpt>
      <trkpt lat="46.77138" lon="5.60402">
        <ele>295</ele>
        <time>2012-05-24T10:57:03Z</time>
      </trkpt>
      <trkpt lat="46.77138" lon="5.60402">
        <ele>297</ele>
        <time>2012-05-24T10:57:05Z</time>
      </trkpt>
      <trkpt lat="46.77136" lon="5.60397">
        <ele>296</ele>
        <time>2012-05-24T10:57:09Z</time>
      </trkpt>
      <trkpt lat="46.77141" lon="5.60379">
        <ele>297</ele>
        <time>2012-05-24T10:57:22Z</time>
      </trkpt>
      <trkpt lat="46.77141" lon="5.60377">
        <ele>296</ele>
        <time>2012-05-24T10:57:24Z</time>
      </trkpt>
      <trkpt lat="46.77147" lon="5.60356">
        <ele>298</ele>
        <time>2012-05-24T10:57:40Z</time>
      </trkpt>
      <trkpt lat="46.77147" lon="5.60328">
        <ele>298</ele>
        <time>2012-05-24T10:58:00Z</time>
      </trkpt>
      <trkpt lat="46.77129" lon="5.6032">
        <ele>295</ele>
        <time>2012-05-24T10:58:20Z</time>
      </trkpt>
      <trkpt lat="46.77106" lon="5.60319">
        <ele>292</ele>
        <time>2012-05-24T10:58:40Z</time>
      </trkpt>
      <trkpt lat="46.77083" lon="5.60323">
        <ele>289</ele>
        <time>2012-05-24T10:58:59Z</time>
      </trkpt>
      <trkpt lat="46.77063" lon="5.60324">
        <ele>285</ele>
        <time>2012-05-24T10:59:17Z</time>
      </trkpt>
      <trkpt lat="46.77048" lon="5.60325">
        <ele>283</ele>
        <time>2012-05-24T10:59:30Z</time>
      </trkpt>
      <trkpt lat="46.77021" lon="5.60326">
        <ele>280</ele>
        <time>2012-05-24T10:59:52Z</time>
      </trkpt>
      <trkpt lat="46.77" lon="5.60325">
        <ele>277</ele>
        <time>2012-05-24T11:00:12Z</time>
      </trkpt>
      <trkpt lat="46.76984" lon="5.6032">
        <ele>275</ele>
        <time>2012-05-24T11:00:28Z</time>
      </trkpt>
      <trkpt lat="46.76968" lon="5.60314">
        <ele>273</ele>
        <time>2012-05-24T11:00:43Z</time>
      </trkpt>
      <trkpt lat="46.7695" lon="5.60307">
        <ele>270</ele>
        <time>2012-05-24T11:00:59Z</time>
      </trkpt>
      <trkpt lat="46.76936" lon="5.6029">
        <ele>266</ele>
        <time>2012-05-24T11:01:16Z</time>
      </trkpt>
      <trkpt lat="46.76931" lon="5.60287">
        <ele>266</ele>
        <time>2012-05-24T11:01:21Z</time>
      </trkpt>
      <trkpt lat="46.76928" lon="5.60285">
        <ele>265</ele>
        <time>2012-05-24T11:01:23Z</time>
      </trkpt>
      <trkpt lat="46.76915" lon="5.60281">
        <ele>264</ele>
        <time>2012-05-24T11:01:36Z</time>
      </trkpt>
      <trkpt lat="46.76897" lon="5.6028">
        <ele>261</ele>
        <time>2012-05-24T11:01:53Z</time>
      </trkpt>
      <trkpt lat="46.7688" lon="5.60272">
        <ele>259</ele>
        <time>2012-05-24T11:02:10Z</time>
      </trkpt>
      <trkpt lat="46.76858" lon="5.60253">
        <ele>258</ele>
        <time>2012-05-24T11:02:32Z</time>
      </trkpt>
      <trkpt lat="46.7684" lon="5.60235">
        <ele>258</ele>
        <time>2012-05-24T11:02:51Z</time>
      </trkpt>
      <trkpt lat="46.76817" lon="5.60211">
        <ele>257</ele>
        <time>2012-05-24T11:03:14Z</time>
      </trkpt>
      <trkpt lat="46.76792" lon="5.60171">
        <ele>256</ele>
        <time>2012-05-24T11:03:42Z</time>
      </trkpt>
      <trkpt lat="46.7678" lon="5.60154">
        <ele>256</ele>
        <time>2012-05-24T11:03:55Z</time>
      </trkpt>
      <trkpt lat="46.76766" lon="5.60127">
        <ele>256</ele>
        <time>2012-05-24T11:04:15Z</time>
      </trkpt>
      <trkpt lat="46.76751" lon="5.60107">
        <ele>256</ele>
        <time>2012-05-24T11:04:32Z</time>
      </trkpt>
      <trkpt lat="46.76743" lon="5.60097">
        <ele>255</ele>
        <time>2012-05-24T11:04:40Z</time>
      </trkpt>
      <trkpt lat="46.76725" lon="5.60079">
        <ele>256</ele>
        <time>2012-05-24T11:05:00Z</time>
      </trkpt>
      <trkpt lat="46.76719" lon="5.60073">
        <ele>255</ele>
        <time>2012-05-24T11:05:08Z</time>
      </trkpt>
      <trkpt lat="46.76709" lon="5.60079">
        <ele>256</ele>
        <time>2012-05-24T11:05:21Z</time>
      </trkpt>
      <trkpt lat="46.76702" lon="5.60103">
        <ele>256</ele>
        <time>2012-05-24T11:05:37Z</time>
      </trkpt>
      <trkpt lat="46.76693" lon="5.60134">
        <ele>255</ele>
        <time>2012-05-24T11:05:56Z</time>
      </trkpt>
      <trkpt lat="46.76682" lon="5.60159">
        <ele>255</ele>
        <time>2012-05-24T11:06:12Z</time>
      </trkpt>
      <trkpt lat="46.76669" lon="5.60198">
        <ele>256</ele>
        <time>2012-05-24T11:06:34Z</time>
      </trkpt>
      <trkpt lat="46.76661" lon="5.60228">
        <ele>256</ele>
        <time>2012-05-24T11:06:53Z</time>
      </trkpt>
      <trkpt lat="46.76652" lon="5.60256">
        <ele>256</ele>
        <time>2012-05-24T11:07:07Z</time>
      </trkpt>
      <trkpt lat="46.7665" lon="5.60262">
        <ele>256</ele>
        <time>2012-05-24T11:07:12Z</time>
      </trkpt>
      <trkpt lat="46.76643" lon="5.60285">
        <ele>256</ele>
        <time>2012-05-24T11:07:28Z</time>
      </trkpt>
      <trkpt lat="46.76636" lon="5.60316">
        <ele>256</ele>
        <time>2012-05-24T11:07:47Z</time>
      </trkpt>
      <trkpt lat="46.76625" lon="5.60351">
        <ele>256</ele>
        <time>2012-05-24T11:08:05Z</time>
      </trkpt>
      <trkpt lat="46.76617" lon="5.60376">
        <ele>256</ele>
        <time>2012-05-24T11:08:23Z</time>
      </trkpt>
      <trkpt lat="46.76607" lon="5.604">
        <ele>257</ele>
        <time>2012-05-24T11:08:41Z</time>
      </trkpt>
      <trkpt lat="46.76606" lon="5.60409">
        <ele>257</ele>
        <time>2012-05-24T11:08:46Z</time>
      </trkpt>
      <trkpt lat="46.76596" lon="5.60435">
        <ele>257</ele>
        <time>2012-05-24T11:09:04Z</time>
      </trkpt>
      <trkpt lat="46.76587" lon="5.60472">
        <ele>256</ele>
        <time>2012-05-24T11:09:25Z</time>
      </trkpt>
      <trkpt lat="46.76575" lon="5.60504">
        <ele>257</ele>
        <time>2012-05-24T11:09:43Z</time>
      </trkpt>
      <trkpt lat="46.76567" lon="5.60521">
        <ele>257</ele>
        <time>2012-05-24T11:09:56Z</time>
      </trkpt>
      <trkpt lat="46.76557" lon="5.6055">
        <ele>256</ele>
        <time>2012-05-24T11:10:11Z</time>
      </trkpt>
      <trkpt lat="46.76546" lon="5.60576">
        <ele>257</ele>
        <time>2012-05-24T11:10:29Z</time>
      </trkpt>
      <trkpt lat="46.76538" lon="5.60589">
        <ele>257</ele>
        <time>2012-05-24T11:10:41Z</time>
      </trkpt>
      <trkpt lat="46.76524" lon="5.60603">
        <ele>256</ele>
        <time>2012-05-24T11:10:57Z</time>
      </trkpt>
      <trkpt lat="46.76511" lon="5.6062">
        <ele>256</ele>
        <time>2012-05-24T11:11:12Z</time>
      </trkpt>
      <trkpt lat="46.76509" lon="5.60622">
        <ele>256</ele>
        <time>2012-05-24T11:11:13Z</time>
      </trkpt>
      <trkpt lat="46.76496" lon="5.60652">
        <ele>256</ele>
        <time>2012-05-24T11:11:32Z</time>
      </trkpt>
      <trkpt lat="46.76481" lon="5.6067">
        <ele>256</ele>
        <time>2012-05-24T11:11:47Z</time>
      </trkpt>
      <trkpt lat="46.76477" lon="5.60674">
        <ele>256</ele>
        <time>2012-05-24T11:11:51Z</time>
      </trkpt>
      <trkpt lat="46.76475" lon="5.60678">
        <ele>256</ele>
        <time>2012-05-24T11:11:54Z</time>
      </trkpt>
      <trkpt lat="46.76473" lon="5.60685">
        <ele>256</ele>
        <time>2012-05-24T11:11:58Z</time>
      </trkpt>
      <trkpt lat="46.76463" lon="5.60692">
        <ele>257</ele>
        <time>2012-05-24T11:12:10Z</time>
      </trkpt>
      <trkpt lat="46.7645" lon="5.60705">
        <ele>257</ele>
        <time>2012-05-24T11:12:24Z</time>
      </trkpt>
      <trkpt lat="46.76432" lon="5.6072">
        <ele>257</ele>
        <time>2012-05-24T11:12:40Z</time>
      </trkpt>
      <trkpt lat="46.7642" lon="5.60741">
        <ele>257</ele>
        <time>2012-05-24T11:13:00Z</time>
      </trkpt>
      <trkpt lat="46.76409" lon="5.60752">
        <ele>258</ele>
        <time>2012-05-24T11:13:14Z</time>
      </trkpt>
      <trkpt lat="46.7639" lon="5.60769">
        <ele>258</ele>
        <time>2012-05-24T11:13:28Z</time>
      </trkpt>
      <trkpt lat="46.76367" lon="5.60783">
        <ele>258</ele>
        <time>2012-05-24T11:13:41Z</time>
      </trkpt>
      <trkpt lat="46.76356" lon="5.60804">
        <ele>258</ele>
        <time>2012-05-24T11:13:55Z</time>
      </trkpt>
      <trkpt lat="46.76356" lon="5.60809">
        <ele>258</ele>
        <time>2012-05-24T11:13:58Z</time>
      </trkpt>
      <trkpt lat="46.76341" lon="5.60826">
        <ele>258</ele>
        <time>2012-05-24T11:14:15Z</time>
      </trkpt>
      <trkpt lat="46.76339" lon="5.6083">
        <ele>259</ele>
        <time>2012-05-24T11:14:18Z</time>
      </trkpt>
      <trkpt lat="46.76338" lon="5.60831">
        <ele>259</ele>
        <time>2012-05-24T11:14:20Z</time>
      </trkpt>
      <trkpt lat="46.76334" lon="5.60836">
        <ele>258</ele>
        <time>2012-05-24T11:14:24Z</time>
      </trkpt>
      <trkpt lat="46.76331" lon="5.6084">
        <ele>259</ele>
        <time>2012-05-24T11:14:27Z</time>
      </trkpt>
      <trkpt lat="46.76318" lon="5.60855">
        <ele>258</ele>
        <time>2012-05-24T11:14:42Z</time>
      </trkpt>
      <trkpt lat="46.76317" lon="5.60855">
        <ele>258</ele>
        <time>2012-05-24T11:14:43Z</time>
      </trkpt>
      <trkpt lat="46.76311" lon="5.60865">
        <ele>258</ele>
        <time>2012-05-24T11:14:52Z</time>
      </trkpt>
      <trkpt lat="46.76309" lon="5.6087">
        <ele>258</ele>
        <time>2012-05-24T11:14:56Z</time>
      </trkpt>
      <trkpt lat="46.76305" lon="5.60878">
        <ele>259</ele>
        <time>2012-05-24T11:15:02Z</time>
      </trkpt>
      <trkpt lat="46.76301" lon="5.60881">
        <ele>258</ele>
        <time>2012-05-24T11:15:05Z</time>
      </trkpt>
      <trkpt lat="46.76299" lon="5.60882">
        <ele>258</ele>
        <time>2012-05-24T11:15:07Z</time>
      </trkpt>
      <trkpt lat="46.76298" lon="5.60885">
        <ele>259</ele>
        <time>2012-05-24T11:15:09Z</time>
      </trkpt>
      <trkpt lat="46.76295" lon="5.60887">
        <ele>259</ele>
        <time>2012-05-24T11:15:11Z</time>
      </trkpt>
      <trkpt lat="46.76288" lon="5.60904">
        <ele>259</ele>
        <time>2012-05-24T11:15:22Z</time>
      </trkpt>
      <trkpt lat="46.76284" lon="5.60911">
        <ele>259</ele>
        <time>2012-05-24T11:15:28Z</time>
      </trkpt>
      <trkpt lat="46.7628" lon="5.60916">
        <ele>259</ele>
        <time>2012-05-24T11:15:32Z</time>
      </trkpt>
      <trkpt lat="46.76272" lon="5.6094">
        <ele>259</ele>
        <time>2012-05-24T11:15:47Z</time>
      </trkpt>
      <trkpt lat="46.7627" lon="5.60946">
        <ele>259</ele>
        <time>2012-05-24T11:15:50Z</time>
      </trkpt>
      <trkpt lat="46.76261" lon="5.60954">
        <ele>259</ele>
        <time>2012-05-24T11:15:59Z</time>
      </trkpt>
      <trkpt lat="46.76255" lon="5.60959">
        <ele>259</ele>
        <time>2012-05-24T11:16:06Z</time>
      </trkpt>
      <trkpt lat="46.76253" lon="5.60966">
        <ele>259</ele>
        <time>2012-05-24T11:16:10Z</time>
      </trkpt>
      <trkpt lat="46.76238" lon="5.60981">
        <ele>259</ele>
        <time>2012-05-24T11:16:25Z</time>
      </trkpt>
      <trkpt lat="46.76225" lon="5.6101">
        <ele>259</ele>
        <time>2012-05-24T11:16:46Z</time>
      </trkpt>
      <trkpt lat="46.76222" lon="5.61012">
        <ele>259</ele>
        <time>2012-05-24T11:16:51Z</time>
      </trkpt>
      <trkpt lat="46.76215" lon="5.61017">
        <ele>259</ele>
        <time>2012-05-24T11:16:57Z</time>
      </trkpt>
      <trkpt lat="46.76202" lon="5.61026">
        <ele>259</ele>
        <time>2012-05-24T11:17:08Z</time>
      </trkpt>
      <trkpt lat="46.76193" lon="5.61029">
        <ele>259</ele>
        <time>2012-05-24T11:17:18Z</time>
      </trkpt>
      <trkpt lat="46.76178" lon="5.61038">
        <ele>260</ele>
        <time>2012-05-24T11:17:34Z</time>
      </trkpt>
      <trkpt lat="46.76177" lon="5.61045">
        <ele>260</ele>
        <time>2012-05-24T11:17:38Z</time>
      </trkpt>
      <trkpt lat="46.76176" lon="5.61049">
        <ele>260</ele>
        <time>2012-05-24T11:17:40Z</time>
      </trkpt>
      <trkpt lat="46.76165" lon="5.6107">
        <ele>260</ele>
        <time>2012-05-24T11:17:56Z</time>
      </trkpt>
      <trkpt lat="46.7616" lon="5.61079">
        <ele>260</ele>
        <time>2012-05-24T11:18:02Z</time>
      </trkpt>
      <trkpt lat="46.76149" lon="5.61084">
        <ele>260</ele>
        <time>2012-05-24T11:18:17Z</time>
      </trkpt>
      <trkpt lat="46.7614" lon="5.61093">
        <ele>260</ele>
        <time>2012-05-24T11:18:29Z</time>
      </trkpt>
      <trkpt lat="46.76129" lon="5.61108">
        <ele>260</ele>
        <time>2012-05-24T11:18:43Z</time>
      </trkpt>
      <trkpt lat="46.76118" lon="5.61128">
        <ele>261</ele>
        <time>2012-05-24T11:18:56Z</time>
      </trkpt>
      <trkpt lat="46.76105" lon="5.61152">
        <ele>261</ele>
        <time>2012-05-24T11:19:11Z</time>
      </trkpt>
      <trkpt lat="46.76095" lon="5.61175">
        <ele>260</ele>
        <time>2012-05-24T11:19:26Z</time>
      </trkpt>
      <trkpt lat="46.76075" lon="5.612">
        <ele>260</ele>
        <time>2012-05-24T11:19:43Z</time>
      </trkpt>
      <trkpt lat="46.76067" lon="5.61215">
        <ele>261</ele>
        <time>2012-05-24T11:19:57Z</time>
      </trkpt>
      <trkpt lat="46.76064" lon="5.61225">
        <ele>260</ele>
        <time>2012-05-24T11:20:05Z</time>
      </trkpt>
      <trkpt lat="46.76059" lon="5.61232">
        <ele>260</ele>
        <time>2012-05-24T11:20:11Z</time>
      </trkpt>
      <trkpt lat="46.76037" lon="5.61255">
        <ele>260</ele>
        <time>2012-05-24T11:20:33Z</time>
      </trkpt>
      <trkpt lat="46.76022" lon="5.61269">
        <ele>260</ele>
        <time>2012-05-24T11:20:49Z</time>
      </trkpt>
      <trkpt lat="46.76009" lon="5.61288">
        <ele>261</ele>
        <time>2012-05-24T11:21:05Z</time>
      </trkpt>
      <trkpt lat="46.76001" lon="5.61316">
        <ele>261</ele>
        <time>2012-05-24T11:21:26Z</time>
      </trkpt>
      <trkpt lat="46.75998" lon="5.6133">
        <ele>261</ele>
        <time>2012-05-24T11:21:35Z</time>
      </trkpt>
      <trkpt lat="46.75995" lon="5.61356">
        <ele>262</ele>
        <time>2012-05-24T11:21:50Z</time>
      </trkpt>
      <trkpt lat="46.75992" lon="5.61383">
        <ele>262</ele>
        <time>2012-05-24T11:22:06Z</time>
      </trkpt>
      <trkpt lat="46.7599" lon="5.61402">
        <ele>262</ele>
        <time>2012-05-24T11:22:20Z</time>
      </trkpt>
      <trkpt lat="46.75987" lon="5.6141">
        <ele>262</ele>
        <time>2012-05-24T11:22:26Z</time>
      </trkpt>
      <trkpt lat="46.75989" lon="5.61432">
        <ele>262</ele>
        <time>2012-05-24T11:22:40Z</time>
      </trkpt>
      <trkpt lat="46.7599" lon="5.61433">
        <ele>262</ele>
        <time>2012-05-24T11:22:41Z</time>
      </trkpt>
      <trkpt lat="46.75998" lon="5.61458">
        <ele>263</ele>
        <time>2012-05-24T11:22:57Z</time>
      </trkpt>
      <trkpt lat="46.75993" lon="5.61469">
        <ele>263</ele>
        <time>2012-05-24T11:23:04Z</time>
      </trkpt>
      <trkpt lat="46.75965" lon="5.61484">
        <ele>262</ele>
        <time>2012-05-24T11:23:25Z</time>
      </trkpt>
      <trkpt lat="46.75947" lon="5.61487">
        <ele>262</ele>
        <time>2012-05-24T11:23:39Z</time>
      </trkpt>
      <trkpt lat="46.75926" lon="5.61498">
        <ele>261</ele>
        <time>2012-05-24T11:23:58Z</time>
      </trkpt>
      <trkpt lat="46.75908" lon="5.6151">
        <ele>261</ele>
        <time>2012-05-24T11:24:15Z</time>
      </trkpt>
      <trkpt lat="46.75886" lon="5.61529">
        <ele>260</ele>
        <time>2012-05-24T11:24:35Z</time>
      </trkpt>
      <trkpt lat="46.75864" lon="5.61546">
        <ele>260</ele>
        <time>2012-05-24T11:24:58Z</time>
      </trkpt>
      <trkpt lat="46.75849" lon="5.61558">
        <ele>260</ele>
        <time>2012-05-24T11:25:16Z</time>
      </trkpt>
      <trkpt lat="46.75839" lon="5.61559">
        <ele>260</ele>
        <time>2012-05-24T11:25:31Z</time>
      </trkpt>
      <trkpt lat="46.75819" lon="5.61568">
        <ele>260</ele>
        <time>2012-05-24T11:25:47Z</time>
      </trkpt>
      <trkpt lat="46.75811" lon="5.61574">
        <ele>260</ele>
        <time>2012-05-24T11:25:55Z</time>
      </trkpt>
      <trkpt lat="46.75792" lon="5.61565">
        <ele>260</ele>
        <time>2012-05-24T11:26:13Z</time>
      </trkpt>
      <trkpt lat="46.75777" lon="5.61561">
        <ele>260</ele>
        <time>2012-05-24T11:26:28Z</time>
      </trkpt>
      <trkpt lat="46.75769" lon="5.61566">
        <ele>259</ele>
        <time>2012-05-24T11:26:39Z</time>
      </trkpt>
      <trkpt lat="46.75769" lon="5.61596">
        <ele>259</ele>
        <time>2012-05-24T11:26:55Z</time>
      </trkpt>
      <trkpt lat="46.75767" lon="5.61616">
        <ele>260</ele>
        <time>2012-05-24T11:27:07Z</time>
      </trkpt>
      <trkpt lat="46.75761" lon="5.61636">
        <ele>260</ele>
        <time>2012-05-24T11:27:22Z</time>
      </trkpt>
      <trkpt lat="46.7574" lon="5.6166">
        <ele>260</ele>
        <time>2012-05-24T11:27:38Z</time>
      </trkpt>
      <trkpt lat="46.75728" lon="5.61681">
        <ele>261</ele>
        <time>2012-05-24T11:27:51Z</time>
      </trkpt>
      <trkpt lat="46.75709" lon="5.61682">
        <ele>260</ele>
        <time>2012-05-24T11:28:06Z</time>
      </trkpt>
      <trkpt lat="46.75699" lon="5.61683">
        <ele>260</ele>
        <time>2012-05-24T11:28:14Z</time>
      </trkpt>
      <trkpt lat="46.75696" lon="5.61684">
        <ele>260</ele>
        <time>2012-05-24T11:28:17Z</time>
      </trkpt>
      <trkpt lat="46.75693" lon="5.61682">
        <ele>260</ele>
        <time>2012-05-24T11:28:20Z</time>
      </trkpt>
      <trkpt lat="46.75688" lon="5.61683">
        <ele>260</ele>
        <time>2012-05-24T11:28:24Z</time>
      </trkpt>
      <trkpt lat="46.75684" lon="5.61683">
        <ele>260</ele>
        <time>2012-05-24T11:28:27Z</time>
      </trkpt>
      <trkpt lat="46.75669" lon="5.61691">
        <ele>260</ele>
        <time>2012-05-24T11:28:42Z</time>
      </trkpt>
      <trkpt lat="46.75666" lon="5.61693">
        <ele>260</ele>
        <time>2012-05-24T11:28:44Z</time>
      </trkpt>
      <trkpt lat="46.75658" lon="5.61689">
        <ele>260</ele>
        <time>2012-05-24T11:28:51Z</time>
      </trkpt>
      <trkpt lat="46.75657" lon="5.61685">
        <ele>260</ele>
        <time>2012-05-24T11:28:54Z</time>
      </trkpt>
      <trkpt lat="46.75658" lon="5.61678">
        <ele>259</ele>
        <time>2012-05-24T11:29:00Z</time>
      </trkpt>
      <trkpt lat="46.75654" lon="5.61669">
        <ele>259</ele>
        <time>2012-05-24T11:29:04Z</time>
      </trkpt>
      <trkpt lat="46.75652" lon="5.61655">
        <ele>259</ele>
        <time>2012-05-24T11:29:11Z</time>
      </trkpt>
      <trkpt lat="46.75645" lon="5.6163">
        <ele>259</ele>
        <time>2012-05-24T11:29:24Z</time>
      </trkpt>
      <trkpt lat="46.75644" lon="5.61629">
        <ele>259</ele>
        <time>2012-05-24T11:29:25Z</time>
      </trkpt>
      <trkpt lat="46.75641" lon="5.61628">
        <ele>259</ele>
        <time>2012-05-24T11:29:29Z</time>
      </trkpt>
      <trkpt lat="46.75625" lon="5.61633">
        <ele>259</ele>
        <time>2012-05-24T11:29:42Z</time>
      </trkpt>
      <trkpt lat="46.75615" lon="5.61638">
        <ele>259</ele>
        <time>2012-05-24T11:29:53Z</time>
      </trkpt>
      <trkpt lat="46.75601" lon="5.61655">
        <ele>259</ele>
        <time>2012-05-24T11:30:10Z</time>
      </trkpt>
      <trkpt lat="46.75591" lon="5.61663">
        <ele>260</ele>
        <time>2012-05-24T11:30:18Z</time>
      </trkpt>
      <trkpt lat="46.75584" lon="5.61668">
        <ele>260</ele>
        <time>2012-05-24T11:30:22Z</time>
      </trkpt>
      <trkpt lat="46.75565" lon="5.61684">
        <ele>260</ele>
        <time>2012-05-24T11:30:39Z</time>
      </trkpt>
      <trkpt lat="46.75553" lon="5.61688">
        <ele>261</ele>
        <time>2012-05-24T11:30:56Z</time>
      </trkpt>
      <trkpt lat="46.75552" lon="5.61686">
        <ele>260</ele>
        <time>2012-05-24T11:31:17Z</time>
      </trkpt>
      <trkpt lat="46.75551" lon="5.61685">
        <ele>259</ele>
        <time>2012-05-24T11:33:23Z</time>
      </trkpt>
      <trkpt lat="46.75546" lon="5.61698">
        <ele>257</ele>
        <time>2012-05-24T11:38:14Z</time>
      </trkpt>
      <trkpt lat="46.75545" lon="5.61709">
        <ele>257</ele>
        <time>2012-05-24T11:38:39Z</time>
      </trkpt>
      <trkpt lat="46.7554" lon="5.61728">
        <ele>256</ele>
        <time>2012-05-24T11:38:49Z</time>
      </trkpt>
      <trkpt lat="46.75538" lon="5.61736">
        <ele>256</ele>
        <time>2012-05-24T11:38:55Z</time>
      </trkpt>
      <trkpt lat="46.75535" lon="5.61743">
        <ele>256</ele>
        <time>2012-05-24T11:38:59Z</time>
      </trkpt>
      <trkpt lat="46.75527" lon="5.6176">
        <ele>256</ele>
        <time>2012-05-24T11:39:15Z</time>
      </trkpt>
      <trkpt lat="46.7552" lon="5.61767">
        <ele>256</ele>
        <time>2012-05-24T11:39:20Z</time>
      </trkpt>
      <trkpt lat="46.75516" lon="5.61769">
        <ele>256</ele>
        <time>2012-05-24T11:39:25Z</time>
      </trkpt>
      <trkpt lat="46.75493" lon="5.6177">
        <ele>256</ele>
        <time>2012-05-24T11:39:44Z</time>
      </trkpt>
      <trkpt lat="46.75462" lon="5.61769">
        <ele>256</ele>
        <time>2012-05-24T11:40:04Z</time>
      </trkpt>
      <trkpt lat="46.75442" lon="5.61769">
        <ele>256</ele>
        <time>2012-05-24T11:40:19Z</time>
      </trkpt>
      <trkpt lat="46.75428" lon="5.61767">
        <ele>256</ele>
        <time>2012-05-24T11:40:35Z</time>
      </trkpt>
      <trkpt lat="46.75422" lon="5.61774">
        <ele>257</ele>
        <time>2012-05-24T11:40:46Z</time>
      </trkpt>
      <trkpt lat="46.75424" lon="5.61777">
        <ele>258</ele>
        <time>2012-05-24T11:41:04Z</time>
      </trkpt>
      <trkpt lat="46.75419" lon="5.6177">
        <ele>258</ele>
        <time>2012-05-24T11:41:22Z</time>
      </trkpt>
      <trkpt lat="46.75413" lon="5.61758">
        <ele>257</ele>
        <time>2012-05-24T11:42:05Z</time>
      </trkpt>
      <trkpt lat="46.75412" lon="5.61756">
        <ele>257</ele>
        <time>2012-05-24T11:42:07Z</time>
      </trkpt>
      <trkpt lat="46.75396" lon="5.61752">
        <ele>257</ele>
        <time>2012-05-24T11:42:24Z</time>
      </trkpt>
      <trkpt lat="46.75383" lon="5.61775">
        <ele>257</ele>
        <time>2012-05-24T11:42:43Z</time>
      </trkpt>
      <trkpt lat="46.75374" lon="5.61796">
        <ele>257</ele>
        <time>2012-05-24T11:43:00Z</time>
      </trkpt>
      <trkpt lat="46.75362" lon="5.6182">
        <ele>257</ele>
        <time>2012-05-24T11:43:14Z</time>
      </trkpt>
      <trkpt lat="46.75356" lon="5.61846">
        <ele>257</ele>
        <time>2012-05-24T11:43:29Z</time>
      </trkpt>
      <trkpt lat="46.75347" lon="5.61877">
        <ele>257</ele>
        <time>2012-05-24T11:43:48Z</time>
      </trkpt>
      <trkpt lat="46.75332" lon="5.61904">
        <ele>257</ele>
        <time>2012-05-24T11:44:06Z</time>
      </trkpt>
      <trkpt lat="46.75316" lon="5.61915">
        <ele>258</ele>
        <time>2012-05-24T11:44:22Z</time>
      </trkpt>
      <trkpt lat="46.75302" lon="5.61916">
        <ele>258</ele>
        <time>2012-05-24T11:44:32Z</time>
      </trkpt>
      <trkpt lat="46.75285" lon="5.61905">
        <ele>258</ele>
        <time>2012-05-24T11:44:46Z</time>
      </trkpt>
      <trkpt lat="46.75267" lon="5.61903">
        <ele>257</ele>
        <time>2012-05-24T11:45:00Z</time>
      </trkpt>
      <trkpt lat="46.75247" lon="5.61913">
        <ele>257</ele>
        <time>2012-05-24T11:45:16Z</time>
      </trkpt>
      <trkpt lat="46.75228" lon="5.61925">
        <ele>257</ele>
        <time>2012-05-24T11:45:34Z</time>
      </trkpt>
      <trkpt lat="46.7521" lon="5.61949">
        <ele>257</ele>
        <time>2012-05-24T11:45:55Z</time>
      </trkpt>
      <trkpt lat="46.75195" lon="5.61975">
        <ele>258</ele>
        <time>2012-05-24T11:46:12Z</time>
      </trkpt>
      <trkpt lat="46.75179" lon="5.61998">
        <ele>258</ele>
        <time>2012-05-24T11:46:30Z</time>
      </trkpt>
      <trkpt lat="46.75168" lon="5.62016">
        <ele>258</ele>
        <time>2012-05-24T11:46:44Z</time>
      </trkpt>
      <trkpt lat="46.75151" lon="5.62042">
        <ele>258</ele>
        <time>2012-05-24T11:47:02Z</time>
      </trkpt>
      <trkpt lat="46.75136" lon="5.62072">
        <ele>259</ele>
        <time>2012-05-24T11:47:23Z</time>
      </trkpt>
      <trkpt lat="46.75124" lon="5.62099">
        <ele>259</ele>
        <time>2012-05-24T11:47:39Z</time>
      </trkpt>
      <trkpt lat="46.75111" lon="5.6212">
        <ele>259</ele>
        <time>2012-05-24T11:47:56Z</time>
      </trkpt>
      <trkpt lat="46.751" lon="5.62139">
        <ele>260</ele>
        <time>2012-05-24T11:48:12Z</time>
      </trkpt>
      <trkpt lat="46.75089" lon="5.62159">
        <ele>261</ele>
        <time>2012-05-24T11:48:23Z</time>
      </trkpt>
      <trkpt lat="46.75073" lon="5.62172">
        <ele>261</ele>
        <time>2012-05-24T11:48:35Z</time>
      </trkpt>
      <trkpt lat="46.75067" lon="5.62173">
        <ele>260</ele>
        <time>2012-05-24T11:48:39Z</time>
      </trkpt>
      <trkpt lat="46.75059" lon="5.62172">
        <ele>259</ele>
        <time>2012-05-24T11:48:45Z</time>
      </trkpt>
      <trkpt lat="46.75056" lon="5.62173">
        <ele>259</ele>
        <time>2012-05-24T11:48:48Z</time>
      </trkpt>
      <trkpt lat="46.7505" lon="5.62172">
        <ele>259</ele>
        <time>2012-05-24T11:48:52Z</time>
      </trkpt>
      <trkpt lat="46.75046" lon="5.62173">
        <ele>259</ele>
        <time>2012-05-24T11:48:56Z</time>
      </trkpt>
      <trkpt lat="46.75042" lon="5.62177">
        <ele>259</ele>
        <time>2012-05-24T11:49:00Z</time>
      </trkpt>
      <trkpt lat="46.7504" lon="5.62179">
        <ele>259</ele>
        <time>2012-05-24T11:49:02Z</time>
      </trkpt>
      <trkpt lat="46.75036" lon="5.62183">
        <ele>259</ele>
        <time>2012-05-24T11:49:06Z</time>
      </trkpt>
      <trkpt lat="46.75027" lon="5.6219">
        <ele>259</ele>
        <time>2012-05-24T11:49:14Z</time>
      </trkpt>
      <trkpt lat="46.75015" lon="5.62203">
        <ele>259</ele>
        <time>2012-05-24T11:49:26Z</time>
      </trkpt>
      <trkpt lat="46.75002" lon="5.62214">
        <ele>259</ele>
        <time>2012-05-24T11:49:37Z</time>
      </trkpt>
      <trkpt lat="46.74997" lon="5.62219">
        <ele>259</ele>
        <time>2012-05-24T11:49:42Z</time>
      </trkpt>
      <trkpt lat="46.74994" lon="5.62219">
        <ele>259</ele>
        <time>2012-05-24T11:49:45Z</time>
      </trkpt>
      <trkpt lat="46.74988" lon="5.62223">
        <ele>259</ele>
        <time>2012-05-24T11:49:50Z</time>
      </trkpt>
      <trkpt lat="46.74967" lon="5.62242">
        <ele>260</ele>
        <time>2012-05-24T11:50:09Z</time>
      </trkpt>
      <trkpt lat="46.74954" lon="5.62258">
        <ele>260</ele>
        <time>2012-05-24T11:50:24Z</time>
      </trkpt>
      <trkpt lat="46.74941" lon="5.62273">
        <ele>260</ele>
        <time>2012-05-24T11:50:38Z</time>
      </trkpt>
      <trkpt lat="46.74933" lon="5.623">
        <ele>261</ele>
        <time>2012-05-24T11:50:54Z</time>
      </trkpt>
      <trkpt lat="46.74949" lon="5.62317">
        <ele>262</ele>
        <time>2012-05-24T11:51:13Z</time>
      </trkpt>
      <trkpt lat="46.74952" lon="5.6232">
        <ele>262</ele>
        <time>2012-05-24T11:51:16Z</time>
      </trkpt>
      <trkpt lat="46.74959" lon="5.62327">
        <ele>263</ele>
        <time>2012-05-24T11:51:24Z</time>
      </trkpt>
      <trkpt lat="46.74962" lon="5.62338">
        <ele>264</ele>
        <time>2012-05-24T11:51:33Z</time>
      </trkpt>
      <trkpt lat="46.74952" lon="5.6236">
        <ele>264</ele>
        <time>2012-05-24T11:51:49Z</time>
      </trkpt>
      <trkpt lat="46.7494" lon="5.62389">
        <ele>265</ele>
        <time>2012-05-24T11:52:08Z</time>
      </trkpt>
      <trkpt lat="46.7493" lon="5.62408">
        <ele>266</ele>
        <time>2012-05-24T11:52:22Z</time>
      </trkpt>
      <trkpt lat="46.74926" lon="5.62417">
        <ele>267</ele>
        <time>2012-05-24T11:52:31Z</time>
      </trkpt>
      <trkpt lat="46.74923" lon="5.62443">
        <ele>269</ele>
        <time>2012-05-24T11:52:50Z</time>
      </trkpt>
      <trkpt lat="46.74924" lon="5.62452">
        <ele>269</ele>
        <time>2012-05-24T11:52:56Z</time>
      </trkpt>
      <trkpt lat="46.74928" lon="5.62476">
        <ele>272</ele>
        <time>2012-05-24T11:53:11Z</time>
      </trkpt>
      <trkpt lat="46.7493" lon="5.62487">
        <ele>272</ele>
        <time>2012-05-24T11:53:18Z</time>
      </trkpt>
      <trkpt lat="46.74936" lon="5.6251">
        <ele>274</ele>
        <time>2012-05-24T11:53:35Z</time>
      </trkpt>
      <trkpt lat="46.74938" lon="5.62513">
        <ele>274</ele>
        <time>2012-05-24T11:53:37Z</time>
      </trkpt>
      <trkpt lat="46.74938" lon="5.62515">
        <ele>274</ele>
        <time>2012-05-24T11:53:39Z</time>
      </trkpt>
      <trkpt lat="46.74943" lon="5.62532">
        <ele>276</ele>
        <time>2012-05-24T11:53:55Z</time>
      </trkpt>
      <trkpt lat="46.7495" lon="5.6255">
        <ele>278</ele>
        <time>2012-05-24T11:54:12Z</time>
      </trkpt>
      <trkpt lat="46.74952" lon="5.62565">
        <ele>280</ele>
        <time>2012-05-24T11:54:25Z</time>
      </trkpt>
      <trkpt lat="46.74956" lon="5.62584">
        <ele>283</ele>
        <time>2012-05-24T11:54:45Z</time>
      </trkpt>
      <trkpt lat="46.7496" lon="5.62601">
        <ele>286</ele>
        <time>2012-05-24T11:55:02Z</time>
      </trkpt>
      <trkpt lat="46.74962" lon="5.62618">
        <ele>289</ele>
        <time>2012-05-24T11:55:16Z</time>
      </trkpt>
      <trkpt lat="46.74968" lon="5.62631">
        <ele>291</ele>
        <time>2012-05-24T11:55:31Z</time>
      </trkpt>
      <trkpt lat="46.74977" lon="5.62643">
        <ele>295</ele>
        <time>2012-05-24T11:55:46Z</time>
      </trkpt>
      <trkpt lat="46.74985" lon="5.6265">
        <ele>297</ele>
        <time>2012-05-24T11:55:58Z</time>
      </trkpt>
      <trkpt lat="46.74997" lon="5.62661">
        <ele>300</ele>
        <time>2012-05-24T11:56:13Z</time>
      </trkpt>
      <trkpt lat="46.74999" lon="5.62664">
        <ele>300</ele>
        <time>2012-05-24T11:56:16Z</time>
      </trkpt>
      <trkpt lat="46.75001" lon="5.62667">
        <ele>300</ele>
        <time>2012-05-24T11:56:18Z</time>
      </trkpt>
      <trkpt lat="46.75003" lon="5.62672">
        <ele>302</ele>
        <time>2012-05-24T11:56:23Z</time>
      </trkpt>
      <trkpt lat="46.75012" lon="5.62694">
        <ele>304</ele>
        <time>2012-05-24T11:56:41Z</time>
      </trkpt>
      <trkpt lat="46.75019" lon="5.6271">
        <ele>307</ele>
        <time>2012-05-24T11:56:56Z</time>
      </trkpt>
      <trkpt lat="46.75028" lon="5.62723">
        <ele>308</ele>
        <time>2012-05-24T11:57:14Z</time>
      </trkpt>
      <trkpt lat="46.75027" lon="5.62734">
        <ele>310</ele>
        <time>2012-05-24T11:57:31Z</time>
      </trkpt>
      <trkpt lat="46.75027" lon="5.62749">
        <ele>314</ele>
        <time>2012-05-24T11:57:45Z</time>
      </trkpt>
      <trkpt lat="46.75027" lon="5.62754">
        <ele>314</ele>
        <time>2012-05-24T11:57:50Z</time>
      </trkpt>
      <trkpt lat="46.75027" lon="5.62763">
        <ele>315</ele>
        <time>2012-05-24T11:58:03Z</time>
      </trkpt>
      <trkpt lat="46.75028" lon="5.62781">
        <ele>318</ele>
        <time>2012-05-24T11:58:23Z</time>
      </trkpt>
      <trkpt lat="46.7503" lon="5.62799">
        <ele>320</ele>
        <time>2012-05-24T11:58:39Z</time>
      </trkpt>
      <trkpt lat="46.75032" lon="5.62819">
        <ele>324</ele>
        <time>2012-05-24T11:58:59Z</time>
      </trkpt>
      <trkpt lat="46.75029" lon="5.62831">
        <ele>326</ele>
        <time>2012-05-24T11:59:15Z</time>
      </trkpt>
      <trkpt lat="46.75022" lon="5.62836">
        <ele>328</ele>
        <time>2012-05-24T11:59:24Z</time>
      </trkpt>
      <trkpt lat="46.75014" lon="5.62833">
        <ele>329</ele>
        <time>2012-05-24T11:59:35Z</time>
      </trkpt>
      <trkpt lat="46.75019" lon="5.62842">
        <ele>331</ele>
        <time>2012-05-24T11:59:49Z</time>
      </trkpt>
      <trkpt lat="46.75024" lon="5.62848">
        <ele>331</ele>
        <time>2012-05-24T12:00:11Z</time>
      </trkpt>
      <trkpt lat="46.75034" lon="5.62859">
        <ele>334</ele>
        <time>2012-05-24T12:00:30Z</time>
      </trkpt>
      <trkpt lat="46.75041" lon="5.62864">
        <ele>335</ele>
        <time>2012-05-24T12:00:47Z</time>
      </trkpt>
      <trkpt lat="46.75055" lon="5.62875">
        <ele>337</ele>
        <time>2012-05-24T12:01:07Z</time>
      </trkpt>
      <trkpt lat="46.7506" lon="5.62877">
        <ele>338</ele>
        <time>2012-05-24T12:01:12Z</time>
      </trkpt>
      <trkpt lat="46.75067" lon="5.62882">
        <ele>339</ele>
        <time>2012-05-24T12:01:23Z</time>
      </trkpt>
      <trkpt lat="46.7507" lon="5.62883">
        <ele>339</ele>
        <time>2012-05-24T12:01:41Z</time>
      </trkpt>
      <trkpt lat="46.75078" lon="5.62893">
        <ele>340</ele>
        <time>2012-05-24T12:01:57Z</time>
      </trkpt>
      <trkpt lat="46.75091" lon="5.62906">
        <ele>343</ele>
        <time>2012-05-24T12:02:13Z</time>
      </trkpt>
      <trkpt lat="46.75104" lon="5.62915">
        <ele>346</ele>
        <time>2012-05-24T12:02:28Z</time>
      </trkpt>
      <trkpt lat="46.75119" lon="5.62926">
        <ele>349</ele>
        <time>2012-05-24T12:02:48Z</time>
      </trkpt>
      <trkpt lat="46.75132" lon="5.6293">
        <ele>352</ele>
        <time>2012-05-24T12:03:05Z</time>
      </trkpt>
      <trkpt lat="46.75161" lon="5.62939">
        <ele>353</ele>
        <time>2012-05-24T12:03:28Z</time>
      </trkpt>
      <trkpt lat="46.75168" lon="5.62939">
        <ele>354</ele>
        <time>2012-05-24T12:03:33Z</time>
      </trkpt>
      <trkpt lat="46.75189" lon="5.62938">
        <ele>355</ele>
        <time>2012-05-24T12:03:49Z</time>
      </trkpt>
      <trkpt lat="46.75194" lon="5.62932">
        <ele>356</ele>
        <time>2012-05-24T12:03:54Z</time>
      </trkpt>
      <trkpt lat="46.752" lon="5.6291">
        <ele>358</ele>
        <time>2012-05-24T12:04:09Z</time>
      </trkpt>
      <trkpt lat="46.75204" lon="5.62896">
        <ele>359</ele>
        <time>2012-05-24T12:04:19Z</time>
      </trkpt>
      <trkpt lat="46.75199" lon="5.62859">
        <ele>363</ele>
        <time>2012-05-24T12:04:38Z</time>
      </trkpt>
      <trkpt lat="46.75205" lon="5.6283">
        <ele>365</ele>
        <time>2012-05-24T12:04:58Z</time>
      </trkpt>
      <trkpt lat="46.75213" lon="5.62812">
        <ele>367</ele>
        <time>2012-05-24T12:05:13Z</time>
      </trkpt>
      <trkpt lat="46.75214" lon="5.62809">
        <ele>367</ele>
        <time>2012-05-24T12:05:15Z</time>
      </trkpt>
      <trkpt lat="46.75217" lon="5.62803">
        <ele>368</ele>
        <time>2012-05-24T12:05:21Z</time>
      </trkpt>
      <trkpt lat="46.75223" lon="5.62766">
        <ele>369</ele>
        <time>2012-05-24T12:05:42Z</time>
      </trkpt>
      <trkpt lat="46.75214" lon="5.62726">
        <ele>371</ele>
        <time>2012-05-24T12:06:02Z</time>
      </trkpt>
      <trkpt lat="46.75214" lon="5.62691">
        <ele>372</ele>
        <time>2012-05-24T12:06:22Z</time>
      </trkpt>
      <trkpt lat="46.75215" lon="5.62661">
        <ele>371</ele>
        <time>2012-05-24T12:06:40Z</time>
      </trkpt>
      <trkpt lat="46.75215" lon="5.62658">
        <ele>371</ele>
        <time>2012-05-24T12:06:42Z</time>
      </trkpt>
      <trkpt lat="46.7522" lon="5.62649">
        <ele>371</ele>
        <time>2012-05-24T12:06:49Z</time>
      </trkpt>
      <trkpt lat="46.75235" lon="5.62629">
        <ele>373</ele>
        <time>2012-05-24T12:07:07Z</time>
      </trkpt>
      <trkpt lat="46.75247" lon="5.62612">
        <ele>374</ele>
        <time>2012-05-24T12:07:22Z</time>
      </trkpt>
      <trkpt lat="46.75251" lon="5.6261">
        <ele>374</ele>
        <time>2012-05-24T12:07:26Z</time>
      </trkpt>
      <trkpt lat="46.75259" lon="5.62602">
        <ele>374</ele>
        <time>2012-05-24T12:07:45Z</time>
      </trkpt>
      <trkpt lat="46.75264" lon="5.62599">
        <ele>374</ele>
        <time>2012-05-24T12:08:02Z</time>
      </trkpt>
      <trkpt lat="46.75274" lon="5.6261">
        <ele>378</ele>
        <time>2012-05-24T12:08:31Z</time>
      </trkpt>
      <trkpt lat="46.75282" lon="5.6261">
        <ele>381</ele>
        <time>2012-05-24T12:08:49Z</time>
      </trkpt>
      <trkpt lat="46.75294" lon="5.62607">
        <ele>384</ele>
        <time>2012-05-24T12:09:06Z</time>
      </trkpt>
      <trkpt lat="46.75303" lon="5.62595">
        <ele>385</ele>
        <time>2012-05-24T12:09:21Z</time>
      </trkpt>
      <trkpt lat="46.75306" lon="5.62598">
        <ele>386</ele>
        <time>2012-05-24T12:09:37Z</time>
      </trkpt>
      <trkpt lat="46.75318" lon="5.62603">
        <ele>389</ele>
        <time>2012-05-24T12:09:57Z</time>
      </trkpt>
      <trkpt lat="46.75327" lon="5.62604">
        <ele>392</ele>
        <time>2012-05-24T12:10:15Z</time>
      </trkpt>
      <trkpt lat="46.75335" lon="5.62608">
        <ele>395</ele>
        <time>2012-05-24T12:10:38Z</time>
      </trkpt>
      <trkpt lat="46.75344" lon="5.62612">
        <ele>398</ele>
        <time>2012-05-24T12:11:02Z</time>
      </trkpt>
      <trkpt lat="46.75352" lon="5.62613">
        <ele>401</ele>
        <time>2012-05-24T12:11:20Z</time>
      </trkpt>
      <trkpt lat="46.75363" lon="5.62616">
        <ele>405</ele>
        <time>2012-05-24T12:11:42Z</time>
      </trkpt>
      <trkpt lat="46.75379" lon="5.62608">
        <ele>408</ele>
        <time>2012-05-24T12:12:02Z</time>
      </trkpt>
      <trkpt lat="46.75394" lon="5.62599">
        <ele>411</ele>
        <time>2012-05-24T12:12:30Z</time>
      </trkpt>
      <trkpt lat="46.754" lon="5.62596">
        <ele>414</ele>
        <time>2012-05-24T12:12:53Z</time>
      </trkpt>
      <trkpt lat="46.75403" lon="5.62594">
        <ele>417</ele>
        <time>2012-05-24T12:13:13Z</time>
      </trkpt>
      <trkpt lat="46.75405" lon="5.62581">
        <ele>419</ele>
        <time>2012-05-24T12:13:27Z</time>
      </trkpt>
      <trkpt lat="46.75392" lon="5.62559">
        <ele>422</ele>
        <time>2012-05-24T12:13:46Z</time>
      </trkpt>
      <trkpt lat="46.75391" lon="5.62557">
        <ele>422</ele>
        <time>2012-05-24T12:13:47Z</time>
      </trkpt>
      <trkpt lat="46.75384" lon="5.62542">
        <ele>424</ele>
        <time>2012-05-24T12:14:03Z</time>
      </trkpt>
      <trkpt lat="46.75377" lon="5.6252">
        <ele>426</ele>
        <time>2012-05-24T12:14:18Z</time>
      </trkpt>
      <trkpt lat="46.75374" lon="5.62512">
        <ele>428</ele>
        <time>2012-05-24T12:14:34Z</time>
      </trkpt>
      <trkpt lat="46.75381" lon="5.625">
        <ele>432</ele>
        <time>2012-05-24T12:14:52Z</time>
      </trkpt>
      <trkpt lat="46.75385" lon="5.62496">
        <ele>432</ele>
        <time>2012-05-24T12:14:57Z</time>
      </trkpt>
      <trkpt lat="46.75399" lon="5.62487">
        <ele>434</ele>
        <time>2012-05-24T12:15:10Z</time>
      </trkpt>
      <trkpt lat="46.75406" lon="5.62482">
        <ele>435</ele>
        <time>2012-05-24T12:15:24Z</time>
      </trkpt>
      <trkpt lat="46.75421" lon="5.62478">
        <ele>436</ele>
        <time>2012-05-24T12:15:42Z</time>
      </trkpt>
      <trkpt lat="46.7542" lon="5.6247">
        <ele>435</ele>
        <time>2012-05-24T12:16:07Z</time>
      </trkpt>
      <trkpt lat="46.75416" lon="5.62465">
        <ele>435</ele>
        <time>2012-05-24T12:16:31Z</time>
      </trkpt>
      <trkpt lat="46.75412" lon="5.62453">
        <ele>434</ele>
        <time>2012-05-24T12:17:11Z</time>
      </trkpt>
      <trkpt lat="46.75406" lon="5.62444">
        <ele>433</ele>
        <time>2012-05-24T12:17:32Z</time>
      </trkpt>
      <trkpt lat="46.75404" lon="5.62444">
        <ele>433</ele>
        <time>2012-05-24T12:17:40Z</time>
      </trkpt>
      <trkpt lat="46.75388" lon="5.62444">
        <ele>431</ele>
        <time>2012-05-24T12:17:58Z</time>
      </trkpt>
      <trkpt lat="46.75374" lon="5.6244">
        <ele>431</ele>
        <time>2012-05-24T12:18:09Z</time>
      </trkpt>
      <trkpt lat="46.75362" lon="5.62444">
        <ele>432</ele>
        <time>2012-05-24T12:18:24Z</time>
      </trkpt>
      <trkpt lat="46.75357" lon="5.62446">
        <ele>431</ele>
        <time>2012-05-24T12:18:30Z</time>
      </trkpt>
      <trkpt lat="46.75347" lon="5.62421">
        <ele>430</ele>
        <time>2012-05-24T12:18:50Z</time>
      </trkpt>
      <trkpt lat="46.75337" lon="5.62414">
        <ele>428</ele>
        <time>2012-05-24T12:19:07Z</time>
      </trkpt>
      <trkpt lat="46.75322" lon="5.62398">
        <ele>426</ele>
        <time>2012-05-24T12:19:33Z</time>
      </trkpt>
      <trkpt lat="46.7532" lon="5.62394">
        <ele>426</ele>
        <time>2012-05-24T12:20:16Z</time>
      </trkpt>
      <trkpt lat="46.75312" lon="5.62393">
        <ele>426</ele>
        <time>2012-05-24T12:20:31Z</time>
      </trkpt>
      <trkpt lat="46.7531" lon="5.6239">
        <ele>427</ele>
        <time>2012-05-24T12:21:03Z</time>
      </trkpt>
      <trkpt lat="46.7531" lon="5.6239">
        <ele>426</ele>
        <time>2012-05-24T12:22:39Z</time>
      </trkpt>
      <trkpt lat="46.75311" lon="5.62391">
        <ele>427</ele>
        <time>2012-05-24T12:25:16Z</time>
      </trkpt>
      <trkpt lat="46.75311" lon="5.62391">
        <ele>423</ele>
        <time>2012-05-24T12:25:50Z</time>
      </trkpt>
      <trkpt lat="46.75311" lon="5.62391">
        <ele>426</ele>
        <time>2012-05-24T12:25:51Z</time>
      </trkpt>
      <trkpt lat="46.75311" lon="5.6239">
        <ele>431</ele>
        <time>2012-05-24T12:25:57Z</time>
      </trkpt>
      <trkpt lat="46.75311" lon="5.6239">
        <ele>427</ele>
        <time>2012-05-24T12:25:58Z</time>
      </trkpt>
      <trkpt lat="46.75311" lon="5.6239">
        <ele>431</ele>
        <time>2012-05-24T12:27:38Z</time>
      </trkpt>
      <trkpt lat="46.75311" lon="5.6239">
        <ele>427</ele>
        <time>2012-05-24T12:27:39Z</time>
      </trkpt>
      <trkpt lat="46.75309" lon="5.62391">
        <ele>430</ele>
        <time>2012-05-24T12:39:25Z</time>
      </trkpt>
      <trkpt lat="46.75309" lon="5.62391">
        <ele>426</ele>
        <time>2012-05-24T12:42:38Z</time>
      </trkpt>
      <trkpt lat="46.75309" lon="5.62391">
        <ele>430</ele>
        <time>2012-05-24T12:42:39Z</time>
      </trkpt>
      <trkpt lat="46.7531" lon="5.62393">
        <ele>426</ele>
        <time>2012-05-24T12:52:07Z</time>
      </trkpt>
      <trkpt lat="46.7531" lon="5.62393">
        <ele>430</ele>
        <time>2012-05-24T12:52:08Z</time>
      </trkpt>
      <trkpt lat="46.7531" lon="5.62393">
        <ele>430</ele>
        <time>2012-05-24T12:52:15Z</time>
      </trkpt>
      <trkpt lat="46.7531" lon="5.62393">
        <ele>432</ele>
        <time>2012-05-24T13:02:01Z</time>
      </trkpt>
      <trkpt lat="46.75317" lon="5.62404">
        <ele>432</ele>
        <time>2012-05-24T13:02:40Z</time>
      </trkpt>
      <trkpt lat="46.75326" lon="5.62409">
        <ele>432</ele>
        <time>2012-05-24T13:02:59Z</time>
      </trkpt>
      <trkpt lat="46.75333" lon="5.62413">
        <ele>433</ele>
        <time>2012-05-24T13:03:10Z</time>
      </trkpt>
      <trkpt lat="46.75348" lon="5.62419">
        <ele>436</ele>
        <time>2012-05-24T13:03:28Z</time>
      </trkpt>
      <trkpt lat="46.75346" lon="5.62438">
        <ele>437</ele>
        <time>2012-05-24T13:03:41Z</time>
      </trkpt>
      <trkpt lat="46.75354" lon="5.62444">
        <ele>438</ele>
        <time>2012-05-24T13:03:51Z</time>
      </trkpt>
      <trkpt lat="46.75374" lon="5.62439">
        <ele>438</ele>
        <time>2012-05-24T13:04:11Z</time>
      </trkpt>
      <trkpt lat="46.75387" lon="5.62441">
        <ele>438</ele>
        <time>2012-05-24T13:04:25Z</time>
      </trkpt>
      <trkpt lat="46.75406" lon="5.62442">
        <ele>439</ele>
        <time>2012-05-24T13:04:45Z</time>
      </trkpt>
      <trkpt lat="46.7542" lon="5.62447">
        <ele>439</ele>
        <time>2012-05-24T13:05:07Z</time>
      </trkpt>
      <trkpt lat="46.75446" lon="5.62438">
        <ele>438</ele>
        <time>2012-05-24T13:05:31Z</time>
      </trkpt>
      <trkpt lat="46.75453" lon="5.62418">
        <ele>436</ele>
        <time>2012-05-24T13:05:47Z</time>
      </trkpt>
      <trkpt lat="46.75458" lon="5.62394">
        <ele>435</ele>
        <time>2012-05-24T13:06:05Z</time>
      </trkpt>
      <trkpt lat="46.75465" lon="5.6238">
        <ele>435</ele>
        <time>2012-05-24T13:06:25Z</time>
      </trkpt>
      <trkpt lat="46.75486" lon="5.62379">
        <ele>436</ele>
        <time>2012-05-24T13:06:51Z</time>
      </trkpt>
      <trkpt lat="46.75494" lon="5.62383">
        <ele>437</ele>
        <time>2012-05-24T13:07:20Z</time>
      </trkpt>
      <trkpt lat="46.75509" lon="5.62392">
        <ele>438</ele>
        <time>2012-05-24T13:07:42Z</time>
      </trkpt>
      <trkpt lat="46.75513" lon="5.62399">
        <ele>438</ele>
        <time>2012-05-24T13:08:19Z</time>
      </trkpt>
      <trkpt lat="46.75528" lon="5.624">
        <ele>439</ele>
        <time>2012-05-24T13:08:35Z</time>
      </trkpt>
      <trkpt lat="46.75548" lon="5.62402">
        <ele>440</ele>
        <time>2012-05-24T13:08:59Z</time>
      </trkpt>
      <trkpt lat="46.75569" lon="5.62433">
        <ele>441</ele>
        <time>2012-05-24T13:09:29Z</time>
      </trkpt>
      <trkpt lat="46.7557" lon="5.62434">
        <ele>441</ele>
        <time>2012-05-24T13:09:30Z</time>
      </trkpt>
      <trkpt lat="46.75588" lon="5.62456">
        <ele>442</ele>
        <time>2012-05-24T13:09:56Z</time>
      </trkpt>
      <trkpt lat="46.75589" lon="5.62457">
        <ele>442</ele>
        <time>2012-05-24T13:11:49Z</time>
      </trkpt>
      <trkpt lat="46.7559" lon="5.62458">
        <ele>442</ele>
        <time>2012-05-24T13:12:45Z</time>
      </trkpt>
      <trkpt lat="46.7559" lon="5.62459">
        <ele>442</ele>
        <time>2012-05-24T13:14:12Z</time>
      </trkpt>
      <trkpt lat="46.75593" lon="5.6246">
        <ele>442</ele>
        <time>2012-05-24T13:15:26Z</time>
      </trkpt>
      <trkpt lat="46.75596" lon="5.62464">
        <ele>442</ele>
        <time>2012-05-24T13:16:29Z</time>
      </trkpt>
      <trkpt lat="46.75603" lon="5.62472">
        <ele>443</ele>
        <time>2012-05-24T13:16:46Z</time>
      </trkpt>
      <trkpt lat="46.7562" lon="5.62476">
        <ele>443</ele>
        <time>2012-05-24T13:17:07Z</time>
      </trkpt>
      <trkpt lat="46.75635" lon="5.62488">
        <ele>444</ele>
        <time>2012-05-24T13:17:30Z</time>
      </trkpt>
      <trkpt lat="46.75649" lon="5.62489">
        <ele>443</ele>
        <time>2012-05-24T13:17:45Z</time>
      </trkpt>
      <trkpt lat="46.75653" lon="5.62496">
        <ele>443</ele>
        <time>2012-05-24T13:18:12Z</time>
      </trkpt>
      <trkpt lat="46.75658" lon="5.6252">
        <ele>443</ele>
        <time>2012-05-24T13:18:32Z</time>
      </trkpt>
      <trkpt lat="46.75663" lon="5.62539">
        <ele>443</ele>
        <time>2012-05-24T13:18:46Z</time>
      </trkpt>
      <trkpt lat="46.75656" lon="5.6258">
        <ele>443</ele>
        <time>2012-05-24T13:19:12Z</time>
      </trkpt>
      <trkpt lat="46.75654" lon="5.62587">
        <ele>443</ele>
        <time>2012-05-24T13:19:16Z</time>
      </trkpt>
      <trkpt lat="46.75651" lon="5.62598">
        <ele>442</ele>
        <time>2012-05-24T13:19:25Z</time>
      </trkpt>
      <trkpt lat="46.75635" lon="5.6262">
        <ele>442</ele>
        <time>2012-05-24T13:19:35Z</time>
      </trkpt>
      <trkpt lat="46.75632" lon="5.62636">
        <ele>441</ele>
        <time>2012-05-24T13:19:52Z</time>
      </trkpt>
      <trkpt lat="46.75637" lon="5.62652">
        <ele>440</ele>
        <time>2012-05-24T13:20:05Z</time>
      </trkpt>
      <trkpt lat="46.75635" lon="5.62672">
        <ele>439</ele>
        <time>2012-05-24T13:20:16Z</time>
      </trkpt>
      <trkpt lat="46.75622" lon="5.62685">
        <ele>437</ele>
        <time>2012-05-24T13:20:34Z</time>
      </trkpt>
      <trkpt lat="46.75613" lon="5.6269">
        <ele>436</ele>
        <time>2012-05-24T13:20:44Z</time>
      </trkpt>
      <trkpt lat="46.75594" lon="5.62693">
        <ele>434</ele>
        <time>2012-05-24T13:21:06Z</time>
      </trkpt>
      <trkpt lat="46.75586" lon="5.62722">
        <ele>431</ele>
        <time>2012-05-24T13:21:26Z</time>
      </trkpt>
      <trkpt lat="46.7559" lon="5.62739">
        <ele>429</ele>
        <time>2012-05-24T13:21:37Z</time>
      </trkpt>
      <trkpt lat="46.75605" lon="5.62764">
        <ele>427</ele>
        <time>2012-05-24T13:21:51Z</time>
      </trkpt>
      <trkpt lat="46.75609" lon="5.62771">
        <ele>427</ele>
        <time>2012-05-24T13:21:56Z</time>
      </trkpt>
      <trkpt lat="46.7561" lon="5.62785">
        <ele>426</ele>
        <time>2012-05-24T13:22:05Z</time>
      </trkpt>
      <trkpt lat="46.75609" lon="5.62804">
        <ele>424</ele>
        <time>2012-05-24T13:22:20Z</time>
      </trkpt>
      <trkpt lat="46.75607" lon="5.62823">
        <ele>422</ele>
        <time>2012-05-24T13:22:33Z</time>
      </trkpt>
      <trkpt lat="46.75609" lon="5.6284">
        <ele>421</ele>
        <time>2012-05-24T13:22:44Z</time>
      </trkpt>
      <trkpt lat="46.75611" lon="5.62844">
        <ele>420</ele>
        <time>2012-05-24T13:22:47Z</time>
      </trkpt>
      <trkpt lat="46.75616" lon="5.6286">
        <ele>419</ele>
        <time>2012-05-24T13:23:01Z</time>
      </trkpt>
      <trkpt lat="46.75615" lon="5.62885">
        <ele>417</ele>
        <time>2012-05-24T13:23:17Z</time>
      </trkpt>
      <trkpt lat="46.75616" lon="5.62887">
        <ele>417</ele>
        <time>2012-05-24T13:23:19Z</time>
      </trkpt>
      <trkpt lat="46.75623" lon="5.62908">
        <ele>415</ele>
        <time>2012-05-24T13:23:35Z</time>
      </trkpt>
      <trkpt lat="46.75628" lon="5.62923">
        <ele>414</ele>
        <time>2012-05-24T13:23:50Z</time>
      </trkpt>
      <trkpt lat="46.75646" lon="5.62947">
        <ele>414</ele>
        <time>2012-05-24T13:24:09Z</time>
      </trkpt>
      <trkpt lat="46.75664" lon="5.62975">
        <ele>414</ele>
        <time>2012-05-24T13:24:34Z</time>
      </trkpt>
      <trkpt lat="46.75671" lon="5.63008">
        <ele>416</ele>
        <time>2012-05-24T13:24:57Z</time>
      </trkpt>
      <trkpt lat="46.75671" lon="5.63045">
        <ele>417</ele>
        <time>2012-05-24T13:25:20Z</time>
      </trkpt>
      <trkpt lat="46.75674" lon="5.63078">
        <ele>418</ele>
        <time>2012-05-24T13:25:40Z</time>
      </trkpt>
      <trkpt lat="46.75678" lon="5.63099">
        <ele>418</ele>
        <time>2012-05-24T13:25:58Z</time>
      </trkpt>
      <trkpt lat="46.75693" lon="5.63119">
        <ele>418</ele>
        <time>2012-05-24T13:26:17Z</time>
      </trkpt>
      <trkpt lat="46.757" lon="5.63144">
        <ele>419</ele>
        <time>2012-05-24T13:26:37Z</time>
      </trkpt>
      <trkpt lat="46.7571" lon="5.63166">
        <ele>420</ele>
        <time>2012-05-24T13:26:54Z</time>
      </trkpt>
      <trkpt lat="46.7572" lon="5.63205">
        <ele>421</ele>
        <time>2012-05-24T13:27:18Z</time>
      </trkpt>
      <trkpt lat="46.75728" lon="5.63219">
        <ele>421</ele>
        <time>2012-05-24T13:27:32Z</time>
      </trkpt>
      <trkpt lat="46.75744" lon="5.63237">
        <ele>422</ele>
        <time>2012-05-24T13:27:53Z</time>
      </trkpt>
      <trkpt lat="46.75746" lon="5.63239">
        <ele>422</ele>
        <time>2012-05-24T13:27:54Z</time>
      </trkpt>
      <trkpt lat="46.75764" lon="5.63269">
        <ele>423</ele>
        <time>2012-05-24T13:28:19Z</time>
      </trkpt>
      <trkpt lat="46.75785" lon="5.63288">
        <ele>424</ele>
        <time>2012-05-24T13:28:41Z</time>
      </trkpt>
      <trkpt lat="46.75806" lon="5.63298">
        <ele>426</ele>
        <time>2012-05-24T13:29:08Z</time>
      </trkpt>
      <trkpt lat="46.75822" lon="5.6331">
        <ele>426</ele>
        <time>2012-05-24T13:29:29Z</time>
      </trkpt>
      <trkpt lat="46.75839" lon="5.63328">
        <ele>428</ele>
        <time>2012-05-24T13:29:49Z</time>
      </trkpt>
      <trkpt lat="46.75845" lon="5.63342">
        <ele>429</ele>
        <time>2012-05-24T13:30:14Z</time>
      </trkpt>
      <trkpt lat="46.75855" lon="5.63353">
        <ele>430</ele>
        <time>2012-05-24T13:30:48Z</time>
      </trkpt>
      <trkpt lat="46.75877" lon="5.63382">
        <ele>432</ele>
        <time>2012-05-24T13:31:19Z</time>
      </trkpt>
      <trkpt lat="46.75891" lon="5.63407">
        <ele>434</ele>
        <time>2012-05-24T13:31:44Z</time>
      </trkpt>
      <trkpt lat="46.75911" lon="5.63435">
        <ele>437</ele>
        <time>2012-05-24T13:32:19Z</time>
      </trkpt>
      <trkpt lat="46.75929" lon="5.6346">
        <ele>438</ele>
        <time>2012-05-24T13:32:49Z</time>
      </trkpt>
      <trkpt lat="46.75949" lon="5.63477">
        <ele>440</ele>
        <time>2012-05-24T13:33:13Z</time>
      </trkpt>
      <trkpt lat="46.7596" lon="5.635">
        <ele>441</ele>
        <time>2012-05-24T13:33:35Z</time>
      </trkpt>
      <trkpt lat="46.75981" lon="5.63518">
        <ele>443</ele>
        <time>2012-05-24T13:33:59Z</time>
      </trkpt>
      <trkpt lat="46.75998" lon="5.63534">
        <ele>444</ele>
        <time>2012-05-24T13:34:20Z</time>
      </trkpt>
      <trkpt lat="46.7601" lon="5.63546">
        <ele>445</ele>
        <time>2012-05-24T13:34:37Z</time>
      </trkpt>
      <trkpt lat="46.76029" lon="5.63568">
        <ele>447</ele>
        <time>2012-05-24T13:34:58Z</time>
      </trkpt>
      <trkpt lat="46.76048" lon="5.63591">
        <ele>449</ele>
        <time>2012-05-24T13:35:26Z</time>
      </trkpt>
      <trkpt lat="46.76069" lon="5.63614">
        <ele>451</ele>
        <time>2012-05-24T13:35:56Z</time>
      </trkpt>
      <trkpt lat="46.76091" lon="5.63632">
        <ele>452</ele>
        <time>2012-05-24T13:36:23Z</time>
      </trkpt>
      <trkpt lat="46.76113" lon="5.63654">
        <ele>454</ele>
        <time>2012-05-24T13:36:50Z</time>
      </trkpt>
      <trkpt lat="46.76126" lon="5.63674">
        <ele>455</ele>
        <time>2012-05-24T13:37:13Z</time>
      </trkpt>
      <trkpt lat="46.76135" lon="5.63696">
        <ele>456</ele>
        <time>2012-05-24T13:37:30Z</time>
      </trkpt>
      <trkpt lat="46.76147" lon="5.6372">
        <ele>458</ele>
        <time>2012-05-24T13:37:51Z</time>
      </trkpt>
      <trkpt lat="46.76159" lon="5.63747">
        <ele>460</ele>
        <time>2012-05-24T13:38:17Z</time>
      </trkpt>
      <trkpt lat="46.76176" lon="5.6377">
        <ele>461</ele>
        <time>2012-05-24T13:38:39Z</time>
      </trkpt>
      <trkpt lat="46.76191" lon="5.63795">
        <ele>463</ele>
        <time>2012-05-24T13:39:03Z</time>
      </trkpt>
      <trkpt lat="46.76209" lon="5.63815">
        <ele>464</ele>
        <time>2012-05-24T13:39:22Z</time>
      </trkpt>
      <trkpt lat="46.76214" lon="5.6384">
        <ele>465</ele>
        <time>2012-05-24T13:39:41Z</time>
      </trkpt>
      <trkpt lat="46.76216" lon="5.63867">
        <ele>466</ele>
        <time>2012-05-24T13:40:03Z</time>
      </trkpt>
      <trkpt lat="46.76218" lon="5.63907">
        <ele>468</ele>
        <time>2012-05-24T13:40:27Z</time>
      </trkpt>
      <trkpt lat="46.76222" lon="5.63945">
        <ele>469</ele>
        <time>2012-05-24T13:40:50Z</time>
      </trkpt>
      <trkpt lat="46.76228" lon="5.63968">
        <ele>470</ele>
        <time>2012-05-24T13:41:10Z</time>
      </trkpt>
      <trkpt lat="46.76238" lon="5.63984">
        <ele>472</ele>
        <time>2012-05-24T13:41:25Z</time>
      </trkpt>
      <trkpt lat="46.76251" lon="5.64006">
        <ele>474</ele>
        <time>2012-05-24T13:41:43Z</time>
      </trkpt>
      <trkpt lat="46.76264" lon="5.64025">
        <ele>475</ele>
        <time>2012-05-24T13:42:01Z</time>
      </trkpt>
      <trkpt lat="46.76283" lon="5.64049">
        <ele>476</ele>
        <time>2012-05-24T13:42:25Z</time>
      </trkpt>
      <trkpt lat="46.76287" lon="5.64059">
        <ele>476</ele>
        <time>2012-05-24T13:42:46Z</time>
      </trkpt>
      <trkpt lat="46.76287" lon="5.64062">
        <ele>476</ele>
        <time>2012-05-24T13:43:34Z</time>
      </trkpt>
      <trkpt lat="46.76296" lon="5.64067">
        <ele>476</ele>
        <time>2012-05-24T13:46:32Z</time>
      </trkpt>
      <trkpt lat="46.76302" lon="5.64063">
        <ele>476</ele>
        <time>2012-05-24T13:46:38Z</time>
      </trkpt>
      <trkpt lat="46.76322" lon="5.6405">
        <ele>477</ele>
        <time>2012-05-24T13:46:59Z</time>
      </trkpt>
      <trkpt lat="46.76342" lon="5.64038">
        <ele>478</ele>
        <time>2012-05-24T13:47:19Z</time>
      </trkpt>
      <trkpt lat="46.76358" lon="5.64029">
        <ele>479</ele>
        <time>2012-05-24T13:47:37Z</time>
      </trkpt>
      <trkpt lat="46.76379" lon="5.64016">
        <ele>481</ele>
        <time>2012-05-24T13:47:57Z</time>
      </trkpt>
      <trkpt lat="46.76409" lon="5.64006">
        <ele>482</ele>
        <time>2012-05-24T13:48:22Z</time>
      </trkpt>
      <trkpt lat="46.76438" lon="5.63999">
        <ele>481</ele>
        <time>2012-05-24T13:48:45Z</time>
      </trkpt>
      <trkpt lat="46.76455" lon="5.63996">
        <ele>482</ele>
        <time>2012-05-24T13:48:59Z</time>
      </trkpt>
      <trkpt lat="46.76469" lon="5.63996">
        <ele>482</ele>
        <time>2012-05-24T13:49:12Z</time>
      </trkpt>
      <trkpt lat="46.76487" lon="5.63995">
        <ele>484</ele>
        <time>2012-05-24T13:49:30Z</time>
      </trkpt>
      <trkpt lat="46.76489" lon="5.63996">
        <ele>484</ele>
        <time>2012-05-24T13:49:32Z</time>
      </trkpt>
      <trkpt lat="46.76504" lon="5.64004">
        <ele>485</ele>
        <time>2012-05-24T13:49:46Z</time>
      </trkpt>
      <trkpt lat="46.76531" lon="5.64011">
        <ele>487</ele>
        <time>2012-05-24T13:50:08Z</time>
      </trkpt>
      <trkpt lat="46.76545" lon="5.64016">
        <ele>488</ele>
        <time>2012-05-24T13:50:21Z</time>
      </trkpt>
      <trkpt lat="46.76562" lon="5.64024">
        <ele>489</ele>
        <time>2012-05-24T13:50:37Z</time>
      </trkpt>
      <trkpt lat="46.76577" lon="5.64028">
        <ele>490</ele>
        <time>2012-05-24T13:50:51Z</time>
      </trkpt>
      <trkpt lat="46.76592" lon="5.64033">
        <ele>491</ele>
        <time>2012-05-24T13:51:06Z</time>
      </trkpt>
      <trkpt lat="46.76613" lon="5.64036">
        <ele>492</ele>
        <time>2012-05-24T13:51:22Z</time>
      </trkpt>
      <trkpt lat="46.76642" lon="5.64042">
        <ele>492</ele>
        <time>2012-05-24T13:51:46Z</time>
      </trkpt>
      <trkpt lat="46.76666" lon="5.64045">
        <ele>492</ele>
        <time>2012-05-24T13:52:06Z</time>
      </trkpt>
      <trkpt lat="46.76691" lon="5.64062">
        <ele>490</ele>
        <time>2012-05-24T13:52:30Z</time>
      </trkpt>
      <trkpt lat="46.76713" lon="5.64072">
        <ele>489</ele>
        <time>2012-05-24T13:52:48Z</time>
      </trkpt>
      <trkpt lat="46.76719" lon="5.64077">
        <ele>489</ele>
        <time>2012-05-24T13:52:55Z</time>
      </trkpt>
      <trkpt lat="46.76738" lon="5.64085">
        <ele>488</ele>
        <time>2012-05-24T13:53:12Z</time>
      </trkpt>
      <trkpt lat="46.76756" lon="5.64093">
        <ele>488</ele>
        <time>2012-05-24T13:53:28Z</time>
      </trkpt>
      <trkpt lat="46.7677" lon="5.64096">
        <ele>487</ele>
        <time>2012-05-24T13:53:40Z</time>
      </trkpt>
      <trkpt lat="46.76791" lon="5.641">
        <ele>486</ele>
        <time>2012-05-24T13:53:58Z</time>
      </trkpt>
      <trkpt lat="46.76809" lon="5.64101">
        <ele>486</ele>
        <time>2012-05-24T13:54:12Z</time>
      </trkpt>
      <trkpt lat="46.76819" lon="5.64101">
        <ele>486</ele>
        <time>2012-05-24T13:54:26Z</time>
      </trkpt>
      <trkpt lat="46.76841" lon="5.64092">
        <ele>486</ele>
        <time>2012-05-24T13:54:47Z</time>
      </trkpt>
      <trkpt lat="46.76862" lon="5.64089">
        <ele>487</ele>
        <time>2012-05-24T13:55:03Z</time>
      </trkpt>
      <trkpt lat="46.76879" lon="5.64093">
        <ele>487</ele>
        <time>2012-05-24T13:55:20Z</time>
      </trkpt>
      <trkpt lat="46.76902" lon="5.64083">
        <ele>488</ele>
        <time>2012-05-24T13:55:37Z</time>
      </trkpt>
      <trkpt lat="46.76904" lon="5.64078">
        <ele>488</ele>
        <time>2012-05-24T13:55:41Z</time>
      </trkpt>
      <trkpt lat="46.76907" lon="5.64058">
        <ele>488</ele>
        <time>2012-05-24T13:55:53Z</time>
      </trkpt>
      <trkpt lat="46.76917" lon="5.64032">
        <ele>489</ele>
        <time>2012-05-24T13:56:07Z</time>
      </trkpt>
      <trkpt lat="46.76918" lon="5.64024">
        <ele>489</ele>
        <time>2012-05-24T13:56:13Z</time>
      </trkpt>
      <trkpt lat="46.7692" lon="5.64017">
        <ele>489</ele>
        <time>2012-05-24T13:56:18Z</time>
      </trkpt>
      <trkpt lat="46.76923" lon="5.64004">
        <ele>490</ele>
        <time>2012-05-24T13:56:27Z</time>
      </trkpt>
      <trkpt lat="46.76926" lon="5.64003">
        <ele>490</ele>
        <time>2012-05-24T13:56:29Z</time>
      </trkpt>
      <trkpt lat="46.76939" lon="5.63977">
        <ele>489</ele>
        <time>2012-05-24T13:56:51Z</time>
      </trkpt>
      <trkpt lat="46.76942" lon="5.63976">
        <ele>489</ele>
        <time>2012-05-24T13:56:54Z</time>
      </trkpt>
      <trkpt lat="46.76949" lon="5.63935">
        <ele>486</ele>
        <time>2012-05-24T13:57:18Z</time>
      </trkpt>
      <trkpt lat="46.7696" lon="5.63907">
        <ele>484</ele>
        <time>2012-05-24T13:57:36Z</time>
      </trkpt>
      <trkpt lat="46.76976" lon="5.63876">
        <ele>481</ele>
        <time>2012-05-24T13:57:57Z</time>
      </trkpt>
      <trkpt lat="46.7698" lon="5.63857">
        <ele>480</ele>
        <time>2012-05-24T13:58:11Z</time>
      </trkpt>
      <trkpt lat="46.76996" lon="5.63845">
        <ele>480</ele>
        <time>2012-05-24T13:58:24Z</time>
      </trkpt>
      <trkpt lat="46.76994" lon="5.6382">
        <ele>479</ele>
        <time>2012-05-24T13:58:43Z</time>
      </trkpt>
      <trkpt lat="46.76986" lon="5.63822">
        <ele>478</ele>
        <time>2012-05-24T13:58:51Z</time>
      </trkpt>
      <trkpt lat="46.76983" lon="5.63809">
        <ele>478</ele>
        <time>2012-05-24T13:59:08Z</time>
      </trkpt>
      <trkpt lat="46.76981" lon="5.63782">
        <ele>477</ele>
        <time>2012-05-24T13:59:31Z</time>
      </trkpt>
      <trkpt lat="46.76969" lon="5.63774">
        <ele>476</ele>
        <time>2012-05-24T13:59:51Z</time>
      </trkpt>
      <trkpt lat="46.76957" lon="5.63763">
        <ele>476</ele>
        <time>2012-05-24T14:00:06Z</time>
      </trkpt>
      <trkpt lat="46.76953" lon="5.63759">
        <ele>476</ele>
        <time>2012-05-24T14:00:12Z</time>
      </trkpt>
      <trkpt lat="46.76945" lon="5.63746">
        <ele>476</ele>
        <time>2012-05-24T14:00:30Z</time>
      </trkpt>
      <trkpt lat="46.76926" lon="5.63723">
        <ele>476</ele>
        <time>2012-05-24T14:00:52Z</time>
      </trkpt>
      <trkpt lat="46.76923" lon="5.63715">
        <ele>476</ele>
        <time>2012-05-24T14:01:00Z</time>
      </trkpt>
      <trkpt lat="46.76917" lon="5.63709">
        <ele>476</ele>
        <time>2012-05-24T14:01:14Z</time>
      </trkpt>
      <trkpt lat="46.76912" lon="5.63698">
        <ele>476</ele>
        <time>2012-05-24T14:01:36Z</time>
      </trkpt>
      <trkpt lat="46.76912" lon="5.63693">
        <ele>476</ele>
        <time>2012-05-24T14:02:02Z</time>
      </trkpt>
      <trkpt lat="46.76908" lon="5.63688">
        <ele>476</ele>
        <time>2012-05-24T14:02:53Z</time>
      </trkpt>
      <trkpt lat="46.76899" lon="5.63669">
        <ele>476</ele>
        <time>2012-05-24T14:03:15Z</time>
      </trkpt>
      <trkpt lat="46.76886" lon="5.63655">
        <ele>477</ele>
        <time>2012-05-24T14:03:36Z</time>
      </trkpt>
      <trkpt lat="46.76878" lon="5.63645">
        <ele>477</ele>
        <time>2012-05-24T14:03:52Z</time>
      </trkpt>
      <trkpt lat="46.76867" lon="5.6363">
        <ele>477</ele>
        <time>2012-05-24T14:04:09Z</time>
      </trkpt>
      <trkpt lat="46.76863" lon="5.63618">
        <ele>477</ele>
        <time>2012-05-24T14:04:35Z</time>
      </trkpt>
      <trkpt lat="46.76857" lon="5.63617">
        <ele>478</ele>
        <time>2012-05-24T14:04:55Z</time>
      </trkpt>
      <trkpt lat="46.76855" lon="5.63617">
        <ele>477</ele>
        <time>2012-05-24T14:05:34Z</time>
      </trkpt>
      <trkpt lat="46.7686" lon="5.63607">
        <ele>477</ele>
        <time>2012-05-24T14:06:18Z</time>
      </trkpt>
      <trkpt lat="46.76866" lon="5.63603">
        <ele>476</ele>
        <time>2012-05-24T14:06:37Z</time>
      </trkpt>
      <trkpt lat="46.76868" lon="5.63602">
        <ele>476</ele>
        <time>2012-05-24T14:06:38Z</time>
      </trkpt>
      <trkpt lat="46.76876" lon="5.63583">
        <ele>476</ele>
        <time>2012-05-24T14:06:51Z</time>
      </trkpt>
      <trkpt lat="46.76883" lon="5.63561">
        <ele>476</ele>
        <time>2012-05-24T14:07:09Z</time>
      </trkpt>
      <trkpt lat="46.76897" lon="5.63547">
        <ele>478</ele>
        <time>2012-05-24T14:07:43Z</time>
      </trkpt>
      <trkpt lat="46.76905" lon="5.63531">
        <ele>479</ele>
        <time>2012-05-24T14:08:01Z</time>
      </trkpt>
      <trkpt lat="46.76912" lon="5.63505">
        <ele>477</ele>
        <time>2012-05-24T14:08:30Z</time>
      </trkpt>
      <trkpt lat="46.76914" lon="5.63495">
        <ele>477</ele>
        <time>2012-05-24T14:08:45Z</time>
      </trkpt>
      <trkpt lat="46.76909" lon="5.63481">
        <ele>475</ele>
        <time>2012-05-24T14:09:02Z</time>
      </trkpt>
      <trkpt lat="46.76912" lon="5.6346">
        <ele>476</ele>
        <time>2012-05-24T14:09:21Z</time>
      </trkpt>
      <trkpt lat="46.76903" lon="5.63435">
        <ele>475</ele>
        <time>2012-05-24T14:09:47Z</time>
      </trkpt>
      <trkpt lat="46.76893" lon="5.63421">
        <ele>473</ele>
        <time>2012-05-24T14:10:09Z</time>
      </trkpt>
      <trkpt lat="46.76893" lon="5.63391">
        <ele>473</ele>
        <time>2012-05-24T14:10:29Z</time>
      </trkpt>
      <trkpt lat="46.76893" lon="5.63355">
        <ele>474</ele>
        <time>2012-05-24T14:10:55Z</time>
      </trkpt>
      <trkpt lat="46.76877" lon="5.6332">
        <ele>474</ele>
        <time>2012-05-24T14:11:26Z</time>
      </trkpt>
      <trkpt lat="46.76877" lon="5.63296">
        <ele>475</ele>
        <time>2012-05-24T14:11:44Z</time>
      </trkpt>
      <trkpt lat="46.76873" lon="5.6328">
        <ele>476</ele>
        <time>2012-05-24T14:11:54Z</time>
      </trkpt>
      <trkpt lat="46.76866" lon="5.63257">
        <ele>476</ele>
        <time>2012-05-24T14:12:08Z</time>
      </trkpt>
      <trkpt lat="46.76863" lon="5.6324">
        <ele>477</ele>
        <time>2012-05-24T14:12:30Z</time>
      </trkpt>
      <trkpt lat="46.76843" lon="5.63216">
        <ele>478</ele>
        <time>2012-05-24T14:12:52Z</time>
      </trkpt>
      <trkpt lat="46.76834" lon="5.63195">
        <ele>480</ele>
        <time>2012-05-24T14:13:11Z</time>
      </trkpt>
      <trkpt lat="46.76819" lon="5.63173">
        <ele>481</ele>
        <time>2012-05-24T14:13:30Z</time>
      </trkpt>
      <trkpt lat="46.76808" lon="5.63154">
        <ele>481</ele>
        <time>2012-05-24T14:13:50Z</time>
      </trkpt>
      <trkpt lat="46.76796" lon="5.63128">
        <ele>481</ele>
        <time>2012-05-24T14:14:09Z</time>
      </trkpt>
      <trkpt lat="46.76783" lon="5.63105">
        <ele>480</ele>
        <time>2012-05-24T14:14:28Z</time>
      </trkpt>
      <trkpt lat="46.76773" lon="5.63098">
        <ele>479</ele>
        <time>2012-05-24T14:14:42Z</time>
      </trkpt>
      <trkpt lat="46.76752" lon="5.63091">
        <ele>477</ele>
        <time>2012-05-24T14:14:58Z</time>
      </trkpt>
      <trkpt lat="46.76745" lon="5.63075">
        <ele>476</ele>
        <time>2012-05-24T14:15:15Z</time>
      </trkpt>
      <trkpt lat="46.76725" lon="5.63065">
        <ele>475</ele>
        <time>2012-05-24T14:15:36Z</time>
      </trkpt>
      <trkpt lat="46.76716" lon="5.63053">
        <ele>473</ele>
        <time>2012-05-24T14:15:51Z</time>
      </trkpt>
      <trkpt lat="46.76711" lon="5.63037">
        <ele>474</ele>
        <time>2012-05-24T14:16:09Z</time>
      </trkpt>
      <trkpt lat="46.76705" lon="5.6301">
        <ele>476</ele>
        <time>2012-05-24T14:16:29Z</time>
      </trkpt>
      <trkpt lat="46.76702" lon="5.62986">
        <ele>476</ele>
        <time>2012-05-24T14:16:45Z</time>
      </trkpt>
      <trkpt lat="46.76702" lon="5.62961">
        <ele>476</ele>
        <time>2012-05-24T14:17:04Z</time>
      </trkpt>
      <trkpt lat="46.76711" lon="5.62934">
        <ele>478</ele>
        <time>2012-05-24T14:17:25Z</time>
      </trkpt>
      <trkpt lat="46.76721" lon="5.629">
        <ele>481</ele>
        <time>2012-05-24T14:17:49Z</time>
      </trkpt>
      <trkpt lat="46.76714" lon="5.62886">
        <ele>482</ele>
        <time>2012-05-24T14:18:09Z</time>
      </trkpt>
      <trkpt lat="46.76704" lon="5.62867">
        <ele>483</ele>
        <time>2012-05-24T14:18:31Z</time>
      </trkpt>
      <trkpt lat="46.76702" lon="5.62833">
        <ele>483</ele>
        <time>2012-05-24T14:18:55Z</time>
      </trkpt>
      <trkpt lat="46.76695" lon="5.62799">
        <ele>481</ele>
        <time>2012-05-24T14:19:15Z</time>
      </trkpt>
      <trkpt lat="46.76702" lon="5.62782">
        <ele>482</ele>
        <time>2012-05-24T14:19:32Z</time>
      </trkpt>
      <trkpt lat="46.76707" lon="5.6276">
        <ele>483</ele>
        <time>2012-05-24T14:19:48Z</time>
      </trkpt>
      <trkpt lat="46.7672" lon="5.62736">
        <ele>485</ele>
        <time>2012-05-24T14:20:08Z</time>
      </trkpt>
      <trkpt lat="46.76731" lon="5.62719">
        <ele>487</ele>
        <time>2012-05-24T14:20:27Z</time>
      </trkpt>
      <trkpt lat="46.76746" lon="5.62699">
        <ele>488</ele>
        <time>2012-05-24T14:20:47Z</time>
      </trkpt>
      <trkpt lat="46.76759" lon="5.62672">
        <ele>489</ele>
        <time>2012-05-24T14:21:08Z</time>
      </trkpt>
      <trkpt lat="46.76763" lon="5.62646">
        <ele>489</ele>
        <time>2012-05-24T14:21:24Z</time>
      </trkpt>
      <trkpt lat="46.7677" lon="5.62619">
        <ele>489</ele>
        <time>2012-05-24T14:21:41Z</time>
      </trkpt>
      <trkpt lat="46.76777" lon="5.62598">
        <ele>489</ele>
        <time>2012-05-24T14:22:01Z</time>
      </trkpt>
      <trkpt lat="46.76792" lon="5.62601">
        <ele>490</ele>
        <time>2012-05-24T14:22:16Z</time>
      </trkpt>
      <trkpt lat="46.76799" lon="5.62597">
        <ele>490</ele>
        <time>2012-05-24T14:22:35Z</time>
      </trkpt>
      <trkpt lat="46.768" lon="5.62597">
        <ele>490</ele>
        <time>2012-05-24T14:23:08Z</time>
      </trkpt>
      <trkpt lat="46.76798" lon="5.62598">
        <ele>490</ele>
        <time>2012-05-24T14:24:09Z</time>
      </trkpt>
      <trkpt lat="46.76796" lon="5.62601">
        <ele>490</ele>
        <time>2012-05-24T14:24:12Z</time>
      </trkpt>
      <trkpt lat="46.76791" lon="5.62601">
        <ele>490</ele>
        <time>2012-05-24T14:24:16Z</time>
      </trkpt>
      <trkpt lat="46.76779" lon="5.626">
        <ele>489</ele>
        <time>2012-05-24T14:24:34Z</time>
      </trkpt>
      <trkpt lat="46.76788" lon="5.62599">
        <ele>490</ele>
        <time>2012-05-24T14:25:39Z</time>
      </trkpt>
      <trkpt lat="46.76787" lon="5.626">
        <ele>489</ele>
        <time>2012-05-24T14:25:55Z</time>
      </trkpt>
      <trkpt lat="46.76788" lon="5.62599">
        <ele>490</ele>
        <time>2012-05-24T14:26:55Z</time>
      </trkpt>
      <trkpt lat="46.76792" lon="5.62598">
        <ele>490</ele>
        <time>2012-05-24T14:27:37Z</time>
      </trkpt>
      <trkpt lat="46.76803" lon="5.62603">
        <ele>490</ele>
        <time>2012-05-24T14:28:56Z</time>
      </trkpt>
      <trkpt lat="46.76804" lon="5.62603">
        <ele>490</ele>
        <time>2012-05-24T14:28:57Z</time>
      </trkpt>
      <trkpt lat="46.76805" lon="5.62603">
        <ele>490</ele>
        <time>2012-05-24T14:28:58Z</time>
      </trkpt>
      <trkpt lat="46.76822" lon="5.62613">
        <ele>489</ele>
        <time>2012-05-24T14:29:17Z</time>
      </trkpt>
      <trkpt lat="46.76839" lon="5.62622">
        <ele>488</ele>
        <time>2012-05-24T14:29:35Z</time>
      </trkpt>
      <trkpt lat="46.7686" lon="5.62628">
        <ele>487</ele>
        <time>2012-05-24T14:29:56Z</time>
      </trkpt>
      <trkpt lat="46.76884" lon="5.62636">
        <ele>485</ele>
        <time>2012-05-24T14:30:19Z</time>
      </trkpt>
      <trkpt lat="46.76898" lon="5.6264">
        <ele>485</ele>
        <time>2012-05-24T14:30:32Z</time>
      </trkpt>
      <trkpt lat="46.76911" lon="5.62645">
        <ele>485</ele>
        <time>2012-05-24T14:30:46Z</time>
      </trkpt>
      <trkpt lat="46.76932" lon="5.62653">
        <ele>483</ele>
        <time>2012-05-24T14:31:03Z</time>
      </trkpt>
      <trkpt lat="46.7695" lon="5.62662">
        <ele>482</ele>
        <time>2012-05-24T14:31:19Z</time>
      </trkpt>
      <trkpt lat="46.76965" lon="5.62678">
        <ele>482</ele>
        <time>2012-05-24T14:31:34Z</time>
      </trkpt>
      <trkpt lat="46.76972" lon="5.62691">
        <ele>482</ele>
        <time>2012-05-24T14:31:53Z</time>
      </trkpt>
      <trkpt lat="46.76977" lon="5.62696">
        <ele>481</ele>
        <time>2012-05-24T14:32:11Z</time>
      </trkpt>
      <trkpt lat="46.7698" lon="5.62689">
        <ele>480</ele>
        <time>2012-05-24T14:32:29Z</time>
      </trkpt>
      <trkpt lat="46.76983" lon="5.62684">
        <ele>478</ele>
        <time>2012-05-24T14:32:51Z</time>
      </trkpt>
      <trkpt lat="46.76989" lon="5.62674">
        <ele>476</ele>
        <time>2012-05-24T14:33:25Z</time>
      </trkpt>
      <trkpt lat="46.76995" lon="5.62669">
        <ele>474</ele>
        <time>2012-05-24T14:33:54Z</time>
      </trkpt>
      <trkpt lat="46.77005" lon="5.62663">
        <ele>471</ele>
        <time>2012-05-24T14:34:18Z</time>
      </trkpt>
      <trkpt lat="46.77009" lon="5.62667">
        <ele>468</ele>
        <time>2012-05-24T14:34:50Z</time>
      </trkpt>
      <trkpt lat="46.77026" lon="5.62659">
        <ele>465</ele>
        <time>2012-05-24T14:35:20Z</time>
      </trkpt>
      <trkpt lat="46.77028" lon="5.62658">
        <ele>462</ele>
        <time>2012-05-24T14:35:44Z</time>
      </trkpt>
      <trkpt lat="46.7701" lon="5.62646">
        <ele>459</ele>
        <time>2012-05-24T14:36:15Z</time>
      </trkpt>
      <trkpt lat="46.77012" lon="5.62634">
        <ele>456</ele>
        <time>2012-05-24T14:36:46Z</time>
      </trkpt>
      <trkpt lat="46.7701" lon="5.62621">
        <ele>452</ele>
        <time>2012-05-24T14:37:10Z</time>
      </trkpt>
      <trkpt lat="46.7701" lon="5.62605">
        <ele>450</ele>
        <time>2012-05-24T14:37:32Z</time>
      </trkpt>
      <trkpt lat="46.77006" lon="5.62593">
        <ele>447</ele>
        <time>2012-05-24T14:37:55Z</time>
      </trkpt>
      <trkpt lat="46.76985" lon="5.62574">
        <ele>444</ele>
        <time>2012-05-24T14:38:14Z</time>
      </trkpt>
      <trkpt lat="46.76967" lon="5.62556">
        <ele>442</ele>
        <time>2012-05-24T14:38:32Z</time>
      </trkpt>
      <trkpt lat="46.76958" lon="5.62531">
        <ele>439</ele>
        <time>2012-05-24T14:38:57Z</time>
      </trkpt>
      <trkpt lat="46.7696" lon="5.62505">
        <ele>436</ele>
        <time>2012-05-24T14:39:21Z</time>
      </trkpt>
      <trkpt lat="46.76952" lon="5.62476">
        <ele>434</ele>
        <time>2012-05-24T14:39:47Z</time>
      </trkpt>
      <trkpt lat="46.76941" lon="5.62472">
        <ele>433</ele>
        <time>2012-05-24T14:40:04Z</time>
      </trkpt>
      <trkpt lat="46.76928" lon="5.62465">
        <ele>433</ele>
        <time>2012-05-24T14:40:22Z</time>
      </trkpt>
      <trkpt lat="46.76914" lon="5.62461">
        <ele>432</ele>
        <time>2012-05-24T14:40:39Z</time>
      </trkpt>
      <trkpt lat="46.76901" lon="5.62446">
        <ele>429</ele>
        <time>2012-05-24T14:41:00Z</time>
      </trkpt>
      <trkpt lat="46.76893" lon="5.62422">
        <ele>426</ele>
        <time>2012-05-24T14:41:19Z</time>
      </trkpt>
      <trkpt lat="46.76887" lon="5.6241">
        <ele>423</ele>
        <time>2012-05-24T14:41:37Z</time>
      </trkpt>
      <trkpt lat="46.76887" lon="5.62398">
        <ele>420</ele>
        <time>2012-05-24T14:41:59Z</time>
      </trkpt>
      <trkpt lat="46.76888" lon="5.62399">
        <ele>419</ele>
        <time>2012-05-24T14:42:00Z</time>
      </trkpt>
      <trkpt lat="46.76893" lon="5.62378">
        <ele>418</ele>
        <time>2012-05-24T14:42:12Z</time>
      </trkpt>
      <trkpt lat="46.76896" lon="5.62369">
        <ele>417</ele>
        <time>2012-05-24T14:42:19Z</time>
      </trkpt>
      <trkpt lat="46.76897" lon="5.62359">
        <ele>416</ele>
        <time>2012-05-24T14:42:25Z</time>
      </trkpt>
      <trkpt lat="46.76898" lon="5.62354">
        <ele>416</ele>
        <time>2012-05-24T14:42:28Z</time>
      </trkpt>
      <trkpt lat="46.76902" lon="5.62345">
        <ele>415</ele>
        <time>2012-05-24T14:42:34Z</time>
      </trkpt>
      <trkpt lat="46.76907" lon="5.62329">
        <ele>414</ele>
        <time>2012-05-24T14:42:46Z</time>
      </trkpt>
      <trkpt lat="46.76908" lon="5.62315">
        <ele>414</ele>
        <time>2012-05-24T14:43:06Z</time>
      </trkpt>
      <trkpt lat="46.76908" lon="5.62312">
        <ele>414</ele>
        <time>2012-05-24T14:43:14Z</time>
      </trkpt>
      <trkpt lat="46.76917" lon="5.62316">
        <ele>414</ele>
        <time>2012-05-24T14:43:21Z</time>
      </trkpt>
      <trkpt lat="46.76924" lon="5.62319">
        <ele>414</ele>
        <time>2012-05-24T14:43:29Z</time>
      </trkpt>
      <trkpt lat="46.7694" lon="5.62332">
        <ele>415</ele>
        <time>2012-05-24T14:43:45Z</time>
      </trkpt>
      <trkpt lat="46.76954" lon="5.62334">
        <ele>414</ele>
        <time>2012-05-24T14:43:51Z</time>
      </trkpt>
      <trkpt lat="46.76959" lon="5.62334">
        <ele>415</ele>
        <time>2012-05-24T14:44:02Z</time>
      </trkpt>
      <trkpt lat="46.76977" lon="5.62335">
        <ele>416</ele>
        <time>2012-05-24T14:44:15Z</time>
      </trkpt>
      <trkpt lat="46.76997" lon="5.62333">
        <ele>416</ele>
        <time>2012-05-24T14:44:30Z</time>
      </trkpt>
      <trkpt lat="46.77017" lon="5.62341">
        <ele>416</ele>
        <time>2012-05-24T14:44:41Z</time>
      </trkpt>
      <trkpt lat="46.77019" lon="5.62342">
        <ele>416</ele>
        <time>2012-05-24T14:44:43Z</time>
      </trkpt>
      <trkpt lat="46.77033" lon="5.6235">
        <ele>417</ele>
        <time>2012-05-24T14:44:56Z</time>
      </trkpt>
      <trkpt lat="46.77053" lon="5.62364">
        <ele>417</ele>
        <time>2012-05-24T14:45:12Z</time>
      </trkpt>
      <trkpt lat="46.77069" lon="5.62378">
        <ele>418</ele>
        <time>2012-05-24T14:45:28Z</time>
      </trkpt>
      <trkpt lat="46.77081" lon="5.6239">
        <ele>418</ele>
        <time>2012-05-24T14:45:40Z</time>
      </trkpt>
      <trkpt lat="46.77099" lon="5.62403">
        <ele>419</ele>
        <time>2012-05-24T14:45:57Z</time>
      </trkpt>
      <trkpt lat="46.77113" lon="5.62413">
        <ele>420</ele>
        <time>2012-05-24T14:46:10Z</time>
      </trkpt>
      <trkpt lat="46.77129" lon="5.62426">
        <ele>421</ele>
        <time>2012-05-24T14:46:25Z</time>
      </trkpt>
      <trkpt lat="46.77139" lon="5.62436">
        <ele>422</ele>
        <time>2012-05-24T14:46:35Z</time>
      </trkpt>
      <trkpt lat="46.77149" lon="5.62444">
        <ele>422</ele>
        <time>2012-05-24T14:46:44Z</time>
      </trkpt>
      <trkpt lat="46.77157" lon="5.62453">
        <ele>422</ele>
        <time>2012-05-24T14:46:54Z</time>
      </trkpt>
      <trkpt lat="46.77159" lon="5.62456">
        <ele>423</ele>
        <time>2012-05-24T14:46:56Z</time>
      </trkpt>
      <trkpt lat="46.77165" lon="5.62463">
        <ele>423</ele>
        <time>2012-05-24T14:47:01Z</time>
      </trkpt>
      <trkpt lat="46.77172" lon="5.6247">
        <ele>424</ele>
        <time>2012-05-24T14:47:08Z</time>
      </trkpt>
      <trkpt lat="46.77186" lon="5.62482">
        <ele>425</ele>
        <time>2012-05-24T14:47:24Z</time>
      </trkpt>
      <trkpt lat="46.77209" lon="5.62505">
        <ele>427</ele>
        <time>2012-05-24T14:47:49Z</time>
      </trkpt>
      <trkpt lat="46.77215" lon="5.62514">
        <ele>428</ele>
        <time>2012-05-24T14:47:57Z</time>
      </trkpt>
      <trkpt lat="46.77221" lon="5.62528">
        <ele>429</ele>
        <time>2012-05-24T14:48:11Z</time>
      </trkpt>
      <trkpt lat="46.7723" lon="5.6254">
        <ele>431</ele>
        <time>2012-05-24T14:48:22Z</time>
      </trkpt>
      <trkpt lat="46.77244" lon="5.62556">
        <ele>432</ele>
        <time>2012-05-24T14:48:39Z</time>
      </trkpt>
      <trkpt lat="46.77254" lon="5.62564">
        <ele>433</ele>
        <time>2012-05-24T14:48:49Z</time>
      </trkpt>
      <trkpt lat="46.77261" lon="5.62573">
        <ele>434</ele>
        <time>2012-05-24T14:48:58Z</time>
      </trkpt>
      <trkpt lat="46.77269" lon="5.62584">
        <ele>435</ele>
        <time>2012-05-24T14:49:16Z</time>
      </trkpt>
      <trkpt lat="46.77271" lon="5.62588">
        <ele>435</ele>
        <time>2012-05-24T14:49:40Z</time>
      </trkpt>
      <trkpt lat="46.77271" lon="5.6259">
        <ele>435</ele>
        <time>2012-05-24T14:50:08Z</time>
      </trkpt>
      <trkpt lat="46.77279" lon="5.62602">
        <ele>437</ele>
        <time>2012-05-24T14:50:36Z</time>
      </trkpt>
      <trkpt lat="46.77286" lon="5.62623">
        <ele>438</ele>
        <time>2012-05-24T14:50:55Z</time>
      </trkpt>
      <trkpt lat="46.77301" lon="5.62643">
        <ele>440</ele>
        <time>2012-05-24T14:51:18Z</time>
      </trkpt>
      <trkpt lat="46.77311" lon="5.62649">
        <ele>441</ele>
        <time>2012-05-24T14:51:36Z</time>
      </trkpt>
      <trkpt lat="46.77322" lon="5.62669">
        <ele>443</ele>
        <time>2012-05-24T14:51:58Z</time>
      </trkpt>
      <trkpt lat="46.77333" lon="5.62686">
        <ele>445</ele>
        <time>2012-05-24T14:52:18Z</time>
      </trkpt>
      <trkpt lat="46.7734" lon="5.62692">
        <ele>446</ele>
        <time>2012-05-24T14:52:31Z</time>
      </trkpt>
      <trkpt lat="46.77348" lon="5.62693">
        <ele>447</ele>
        <time>2012-05-24T14:52:43Z</time>
      </trkpt>
      <trkpt lat="46.77365" lon="5.62695">
        <ele>449</ele>
        <time>2012-05-24T14:52:58Z</time>
      </trkpt>
      <trkpt lat="46.77379" lon="5.62701">
        <ele>451</ele>
        <time>2012-05-24T14:53:18Z</time>
      </trkpt>
      <trkpt lat="46.77396" lon="5.62706">
        <ele>452</ele>
        <time>2012-05-24T14:53:30Z</time>
      </trkpt>
      <trkpt lat="46.77404" lon="5.62722">
        <ele>454</ele>
        <time>2012-05-24T14:53:45Z</time>
      </trkpt>
      <trkpt lat="46.77423" lon="5.62746">
        <ele>457</ele>
        <time>2012-05-24T14:54:07Z</time>
      </trkpt>
      <trkpt lat="46.77436" lon="5.6276">
        <ele>459</ele>
        <time>2012-05-24T14:54:24Z</time>
      </trkpt>
      <trkpt lat="46.77445" lon="5.62772">
        <ele>460</ele>
        <time>2012-05-24T14:54:36Z</time>
      </trkpt>
      <trkpt lat="46.77448" lon="5.62773">
        <ele>460</ele>
        <time>2012-05-24T14:54:38Z</time>
      </trkpt>
      <trkpt lat="46.77449" lon="5.62774">
        <ele>460</ele>
        <time>2012-05-24T14:54:40Z</time>
      </trkpt>
      <trkpt lat="46.77465" lon="5.62793">
        <ele>462</ele>
        <time>2012-05-24T14:54:54Z</time>
      </trkpt>
      <trkpt lat="46.77478" lon="5.62814">
        <ele>463</ele>
        <time>2012-05-24T14:55:10Z</time>
      </trkpt>
      <trkpt lat="46.77494" lon="5.62829">
        <ele>464</ele>
        <time>2012-05-24T14:55:24Z</time>
      </trkpt>
      <trkpt lat="46.77504" lon="5.62835">
        <ele>465</ele>
        <time>2012-05-24T14:55:36Z</time>
      </trkpt>
      <trkpt lat="46.7751" lon="5.62836">
        <ele>465</ele>
        <time>2012-05-24T14:55:48Z</time>
      </trkpt>
      <trkpt lat="46.77526" lon="5.62841">
        <ele>466</ele>
        <time>2012-05-24T14:56:02Z</time>
      </trkpt>
      <trkpt lat="46.77539" lon="5.62843">
        <ele>467</ele>
        <time>2012-05-24T14:56:15Z</time>
      </trkpt>
      <trkpt lat="46.77547" lon="5.62845">
        <ele>467</ele>
        <time>2012-05-24T14:56:20Z</time>
      </trkpt>
      <trkpt lat="46.77567" lon="5.6285">
        <ele>469</ele>
        <time>2012-05-24T14:56:37Z</time>
      </trkpt>
      <trkpt lat="46.77582" lon="5.62853">
        <ele>470</ele>
        <time>2012-05-24T14:56:53Z</time>
      </trkpt>
      <trkpt lat="46.77598" lon="5.62856">
        <ele>470</ele>
        <time>2012-05-24T14:57:05Z</time>
      </trkpt>
      <trkpt lat="46.77617" lon="5.62863">
        <ele>470</ele>
        <time>2012-05-24T14:57:21Z</time>
      </trkpt>
      <trkpt lat="46.77632" lon="5.62855">
        <ele>470</ele>
        <time>2012-05-24T14:57:36Z</time>
      </trkpt>
      <trkpt lat="46.77645" lon="5.6283">
        <ele>469</ele>
        <time>2012-05-24T14:57:54Z</time>
      </trkpt>
      <trkpt lat="46.77654" lon="5.62816">
        <ele>469</ele>
        <time>2012-05-24T14:58:05Z</time>
      </trkpt>
      <trkpt lat="46.77667" lon="5.6279">
        <ele>468</ele>
        <time>2012-05-24T14:58:23Z</time>
      </trkpt>
      <trkpt lat="46.77681" lon="5.62756">
        <ele>465</ele>
        <time>2012-05-24T14:58:44Z</time>
      </trkpt>
      <trkpt lat="46.77691" lon="5.62735">
        <ele>464</ele>
        <time>2012-05-24T14:58:58Z</time>
      </trkpt>
      <trkpt lat="46.77706" lon="5.62701">
        <ele>463</ele>
        <time>2012-05-24T14:59:20Z</time>
      </trkpt>
      <trkpt lat="46.7772" lon="5.62676">
        <ele>463</ele>
        <time>2012-05-24T14:59:36Z</time>
      </trkpt>
      <trkpt lat="46.77731" lon="5.62654">
        <ele>463</ele>
        <time>2012-05-24T14:59:51Z</time>
      </trkpt>
      <trkpt lat="46.77754" lon="5.6262">
        <ele>463</ele>
        <time>2012-05-24T15:00:15Z</time>
      </trkpt>
      <trkpt lat="46.77777" lon="5.62595">
        <ele>463</ele>
        <time>2012-05-24T15:00:36Z</time>
      </trkpt>
      <trkpt lat="46.77801" lon="5.62579">
        <ele>463</ele>
        <time>2012-05-24T15:00:57Z</time>
      </trkpt>
      <trkpt lat="46.77803" lon="5.62579">
        <ele>463</ele>
        <time>2012-05-24T15:00:59Z</time>
      </trkpt>
      <trkpt lat="46.7782" lon="5.62582">
        <ele>463</ele>
        <time>2012-05-24T15:01:12Z</time>
      </trkpt>
      <trkpt lat="46.77831" lon="5.62583">
        <ele>462</ele>
        <time>2012-05-24T15:01:19Z</time>
      </trkpt>
      <trkpt lat="46.77846" lon="5.62582">
        <ele>462</ele>
        <time>2012-05-24T15:01:31Z</time>
      </trkpt>
      <trkpt lat="46.77859" lon="5.62577">
        <ele>463</ele>
        <time>2012-05-24T15:01:44Z</time>
      </trkpt>
      <trkpt lat="46.77875" lon="5.62578">
        <ele>463</ele>
        <time>2012-05-24T15:01:56Z</time>
      </trkpt>
      <trkpt lat="46.77895" lon="5.62588">
        <ele>464</ele>
        <time>2012-05-24T15:02:13Z</time>
      </trkpt>
      <trkpt lat="46.77918" lon="5.62592">
        <ele>463</ele>
        <time>2012-05-24T15:02:31Z</time>
      </trkpt>
      <trkpt lat="46.77942" lon="5.62571">
        <ele>461</ele>
        <time>2012-05-24T15:02:53Z</time>
      </trkpt>
      <trkpt lat="46.77945" lon="5.62567">
        <ele>461</ele>
        <time>2012-05-24T15:02:56Z</time>
      </trkpt>
      <trkpt lat="46.77949" lon="5.62564">
        <ele>461</ele>
        <time>2012-05-24T15:02:59Z</time>
      </trkpt>
      <trkpt lat="46.77973" lon="5.62551">
        <ele>459</ele>
        <time>2012-05-24T15:03:18Z</time>
      </trkpt>
      <trkpt lat="46.77993" lon="5.62549">
        <ele>459</ele>
        <time>2012-05-24T15:03:34Z</time>
      </trkpt>
      <trkpt lat="46.78014" lon="5.62553">
        <ele>459</ele>
        <time>2012-05-24T15:03:48Z</time>
      </trkpt>
      <trkpt lat="46.78029" lon="5.62554">
        <ele>460</ele>
        <time>2012-05-24T15:04:00Z</time>
      </trkpt>
      <trkpt lat="46.78051" lon="5.62551">
        <ele>459</ele>
        <time>2012-05-24T15:04:17Z</time>
      </trkpt>
      <trkpt lat="46.78071" lon="5.62551">
        <ele>458</ele>
        <time>2012-05-24T15:04:31Z</time>
      </trkpt>
      <trkpt lat="46.78093" lon="5.62549">
        <ele>458</ele>
        <time>2012-05-24T15:04:47Z</time>
      </trkpt>
      <trkpt lat="46.78111" lon="5.62543">
        <ele>457</ele>
        <time>2012-05-24T15:05:02Z</time>
      </trkpt>
      <trkpt lat="46.78116" lon="5.6254">
        <ele>456</ele>
        <time>2012-05-24T15:05:06Z</time>
      </trkpt>
      <trkpt lat="46.78132" lon="5.6253">
        <ele>454</ele>
        <time>2012-05-24T15:05:21Z</time>
      </trkpt>
      <trkpt lat="46.78135" lon="5.62526">
        <ele>454</ele>
        <time>2012-05-24T15:05:24Z</time>
      </trkpt>
      <trkpt lat="46.78141" lon="5.62519">
        <ele>454</ele>
        <time>2012-05-24T15:05:29Z</time>
      </trkpt>
      <trkpt lat="46.78144" lon="5.62515">
        <ele>454</ele>
        <time>2012-05-24T15:05:32Z</time>
      </trkpt>
      <trkpt lat="46.78148" lon="5.62511">
        <ele>453</ele>
        <time>2012-05-24T15:05:36Z</time>
      </trkpt>
      <trkpt lat="46.78153" lon="5.62506">
        <ele>453</ele>
        <time>2012-05-24T15:05:41Z</time>
      </trkpt>
      <trkpt lat="46.78176" lon="5.6249">
        <ele>454</ele>
        <time>2012-05-24T15:05:59Z</time>
      </trkpt>
      <trkpt lat="46.78185" lon="5.62486">
        <ele>454</ele>
        <time>2012-05-24T15:06:07Z</time>
      </trkpt>
      <trkpt lat="46.78193" lon="5.62484">
        <ele>455</ele>
        <time>2012-05-24T15:06:13Z</time>
      </trkpt>
      <trkpt lat="46.7821" lon="5.62484">
        <ele>456</ele>
        <time>2012-05-24T15:06:26Z</time>
      </trkpt>
      <trkpt lat="46.78228" lon="5.62487">
        <ele>456</ele>
        <time>2012-05-24T15:06:40Z</time>
      </trkpt>
      <trkpt lat="46.78243" lon="5.6249">
        <ele>457</ele>
        <time>2012-05-24T15:06:52Z</time>
      </trkpt>
      <trkpt lat="46.78255" lon="5.625">
        <ele>457</ele>
        <time>2012-05-24T15:07:05Z</time>
      </trkpt>
      <trkpt lat="46.78271" lon="5.62496">
        <ele>457</ele>
        <time>2012-05-24T15:07:26Z</time>
      </trkpt>
      <trkpt lat="46.78292" lon="5.62502">
        <ele>456</ele>
        <time>2012-05-24T15:07:46Z</time>
      </trkpt>
      <trkpt lat="46.78287" lon="5.625">
        <ele>457</ele>
        <time>2012-05-24T15:08:47Z</time>
      </trkpt>
      <trkpt lat="46.7828" lon="5.62502">
        <ele>457</ele>
        <time>2012-05-24T15:09:07Z</time>
      </trkpt>
      <trkpt lat="46.78298" lon="5.62511">
        <ele>457</ele>
        <time>2012-05-24T15:11:45Z</time>
      </trkpt>
      <trkpt lat="46.78318" lon="5.62528">
        <ele>457</ele>
        <time>2012-05-24T15:12:04Z</time>
      </trkpt>
      <trkpt lat="46.7834" lon="5.62545">
        <ele>458</ele>
        <time>2012-05-24T15:12:25Z</time>
      </trkpt>
      <trkpt lat="46.7836" lon="5.62557">
        <ele>458</ele>
        <time>2012-05-24T15:12:49Z</time>
      </trkpt>
      <trkpt lat="46.78366" lon="5.62584">
        <ele>458</ele>
        <time>2012-05-24T15:13:09Z</time>
      </trkpt>
      <trkpt lat="46.78384" lon="5.62605">
        <ele>460</ele>
        <time>2012-05-24T15:13:32Z</time>
      </trkpt>
      <trkpt lat="46.78405" lon="5.62629">
        <ele>461</ele>
        <time>2012-05-24T15:13:53Z</time>
      </trkpt>
      <trkpt lat="46.78422" lon="5.62641">
        <ele>462</ele>
        <time>2012-05-24T15:14:15Z</time>
      </trkpt>
      <trkpt lat="46.78435" lon="5.62647">
        <ele>463</ele>
        <time>2012-05-24T15:14:32Z</time>
      </trkpt>
      <trkpt lat="46.78461" lon="5.62653">
        <ele>465</ele>
        <time>2012-05-24T15:14:56Z</time>
      </trkpt>
      <trkpt lat="46.7848" lon="5.62659">
        <ele>467</ele>
        <time>2012-05-24T15:15:14Z</time>
      </trkpt>
      <trkpt lat="46.78501" lon="5.62661">
        <ele>467</ele>
        <time>2012-05-24T15:15:33Z</time>
      </trkpt>
      <trkpt lat="46.78524" lon="5.62667">
        <ele>469</ele>
        <time>2012-05-24T15:15:57Z</time>
      </trkpt>
      <trkpt lat="46.78548" lon="5.62678">
        <ele>470</ele>
        <time>2012-05-24T15:16:20Z</time>
      </trkpt>
      <trkpt lat="46.78578" lon="5.62668">
        <ele>469</ele>
        <time>2012-05-24T15:16:44Z</time>
      </trkpt>
      <trkpt lat="46.78602" lon="5.62657">
        <ele>469</ele>
        <time>2012-05-24T15:17:07Z</time>
      </trkpt>
      <trkpt lat="46.78623" lon="5.62651">
        <ele>469</ele>
        <time>2012-05-24T15:17:26Z</time>
      </trkpt>
      <trkpt lat="46.78645" lon="5.62621">
        <ele>470</ele>
        <time>2012-05-24T15:17:52Z</time>
      </trkpt>
      <trkpt lat="46.78671" lon="5.62598">
        <ele>472</ele>
        <time>2012-05-24T15:18:19Z</time>
      </trkpt>
      <trkpt lat="46.78693" lon="5.62577">
        <ele>473</ele>
        <time>2012-05-24T15:18:42Z</time>
      </trkpt>
      <trkpt lat="46.78713" lon="5.62553">
        <ele>471</ele>
        <time>2012-05-24T15:19:01Z</time>
      </trkpt>
      <trkpt lat="46.78726" lon="5.62542">
        <ele>471</ele>
        <time>2012-05-24T15:19:11Z</time>
      </trkpt>
      <trkpt lat="46.78743" lon="5.62515">
        <ele>472</ele>
        <time>2012-05-24T15:19:34Z</time>
      </trkpt>
      <trkpt lat="46.78765" lon="5.62492">
        <ele>472</ele>
        <time>2012-05-24T15:19:58Z</time>
      </trkpt>
      <trkpt lat="46.78785" lon="5.62485">
        <ele>471</ele>
        <time>2012-05-24T15:20:17Z</time>
      </trkpt>
      <trkpt lat="46.78821" lon="5.62457">
        <ele>469</ele>
        <time>2012-05-24T15:20:41Z</time>
      </trkpt>
      <trkpt lat="46.78827" lon="5.62453">
        <ele>469</ele>
        <time>2012-05-24T15:20:46Z</time>
      </trkpt>
      <trkpt lat="46.78844" lon="5.62435">
        <ele>466</ele>
        <time>2012-05-24T15:21:05Z</time>
      </trkpt>
      <trkpt lat="46.78855" lon="5.62426">
        <ele>465</ele>
        <time>2012-05-24T15:21:17Z</time>
      </trkpt>
      <trkpt lat="46.78873" lon="5.6241">
        <ele>463</ele>
        <time>2012-05-24T15:21:36Z</time>
      </trkpt>
      <trkpt lat="46.78887" lon="5.62395">
        <ele>462</ele>
        <time>2012-05-24T15:21:52Z</time>
      </trkpt>
      <trkpt lat="46.78899" lon="5.62371">
        <ele>460</ele>
        <time>2012-05-24T15:22:10Z</time>
      </trkpt>
      <trkpt lat="46.78909" lon="5.62368">
        <ele>459</ele>
        <time>2012-05-24T15:22:28Z</time>
      </trkpt>
      <trkpt lat="46.78916" lon="5.62391">
        <ele>462</ele>
        <time>2012-05-24T15:22:47Z</time>
      </trkpt>
      <trkpt lat="46.78923" lon="5.62413">
        <ele>463</ele>
        <time>2012-05-24T15:23:05Z</time>
      </trkpt>
      <trkpt lat="46.78932" lon="5.62437">
        <ele>466</ele>
        <time>2012-05-24T15:23:27Z</time>
      </trkpt>
      <trkpt lat="46.78949" lon="5.62465">
        <ele>468</ele>
        <time>2012-05-24T15:23:48Z</time>
      </trkpt>
      <trkpt lat="46.78952" lon="5.625">
        <ele>470</ele>
        <time>2012-05-24T15:24:07Z</time>
      </trkpt>
      <trkpt lat="46.78956" lon="5.62505">
        <ele>470</ele>
        <time>2012-05-24T15:24:13Z</time>
      </trkpt>
      <trkpt lat="46.78969" lon="5.62518">
        <ele>472</ele>
        <time>2012-05-24T15:24:30Z</time>
      </trkpt>
      <trkpt lat="46.78983" lon="5.62526">
        <ele>473</ele>
        <time>2012-05-24T15:24:43Z</time>
      </trkpt>
      <trkpt lat="46.78993" lon="5.62528">
        <ele>473</ele>
        <time>2012-05-24T15:24:49Z</time>
      </trkpt>
      <trkpt lat="46.79007" lon="5.62535">
        <ele>473</ele>
        <time>2012-05-24T15:24:59Z</time>
      </trkpt>
      <trkpt lat="46.79024" lon="5.62544">
        <ele>473</ele>
        <time>2012-05-24T15:25:12Z</time>
      </trkpt>
      <trkpt lat="46.79026" lon="5.62546">
        <ele>472</ele>
        <time>2012-05-24T15:25:14Z</time>
      </trkpt>
      <trkpt lat="46.7904" lon="5.62552">
        <ele>472</ele>
        <time>2012-05-24T15:25:23Z</time>
      </trkpt>
      <trkpt lat="46.79042" lon="5.62554">
        <ele>472</ele>
        <time>2012-05-24T15:25:25Z</time>
      </trkpt>
      <trkpt lat="46.79046" lon="5.62556">
        <ele>472</ele>
        <time>2012-05-24T15:25:28Z</time>
      </trkpt>
      <trkpt lat="46.79056" lon="5.62562">
        <ele>472</ele>
        <time>2012-05-24T15:25:36Z</time>
      </trkpt>
      <trkpt lat="46.79067" lon="5.62565">
        <ele>472</ele>
        <time>2012-05-24T15:25:42Z</time>
      </trkpt>
      <trkpt lat="46.79075" lon="5.62576">
        <ele>472</ele>
        <time>2012-05-24T15:25:55Z</time>
      </trkpt>
      <trkpt lat="46.79107" lon="5.6259">
        <ele>473</ele>
        <time>2012-05-24T15:26:23Z</time>
      </trkpt>
      <trkpt lat="46.79137" lon="5.62589">
        <ele>474</ele>
        <time>2012-05-24T15:26:46Z</time>
      </trkpt>
      <trkpt lat="46.79159" lon="5.62589">
        <ele>475</ele>
        <time>2012-05-24T15:27:05Z</time>
      </trkpt>
      <trkpt lat="46.79173" lon="5.62585">
        <ele>474</ele>
        <time>2012-05-24T15:27:16Z</time>
      </trkpt>
      <trkpt lat="46.79203" lon="5.62588">
        <ele>474</ele>
        <time>2012-05-24T15:27:37Z</time>
      </trkpt>
      <trkpt lat="46.79236" lon="5.6259">
        <ele>474</ele>
        <time>2012-05-24T15:27:55Z</time>
      </trkpt>
      <trkpt lat="46.79253" lon="5.62589">
        <ele>473</ele>
        <time>2012-05-24T15:28:07Z</time>
      </trkpt>
      <trkpt lat="46.79276" lon="5.62589">
        <ele>475</ele>
        <time>2012-05-24T15:28:25Z</time>
      </trkpt>
      <trkpt lat="46.793" lon="5.62583">
        <ele>475</ele>
        <time>2012-05-24T15:28:46Z</time>
      </trkpt>
      <trkpt lat="46.7932" lon="5.62587">
        <ele>475</ele>
        <time>2012-05-24T15:29:02Z</time>
      </trkpt>
      <trkpt lat="46.79344" lon="5.62587">
        <ele>474</ele>
        <time>2012-05-24T15:29:20Z</time>
      </trkpt>
      <trkpt lat="46.79365" lon="5.62591">
        <ele>473</ele>
        <time>2012-05-24T15:29:36Z</time>
      </trkpt>
      <trkpt lat="46.79365" lon="5.62594">
        <ele>473</ele>
        <time>2012-05-24T15:30:23Z</time>
      </trkpt>
      <trkpt lat="46.79386" lon="5.62593">
        <ele>472</ele>
        <time>2012-05-24T15:31:02Z</time>
      </trkpt>
      <trkpt lat="46.79397" lon="5.62602">
        <ele>471</ele>
        <time>2012-05-24T15:31:12Z</time>
      </trkpt>
      <trkpt lat="46.7942" lon="5.62609">
        <ele>470</ele>
        <time>2012-05-24T15:31:28Z</time>
      </trkpt>
      <trkpt lat="46.79436" lon="5.62613">
        <ele>470</ele>
        <time>2012-05-24T15:31:41Z</time>
      </trkpt>
      <trkpt lat="46.79454" lon="5.62618">
        <ele>470</ele>
        <time>2012-05-24T15:31:54Z</time>
      </trkpt>
      <trkpt lat="46.79479" lon="5.62631">
        <ele>468</ele>
        <time>2012-05-24T15:32:16Z</time>
      </trkpt>
      <trkpt lat="46.79503" lon="5.6264">
        <ele>468</ele>
        <time>2012-05-24T15:32:33Z</time>
      </trkpt>
      <trkpt lat="46.79518" lon="5.62646">
        <ele>468</ele>
        <time>2012-05-24T15:32:47Z</time>
      </trkpt>
      <trkpt lat="46.7953" lon="5.62648">
        <ele>468</ele>
        <time>2012-05-24T15:33:03Z</time>
      </trkpt>
      <trkpt lat="46.79545" lon="5.62648">
        <ele>467</ele>
        <time>2012-05-24T15:33:18Z</time>
      </trkpt>
      <trkpt lat="46.7956" lon="5.62654">
        <ele>467</ele>
        <time>2012-05-24T15:33:35Z</time>
      </trkpt>
      <trkpt lat="46.79578" lon="5.62663">
        <ele>463</ele>
        <time>2012-05-24T15:33:53Z</time>
      </trkpt>
      <trkpt lat="46.79595" lon="5.6267">
        <ele>462</ele>
        <time>2012-05-24T15:34:08Z</time>
      </trkpt>
      <trkpt lat="46.79615" lon="5.62675">
        <ele>462</ele>
        <time>2012-05-24T15:34:25Z</time>
      </trkpt>
      <trkpt lat="46.79634" lon="5.62683">
        <ele>463</ele>
        <time>2012-05-24T15:34:42Z</time>
      </trkpt>
      <trkpt lat="46.79654" lon="5.62689">
        <ele>463</ele>
        <time>2012-05-24T15:35:01Z</time>
      </trkpt>
      <trkpt lat="46.79671" lon="5.62694">
        <ele>463</ele>
        <time>2012-05-24T15:35:19Z</time>
      </trkpt>
      <trkpt lat="46.7968" lon="5.62694">
        <ele>463</ele>
        <time>2012-05-24T15:35:26Z</time>
      </trkpt>
      <trkpt lat="46.79684" lon="5.62678">
        <ele>462</ele>
        <time>2012-05-24T15:35:42Z</time>
      </trkpt>
      <trkpt lat="46.79689" lon="5.62669">
        <ele>461</ele>
        <time>2012-05-24T15:35:54Z</time>
      </trkpt>
      <trkpt lat="46.7969" lon="5.62668">
        <ele>461</ele>
        <time>2012-05-24T15:35:55Z</time>
      </trkpt>
      <trkpt lat="46.79695" lon="5.62664">
        <ele>461</ele>
        <time>2012-05-24T15:36:02Z</time>
      </trkpt>
      <trkpt lat="46.79701" lon="5.6266">
        <ele>460</ele>
        <time>2012-05-24T15:36:08Z</time>
      </trkpt>
      <trkpt lat="46.79712" lon="5.62646">
        <ele>460</ele>
        <time>2012-05-24T15:36:21Z</time>
      </trkpt>
      <trkpt lat="46.79723" lon="5.6263">
        <ele>458</ele>
        <time>2012-05-24T15:36:36Z</time>
      </trkpt>
      <trkpt lat="46.79733" lon="5.62611">
        <ele>457</ele>
        <time>2012-05-24T15:36:49Z</time>
      </trkpt>
      <trkpt lat="46.79735" lon="5.6261">
        <ele>457</ele>
        <time>2012-05-24T15:36:54Z</time>
      </trkpt>
      <trkpt lat="46.79738" lon="5.6261">
        <ele>457</ele>
        <time>2012-05-24T15:36:57Z</time>
      </trkpt>
      <trkpt lat="46.79749" lon="5.62587">
        <ele>456</ele>
        <time>2012-05-24T15:37:14Z</time>
      </trkpt>
      <trkpt lat="46.7976" lon="5.62574">
        <ele>454</ele>
        <time>2012-05-24T15:37:28Z</time>
      </trkpt>
      <trkpt lat="46.79773" lon="5.62558">
        <ele>453</ele>
        <time>2012-05-24T15:37:45Z</time>
      </trkpt>
      <trkpt lat="46.79783" lon="5.62541">
        <ele>452</ele>
        <time>2012-05-24T15:37:58Z</time>
      </trkpt>
      <trkpt lat="46.79791" lon="5.62523">
        <ele>451</ele>
        <time>2012-05-24T15:38:14Z</time>
      </trkpt>
      <trkpt lat="46.79794" lon="5.62523">
        <ele>451</ele>
        <time>2012-05-24T15:38:36Z</time>
      </trkpt>
      <trkpt lat="46.798" lon="5.62518">
        <ele>451</ele>
        <time>2012-05-24T15:38:43Z</time>
      </trkpt>
      <trkpt lat="46.79802" lon="5.62516">
        <ele>450</ele>
        <time>2012-05-24T15:38:45Z</time>
      </trkpt>
      <trkpt lat="46.79806" lon="5.62513">
        <ele>450</ele>
        <time>2012-05-24T15:38:49Z</time>
      </trkpt>
      <trkpt lat="46.79823" lon="5.625">
        <ele>449</ele>
        <time>2012-05-24T15:39:03Z</time>
      </trkpt>
      <trkpt lat="46.79835" lon="5.62498">
        <ele>447</ele>
        <time>2012-05-24T15:39:15Z</time>
      </trkpt>
      <trkpt lat="46.79845" lon="5.62499">
        <ele>447</ele>
        <time>2012-05-24T15:39:23Z</time>
      </trkpt>
      <trkpt lat="46.79859" lon="5.62502">
        <ele>447</ele>
        <time>2012-05-24T15:39:33Z</time>
      </trkpt>
      <trkpt lat="46.79866" lon="5.62507">
        <ele>446</ele>
        <time>2012-05-24T15:39:39Z</time>
      </trkpt>
      <trkpt lat="46.7988" lon="5.62506">
        <ele>444</ele>
        <time>2012-05-24T15:39:54Z</time>
      </trkpt>
      <trkpt lat="46.79894" lon="5.62517">
        <ele>442</ele>
        <time>2012-05-24T15:40:12Z</time>
      </trkpt>
      <trkpt lat="46.79922" lon="5.62534">
        <ele>441</ele>
        <time>2012-05-24T15:40:32Z</time>
      </trkpt>
      <trkpt lat="46.79925" lon="5.62535">
        <ele>440</ele>
        <time>2012-05-24T15:40:34Z</time>
      </trkpt>
      <trkpt lat="46.79948" lon="5.62536">
        <ele>439</ele>
        <time>2012-05-24T15:40:53Z</time>
      </trkpt>
      <trkpt lat="46.79967" lon="5.62531">
        <ele>437</ele>
        <time>2012-05-24T15:41:14Z</time>
      </trkpt>
      <trkpt lat="46.79961" lon="5.62519">
        <ele>434</ele>
        <time>2012-05-24T15:41:29Z</time>
      </trkpt>
      <trkpt lat="46.79956" lon="5.62499">
        <ele>431</ele>
        <time>2012-05-24T15:41:43Z</time>
      </trkpt>
      <trkpt lat="46.79954" lon="5.62484">
        <ele>428</ele>
        <time>2012-05-24T15:41:57Z</time>
      </trkpt>
      <trkpt lat="46.79946" lon="5.62457">
        <ele>425</ele>
        <time>2012-05-24T15:42:16Z</time>
      </trkpt>
      <trkpt lat="46.79934" lon="5.62439">
        <ele>424</ele>
        <time>2012-05-24T15:42:29Z</time>
      </trkpt>
      <trkpt lat="46.79915" lon="5.6242">
        <ele>421</ele>
        <time>2012-05-24T15:42:47Z</time>
      </trkpt>
      <trkpt lat="46.79905" lon="5.62417">
        <ele>419</ele>
        <time>2012-05-24T15:43:02Z</time>
      </trkpt>
      <trkpt lat="46.79889" lon="5.62416">
        <ele>416</ele>
        <time>2012-05-24T15:43:17Z</time>
      </trkpt>
      <trkpt lat="46.79875" lon="5.6241">
        <ele>413</ele>
        <time>2012-05-24T15:43:31Z</time>
      </trkpt>
      <trkpt lat="46.79861" lon="5.6241">
        <ele>410</ele>
        <time>2012-05-24T15:43:47Z</time>
      </trkpt>
      <trkpt lat="46.79838" lon="5.62396">
        <ele>406</ele>
        <time>2012-05-24T15:44:05Z</time>
      </trkpt>
      <trkpt lat="46.79828" lon="5.62398">
        <ele>403</ele>
        <time>2012-05-24T15:44:19Z</time>
      </trkpt>
      <trkpt lat="46.79812" lon="5.62397">
        <ele>401</ele>
        <time>2012-05-24T15:44:37Z</time>
      </trkpt>
      <trkpt lat="46.79792" lon="5.624">
        <ele>398</ele>
        <time>2012-05-24T15:44:57Z</time>
      </trkpt>
      <trkpt lat="46.79774" lon="5.62413">
        <ele>395</ele>
        <time>2012-05-24T15:45:17Z</time>
      </trkpt>
      <trkpt lat="46.79768" lon="5.62418">
        <ele>395</ele>
        <time>2012-05-24T15:45:22Z</time>
      </trkpt>
      <trkpt lat="46.7975" lon="5.62425">
        <ele>394</ele>
        <time>2012-05-24T15:45:33Z</time>
      </trkpt>
      <trkpt lat="46.79745" lon="5.62428">
        <ele>394</ele>
        <time>2012-05-24T15:45:38Z</time>
      </trkpt>
      <trkpt lat="46.79738" lon="5.62429">
        <ele>393</ele>
        <time>2012-05-24T15:45:45Z</time>
      </trkpt>
      <trkpt lat="46.79724" lon="5.62436">
        <ele>391</ele>
        <time>2012-05-24T15:45:58Z</time>
      </trkpt>
      <trkpt lat="46.79708" lon="5.6246">
        <ele>391</ele>
        <time>2012-05-24T15:46:26Z</time>
      </trkpt>
      <trkpt lat="46.79691" lon="5.62469">
        <ele>390</ele>
        <time>2012-05-24T15:47:02Z</time>
      </trkpt>
      <trkpt lat="46.79698" lon="5.62455">
        <ele>388</ele>
        <time>2012-05-24T15:47:18Z</time>
      </trkpt>
      <trkpt lat="46.79675" lon="5.62461">
        <ele>385</ele>
        <time>2012-05-24T15:47:45Z</time>
      </trkpt>
      <trkpt lat="46.79641" lon="5.6247">
        <ele>383</ele>
        <time>2012-05-24T15:48:08Z</time>
      </trkpt>
      <trkpt lat="46.79637" lon="5.6246">
        <ele>380</ele>
        <time>2012-05-24T15:48:29Z</time>
      </trkpt>
      <trkpt lat="46.79629" lon="5.62443">
        <ele>378</ele>
        <time>2012-05-24T15:48:44Z</time>
      </trkpt>
      <trkpt lat="46.7963" lon="5.62442">
        <ele>378</ele>
        <time>2012-05-24T15:48:45Z</time>
      </trkpt>
      <trkpt lat="46.79628" lon="5.62411">
        <ele>375</ele>
        <time>2012-05-24T15:49:02Z</time>
      </trkpt>
      <trkpt lat="46.79643" lon="5.624">
        <ele>372</ele>
        <time>2012-05-24T15:49:19Z</time>
      </trkpt>
      <trkpt lat="46.79649" lon="5.62376">
        <ele>368</ele>
        <time>2012-05-24T15:49:40Z</time>
      </trkpt>
      <trkpt lat="46.79658" lon="5.62353">
        <ele>366</ele>
        <time>2012-05-24T15:49:59Z</time>
      </trkpt>
      <trkpt lat="46.7965" lon="5.62318">
        <ele>364</ele>
        <time>2012-05-24T15:50:19Z</time>
      </trkpt>
      <trkpt lat="46.79646" lon="5.62291">
        <ele>361</ele>
        <time>2012-05-24T15:50:37Z</time>
      </trkpt>
      <trkpt lat="46.79644" lon="5.62272">
        <ele>359</ele>
        <time>2012-05-24T15:50:54Z</time>
      </trkpt>
      <trkpt lat="46.79644" lon="5.62259">
        <ele>356</ele>
        <time>2012-05-24T15:51:10Z</time>
      </trkpt>
      <trkpt lat="46.79644" lon="5.62256">
        <ele>356</ele>
        <time>2012-05-24T15:51:12Z</time>
      </trkpt>
      <trkpt lat="46.79651" lon="5.62248">
        <ele>355</ele>
        <time>2012-05-24T15:51:17Z</time>
      </trkpt>
      <trkpt lat="46.79657" lon="5.62231">
        <ele>355</ele>
        <time>2012-05-24T15:51:32Z</time>
      </trkpt>
      <trkpt lat="46.79657" lon="5.6223">
        <ele>355</ele>
        <time>2012-05-24T15:51:33Z</time>
      </trkpt>
      <trkpt lat="46.79657" lon="5.62207">
        <ele>357</ele>
        <time>2012-05-24T15:51:52Z</time>
      </trkpt>
      <trkpt lat="46.79655" lon="5.62188">
        <ele>357</ele>
        <time>2012-05-24T15:52:09Z</time>
      </trkpt>
      <trkpt lat="46.79657" lon="5.62183">
        <ele>356</ele>
        <time>2012-05-24T15:52:14Z</time>
      </trkpt>
      <trkpt lat="46.79665" lon="5.62173">
        <ele>355</ele>
        <time>2012-05-24T15:52:26Z</time>
      </trkpt>
      <trkpt lat="46.7967" lon="5.62155">
        <ele>353</ele>
        <time>2012-05-24T15:52:42Z</time>
      </trkpt>
      <trkpt lat="46.79677" lon="5.62135">
        <ele>352</ele>
        <time>2012-05-24T15:52:57Z</time>
      </trkpt>
      <trkpt lat="46.79674" lon="5.62119">
        <ele>351</ele>
        <time>2012-05-24T15:53:10Z</time>
      </trkpt>
      <trkpt lat="46.79674" lon="5.62114">
        <ele>351</ele>
        <time>2012-05-24T15:53:13Z</time>
      </trkpt>
      <trkpt lat="46.79674" lon="5.62111">
        <ele>350</ele>
        <time>2012-05-24T15:53:15Z</time>
      </trkpt>
      <trkpt lat="46.79673" lon="5.62091">
        <ele>349</ele>
        <time>2012-05-24T15:53:28Z</time>
      </trkpt>
      <trkpt lat="46.79668" lon="5.62068">
        <ele>346</ele>
        <time>2012-05-24T15:53:44Z</time>
      </trkpt>
      <trkpt lat="46.79661" lon="5.62054">
        <ele>345</ele>
        <time>2012-05-24T15:53:51Z</time>
      </trkpt>
      <trkpt lat="46.79651" lon="5.62037">
        <ele>344</ele>
        <time>2012-05-24T15:54:01Z</time>
      </trkpt>
      <trkpt lat="46.79652" lon="5.62022">
        <ele>342</ele>
        <time>2012-05-24T15:54:10Z</time>
      </trkpt>
      <trkpt lat="46.79649" lon="5.6201">
        <ele>341</ele>
        <time>2012-05-24T15:54:20Z</time>
      </trkpt>
      <trkpt lat="46.79649" lon="5.62007">
        <ele>340</ele>
        <time>2012-05-24T15:54:22Z</time>
      </trkpt>
      <trkpt lat="46.79643" lon="5.61991">
        <ele>339</ele>
        <time>2012-05-24T15:54:35Z</time>
      </trkpt>
      <trkpt lat="46.79649" lon="5.61982">
        <ele>338</ele>
        <time>2012-05-24T15:54:39Z</time>
      </trkpt>
      <trkpt lat="46.79635" lon="5.61967">
        <ele>337</ele>
        <time>2012-05-24T15:54:54Z</time>
      </trkpt>
      <trkpt lat="46.79636" lon="5.61959">
        <ele>337</ele>
        <time>2012-05-24T15:55:23Z</time>
      </trkpt>
      <trkpt lat="46.79637" lon="5.61958">
        <ele>337</ele>
        <time>2012-05-24T15:55:25Z</time>
      </trkpt>
      <trkpt lat="46.79639" lon="5.61949">
        <ele>337</ele>
        <time>2012-05-24T15:55:30Z</time>
      </trkpt>
      <trkpt lat="46.79647" lon="5.61936">
        <ele>335</ele>
        <time>2012-05-24T15:55:39Z</time>
      </trkpt>
      <trkpt lat="46.79661" lon="5.61916">
        <ele>335</ele>
        <time>2012-05-24T15:55:55Z</time>
      </trkpt>
      <trkpt lat="46.79674" lon="5.61902">
        <ele>334</ele>
        <time>2012-05-24T15:56:13Z</time>
      </trkpt>
      <trkpt lat="46.79674" lon="5.619">
        <ele>333</ele>
        <time>2012-05-24T15:56:15Z</time>
      </trkpt>
      <trkpt lat="46.79687" lon="5.61887">
        <ele>335</ele>
        <time>2012-05-24T15:56:27Z</time>
      </trkpt>
      <trkpt lat="46.79706" lon="5.61869">
        <ele>334</ele>
        <time>2012-05-24T15:56:44Z</time>
      </trkpt>
      <trkpt lat="46.79712" lon="5.6186">
        <ele>334</ele>
        <time>2012-05-24T15:56:55Z</time>
      </trkpt>
      <trkpt lat="46.79707" lon="5.6184">
        <ele>332</ele>
        <time>2012-05-24T15:57:06Z</time>
      </trkpt>
      <trkpt lat="46.79705" lon="5.61836">
        <ele>331</ele>
        <time>2012-05-24T15:57:09Z</time>
      </trkpt>
      <trkpt lat="46.79707" lon="5.6183">
        <ele>331</ele>
        <time>2012-05-24T15:57:14Z</time>
      </trkpt>
      <trkpt lat="46.79706" lon="5.61808">
        <ele>330</ele>
        <time>2012-05-24T15:57:27Z</time>
      </trkpt>
      <trkpt lat="46.79704" lon="5.61802">
        <ele>330</ele>
        <time>2012-05-24T15:57:31Z</time>
      </trkpt>
      <trkpt lat="46.79703" lon="5.61796">
        <ele>329</ele>
        <time>2012-05-24T15:57:34Z</time>
      </trkpt>
      <trkpt lat="46.79701" lon="5.61772">
        <ele>328</ele>
        <time>2012-05-24T15:57:47Z</time>
      </trkpt>
      <trkpt lat="46.79699" lon="5.61763">
        <ele>328</ele>
        <time>2012-05-24T15:57:52Z</time>
      </trkpt>
      <trkpt lat="46.79698" lon="5.61753">
        <ele>328</ele>
        <time>2012-05-24T15:57:57Z</time>
      </trkpt>
      <trkpt lat="46.79697" lon="5.61742">
        <ele>327</ele>
        <time>2012-05-24T15:58:02Z</time>
      </trkpt>
      <trkpt lat="46.79704" lon="5.61721">
        <ele>326</ele>
        <time>2012-05-24T15:58:14Z</time>
      </trkpt>
      <trkpt lat="46.79714" lon="5.61706">
        <ele>326</ele>
        <time>2012-05-24T15:58:27Z</time>
      </trkpt>
      <trkpt lat="46.79715" lon="5.61705">
        <ele>326</ele>
        <time>2012-05-24T15:58:28Z</time>
      </trkpt>
      <trkpt lat="46.79725" lon="5.61678">
        <ele>324</ele>
        <time>2012-05-24T15:58:43Z</time>
      </trkpt>
      <trkpt lat="46.7974" lon="5.61637">
        <ele>324</ele>
        <time>2012-05-24T15:59:07Z</time>
      </trkpt>
      <trkpt lat="46.79748" lon="5.61623">
        <ele>322</ele>
        <time>2012-05-24T15:59:22Z</time>
      </trkpt>
      <trkpt lat="46.79749" lon="5.61616">
        <ele>322</ele>
        <time>2012-05-24T15:59:26Z</time>
      </trkpt>
      <trkpt lat="46.79753" lon="5.61603">
        <ele>322</ele>
        <time>2012-05-24T15:59:36Z</time>
      </trkpt>
      <trkpt lat="46.79752" lon="5.61601">
        <ele>322</ele>
        <time>2012-05-24T15:59:38Z</time>
      </trkpt>
      <trkpt lat="46.79752" lon="5.6159">
        <ele>321</ele>
        <time>2012-05-24T15:59:46Z</time>
      </trkpt>
      <trkpt lat="46.79747" lon="5.61574">
        <ele>321</ele>
        <time>2012-05-24T15:59:55Z</time>
      </trkpt>
      <trkpt lat="46.79745" lon="5.61565">
        <ele>320</ele>
        <time>2012-05-24T15:59:59Z</time>
      </trkpt>
      <trkpt lat="46.79738" lon="5.61547">
        <ele>320</ele>
        <time>2012-05-24T16:00:11Z</time>
      </trkpt>
      <trkpt lat="46.79734" lon="5.61535">
        <ele>321</ele>
        <time>2012-05-24T16:00:18Z</time>
      </trkpt>
      <trkpt lat="46.79728" lon="5.61515">
        <ele>320</ele>
        <time>2012-05-24T16:00:29Z</time>
      </trkpt>
      <trkpt lat="46.79728" lon="5.61512">
        <ele>320</ele>
        <time>2012-05-24T16:00:31Z</time>
      </trkpt>
      <trkpt lat="46.79727" lon="5.61507">
        <ele>320</ele>
        <time>2012-05-24T16:00:34Z</time>
      </trkpt>
      <trkpt lat="46.79733" lon="5.61481">
        <ele>318</ele>
        <time>2012-05-24T16:00:50Z</time>
      </trkpt>
      <trkpt lat="46.79739" lon="5.6146">
        <ele>316</ele>
        <time>2012-05-24T16:01:04Z</time>
      </trkpt>
      <trkpt lat="46.7975" lon="5.61421">
        <ele>315</ele>
        <time>2012-05-24T16:01:27Z</time>
      </trkpt>
      <trkpt lat="46.79763" lon="5.61399">
        <ele>314</ele>
        <time>2012-05-24T16:01:42Z</time>
      </trkpt>
      <trkpt lat="46.79765" lon="5.61393">
        <ele>314</ele>
        <time>2012-05-24T16:01:46Z</time>
      </trkpt>
      <trkpt lat="46.79767" lon="5.61374">
        <ele>312</ele>
        <time>2012-05-24T16:01:56Z</time>
      </trkpt>
      <trkpt lat="46.79767" lon="5.6137">
        <ele>312</ele>
        <time>2012-05-24T16:01:58Z</time>
      </trkpt>
      <trkpt lat="46.79773" lon="5.61344">
        <ele>311</ele>
        <time>2012-05-24T16:02:12Z</time>
      </trkpt>
      <trkpt lat="46.79785" lon="5.61315">
        <ele>309</ele>
        <time>2012-05-24T16:02:31Z</time>
      </trkpt>
      <trkpt lat="46.79799" lon="5.61283">
        <ele>308</ele>
        <time>2012-05-24T16:02:51Z</time>
      </trkpt>
      <trkpt lat="46.79819" lon="5.61263">
        <ele>307</ele>
        <time>2012-05-24T16:03:10Z</time>
      </trkpt>
      <trkpt lat="46.79836" lon="5.61248">
        <ele>307</ele>
        <time>2012-05-24T16:03:23Z</time>
      </trkpt>
      <trkpt lat="46.79852" lon="5.61235">
        <ele>306</ele>
        <time>2012-05-24T16:03:37Z</time>
      </trkpt>
      <trkpt lat="46.79867" lon="5.61226">
        <ele>306</ele>
        <time>2012-05-24T16:03:51Z</time>
      </trkpt>
      <trkpt lat="46.7988" lon="5.61223">
        <ele>306</ele>
        <time>2012-05-24T16:04:02Z</time>
      </trkpt>
      <trkpt lat="46.79882" lon="5.61224">
        <ele>306</ele>
        <time>2012-05-24T16:04:04Z</time>
      </trkpt>
      <trkpt lat="46.79887" lon="5.61223">
        <ele>306</ele>
        <time>2012-05-24T16:04:06Z</time>
      </trkpt>
      <trkpt lat="46.79889" lon="5.61224">
        <ele>306</ele>
        <time>2012-05-24T16:04:08Z</time>
      </trkpt>
      <trkpt lat="46.799" lon="5.61226">
        <ele>305</ele>
        <time>2012-05-24T16:04:18Z</time>
      </trkpt>
      <trkpt lat="46.79903" lon="5.61229">
        <ele>306</ele>
        <time>2012-05-24T16:04:23Z</time>
      </trkpt>
      <trkpt lat="46.79927" lon="5.61242">
        <ele>306</ele>
        <time>2012-05-24T16:04:38Z</time>
      </trkpt>
      <trkpt lat="46.7995" lon="5.6126">
        <ele>308</ele>
        <time>2012-05-24T16:04:56Z</time>
      </trkpt>
      <trkpt lat="46.79963" lon="5.6127">
        <ele>309</ele>
        <time>2012-05-24T16:05:09Z</time>
      </trkpt>
      <trkpt lat="46.79981" lon="5.61286">
        <ele>310</ele>
        <time>2012-05-24T16:05:27Z</time>
      </trkpt>
      <trkpt lat="46.79998" lon="5.61294">
        <ele>312</ele>
        <time>2012-05-24T16:05:41Z</time>
      </trkpt>
      <trkpt lat="46.80007" lon="5.61281">
        <ele>312</ele>
        <time>2012-05-24T16:05:53Z</time>
      </trkpt>
      <trkpt lat="46.80009" lon="5.61279">
        <ele>312</ele>
        <time>2012-05-24T16:06:12Z</time>
      </trkpt>
      <trkpt lat="46.80009" lon="5.61279">
        <ele>313</ele>
        <time>2012-05-24T16:06:23Z</time>
      </trkpt>
    </trkseg>
  </trk>
</gpx>